<?xml version="1.0" encoding="UTF-8" standalone="no" ?>
<gpx xmlns="http://www.topografix.com/GPX/1/1" xmlns:xsi="http://www.w3.org/2001/XMLSchema-instance" xsi:schemaLocation="http://www.topografix.com/GPX/1/1 http://www.topografix.com/GPX/1/1/gpx.xsd" version="1.1" creator="VisuGPX - https://www.visugpx.com">
  <metadata>
    <name>Albiez-Montrond</name>
  </metadata>
  <trk>
    <name><![CDATA[Albiez-Montrond]]></name>
    <trkseg>
      <trkpt lat="45.18545" lon="6.31828">
        <ele>1627</ele>
        <time>2023-02-05T08:35:42.788Z</time>
      </trkpt>
      <trkpt lat="45.18545" lon="6.31828">
        <ele>1627</ele>
        <time>2023-02-05T08:35:43.327Z</time>
      </trkpt>
      <trkpt lat="45.18547" lon="6.31828">
        <ele>1627</ele>
        <time>2023-02-05T08:36:00.359Z</time>
      </trkpt>
      <trkpt lat="45.18547" lon="6.31828">
        <ele>1627</ele>
        <time>2023-02-05T08:38:49.334Z</time>
      </trkpt>
      <trkpt lat="45.18527" lon="6.31845">
        <ele>1624</ele>
        <time>2023-02-05T08:38:50.365Z</time>
      </trkpt>
      <trkpt lat="45.18518" lon="6.3184">
        <ele>1624</ele>
        <time>2023-02-05T08:39:05.332Z</time>
      </trkpt>
      <trkpt lat="45.18509" lon="6.31835">
        <ele>1625</ele>
        <time>2023-02-05T08:39:16.299Z</time>
      </trkpt>
      <trkpt lat="45.18501" lon="6.31828">
        <ele>1626</ele>
        <time>2023-02-05T08:39:26.343Z</time>
      </trkpt>
      <trkpt lat="45.18492" lon="6.31824">
        <ele>1628</ele>
        <time>2023-02-05T08:39:39.269Z</time>
      </trkpt>
      <trkpt lat="45.18483" lon="6.31827">
        <ele>1630</ele>
        <time>2023-02-05T08:39:53.328Z</time>
      </trkpt>
      <trkpt lat="45.18474" lon="6.31825">
        <ele>1632</ele>
        <time>2023-02-05T08:40:09.312Z</time>
      </trkpt>
      <trkpt lat="45.18469" lon="6.31829">
        <ele>1635</ele>
        <time>2023-02-05T08:40:29.318Z</time>
      </trkpt>
      <trkpt lat="45.18469" lon="6.31829">
        <ele>1635</ele>
        <time>2023-02-05T08:40:58.349Z</time>
      </trkpt>
      <trkpt lat="45.18449" lon="6.31845">
        <ele>1641</ele>
        <time>2023-02-05T08:40:59.326Z</time>
      </trkpt>
      <trkpt lat="45.1844" lon="6.3185">
        <ele>1643</ele>
        <time>2023-02-05T08:41:10.293Z</time>
      </trkpt>
      <trkpt lat="45.18431" lon="6.31853">
        <ele>1646</ele>
        <time>2023-02-05T08:41:21.330Z</time>
      </trkpt>
      <trkpt lat="45.18422" lon="6.31858">
        <ele>1649</ele>
        <time>2023-02-05T08:41:34.341Z</time>
      </trkpt>
      <trkpt lat="45.18416" lon="6.31867">
        <ele>1653</ele>
        <time>2023-02-05T08:41:50.309Z</time>
      </trkpt>
      <trkpt lat="45.18411" lon="6.31879">
        <ele>1656</ele>
        <time>2023-02-05T08:42:04.356Z</time>
      </trkpt>
      <trkpt lat="45.18411" lon="6.31892">
        <ele>1663</ele>
        <time>2023-02-05T08:42:22.349Z</time>
      </trkpt>
      <trkpt lat="45.18412" lon="6.31905">
        <ele>1667</ele>
        <time>2023-02-05T08:42:32.337Z</time>
      </trkpt>
      <trkpt lat="45.18415" lon="6.31917">
        <ele>1671</ele>
        <time>2023-02-05T08:42:42.339Z</time>
      </trkpt>
      <trkpt lat="45.18416" lon="6.31931">
        <ele>1678</ele>
        <time>2023-02-05T08:42:55.332Z</time>
      </trkpt>
      <trkpt lat="45.18417" lon="6.31944">
        <ele>1682</ele>
        <time>2023-02-05T08:43:05.329Z</time>
      </trkpt>
      <trkpt lat="45.18418" lon="6.31958">
        <ele>1686</ele>
        <time>2023-02-05T08:43:18.325Z</time>
      </trkpt>
      <trkpt lat="45.18419" lon="6.31971">
        <ele>1689</ele>
        <time>2023-02-05T08:43:30.331Z</time>
      </trkpt>
      <trkpt lat="45.1841" lon="6.31976">
        <ele>1691</ele>
        <time>2023-02-05T08:43:47.364Z</time>
      </trkpt>
      <trkpt lat="45.18401" lon="6.31973">
        <ele>1691</ele>
        <time>2023-02-05T08:44:03.337Z</time>
      </trkpt>
      <trkpt lat="45.18392" lon="6.3197">
        <ele>1689</ele>
        <time>2023-02-05T08:44:15.334Z</time>
      </trkpt>
      <trkpt lat="45.18384" lon="6.31965">
        <ele>1686</ele>
        <time>2023-02-05T08:44:30.357Z</time>
      </trkpt>
      <trkpt lat="45.18377" lon="6.31974">
        <ele>1686</ele>
        <time>2023-02-05T08:44:44.340Z</time>
      </trkpt>
      <trkpt lat="45.18374" lon="6.31986">
        <ele>1688</ele>
        <time>2023-02-05T08:44:58.325Z</time>
      </trkpt>
      <trkpt lat="45.1837" lon="6.31999">
        <ele>1692</ele>
        <time>2023-02-05T08:45:10.372Z</time>
      </trkpt>
      <trkpt lat="45.18366" lon="6.32011">
        <ele>1696</ele>
        <time>2023-02-05T08:45:21.322Z</time>
      </trkpt>
      <trkpt lat="45.18357" lon="6.32015">
        <ele>1700</ele>
        <time>2023-02-05T08:45:35.339Z</time>
      </trkpt>
      <trkpt lat="45.18349" lon="6.3202">
        <ele>1701</ele>
        <time>2023-02-05T08:45:47.298Z</time>
      </trkpt>
      <trkpt lat="45.1834" lon="6.32024">
        <ele>1700</ele>
        <time>2023-02-05T08:45:57.323Z</time>
      </trkpt>
      <trkpt lat="45.18331" lon="6.32026">
        <ele>1700</ele>
        <time>2023-02-05T08:46:07.359Z</time>
      </trkpt>
      <trkpt lat="45.18321" lon="6.32031">
        <ele>1700</ele>
        <time>2023-02-05T08:46:17.331Z</time>
      </trkpt>
      <trkpt lat="45.18313" lon="6.32038">
        <ele>1700</ele>
        <time>2023-02-05T08:46:27.339Z</time>
      </trkpt>
      <trkpt lat="45.18306" lon="6.32046">
        <ele>1702</ele>
        <time>2023-02-05T08:46:36.321Z</time>
      </trkpt>
      <trkpt lat="45.18298" lon="6.32053">
        <ele>1703</ele>
        <time>2023-02-05T08:46:46.284Z</time>
      </trkpt>
      <trkpt lat="45.18292" lon="6.32062">
        <ele>1705</ele>
        <time>2023-02-05T08:46:56.337Z</time>
      </trkpt>
      <trkpt lat="45.18286" lon="6.32073">
        <ele>1706</ele>
        <time>2023-02-05T08:47:06.325Z</time>
      </trkpt>
      <trkpt lat="45.18285" lon="6.32087">
        <ele>1708</ele>
        <time>2023-02-05T08:47:17.278Z</time>
      </trkpt>
      <trkpt lat="45.18285" lon="6.321">
        <ele>1710</ele>
        <time>2023-02-05T08:47:27.315Z</time>
      </trkpt>
      <trkpt lat="45.18285" lon="6.32114">
        <ele>1712</ele>
        <time>2023-02-05T08:47:37.335Z</time>
      </trkpt>
      <trkpt lat="45.18282" lon="6.32127">
        <ele>1715</ele>
        <time>2023-02-05T08:47:50.344Z</time>
      </trkpt>
      <trkpt lat="45.18277" lon="6.32138">
        <ele>1718</ele>
        <time>2023-02-05T08:48:03.335Z</time>
      </trkpt>
      <trkpt lat="45.18272" lon="6.32149">
        <ele>1720</ele>
        <time>2023-02-05T08:48:17.295Z</time>
      </trkpt>
      <trkpt lat="45.18268" lon="6.32162">
        <ele>1721</ele>
        <time>2023-02-05T08:48:26.345Z</time>
      </trkpt>
      <trkpt lat="45.18263" lon="6.32174">
        <ele>1722</ele>
        <time>2023-02-05T08:48:38.352Z</time>
      </trkpt>
      <trkpt lat="45.18259" lon="6.32185">
        <ele>1723</ele>
        <time>2023-02-05T08:48:48.346Z</time>
      </trkpt>
      <trkpt lat="45.18258" lon="6.32198">
        <ele>1725</ele>
        <time>2023-02-05T08:48:58.353Z</time>
      </trkpt>
      <trkpt lat="45.18255" lon="6.32211">
        <ele>1726</ele>
        <time>2023-02-05T08:49:07.337Z</time>
      </trkpt>
      <trkpt lat="45.1825" lon="6.32223">
        <ele>1728</ele>
        <time>2023-02-05T08:49:18.324Z</time>
      </trkpt>
      <trkpt lat="45.18245" lon="6.32234">
        <ele>1730</ele>
        <time>2023-02-05T08:49:28.348Z</time>
      </trkpt>
      <trkpt lat="45.18241" lon="6.32245">
        <ele>1731</ele>
        <time>2023-02-05T08:49:39.366Z</time>
      </trkpt>
      <trkpt lat="45.18236" lon="6.32257">
        <ele>1732</ele>
        <time>2023-02-05T08:49:50.361Z</time>
      </trkpt>
      <trkpt lat="45.18231" lon="6.3227">
        <ele>1733</ele>
        <time>2023-02-05T08:50:00.343Z</time>
      </trkpt>
      <trkpt lat="45.18229" lon="6.32282">
        <ele>1734</ele>
        <time>2023-02-05T08:50:09.317Z</time>
      </trkpt>
      <trkpt lat="45.18228" lon="6.32295">
        <ele>1736</ele>
        <time>2023-02-05T08:50:20.361Z</time>
      </trkpt>
      <trkpt lat="45.18229" lon="6.32309">
        <ele>1737</ele>
        <time>2023-02-05T08:50:30.327Z</time>
      </trkpt>
      <trkpt lat="45.18229" lon="6.32322">
        <ele>1739</ele>
        <time>2023-02-05T08:50:42.328Z</time>
      </trkpt>
      <trkpt lat="45.18221" lon="6.32328">
        <ele>1741</ele>
        <time>2023-02-05T08:51:03.327Z</time>
      </trkpt>
      <trkpt lat="45.18212" lon="6.32327">
        <ele>1740</ele>
        <time>2023-02-05T08:51:24.358Z</time>
      </trkpt>
      <trkpt lat="45.18206" lon="6.32337">
        <ele>1740</ele>
        <time>2023-02-05T08:51:39.325Z</time>
      </trkpt>
      <trkpt lat="45.18199" lon="6.32347">
        <ele>1742</ele>
        <time>2023-02-05T08:51:51.314Z</time>
      </trkpt>
      <trkpt lat="45.18191" lon="6.32355">
        <ele>1745</ele>
        <time>2023-02-05T08:52:02.313Z</time>
      </trkpt>
      <trkpt lat="45.18184" lon="6.32362">
        <ele>1747</ele>
        <time>2023-02-05T08:52:15.297Z</time>
      </trkpt>
      <trkpt lat="45.18175" lon="6.32367">
        <ele>1747</ele>
        <time>2023-02-05T08:52:24.346Z</time>
      </trkpt>
      <trkpt lat="45.18165" lon="6.32365">
        <ele>1747</ele>
        <time>2023-02-05T08:52:36.342Z</time>
      </trkpt>
      <trkpt lat="45.18157" lon="6.32359">
        <ele>1747</ele>
        <time>2023-02-05T08:52:49.332Z</time>
      </trkpt>
      <trkpt lat="45.18153" lon="6.32355">
        <ele>1746</ele>
        <time>2023-02-05T08:53:06.317Z</time>
      </trkpt>
      <trkpt lat="45.18153" lon="6.32355">
        <ele>1746</ele>
        <time>2023-02-05T08:53:52.288Z</time>
      </trkpt>
      <trkpt lat="45.18132" lon="6.32342">
        <ele>1750</ele>
        <time>2023-02-05T08:53:53.320Z</time>
      </trkpt>
      <trkpt lat="45.18123" lon="6.32346">
        <ele>1752</ele>
        <time>2023-02-05T08:54:05.262Z</time>
      </trkpt>
      <trkpt lat="45.18114" lon="6.32348">
        <ele>1755</ele>
        <time>2023-02-05T08:54:17.318Z</time>
      </trkpt>
      <trkpt lat="45.18105" lon="6.32351">
        <ele>1760</ele>
        <time>2023-02-05T08:54:31.306Z</time>
      </trkpt>
      <trkpt lat="45.18096" lon="6.32353">
        <ele>1762</ele>
        <time>2023-02-05T08:54:44.273Z</time>
      </trkpt>
      <trkpt lat="45.18088" lon="6.32358">
        <ele>1764</ele>
        <time>2023-02-05T08:54:55.296Z</time>
      </trkpt>
      <trkpt lat="45.18078" lon="6.32356">
        <ele>1765</ele>
        <time>2023-02-05T08:55:06.287Z</time>
      </trkpt>
      <trkpt lat="45.1807" lon="6.32351">
        <ele>1766</ele>
        <time>2023-02-05T08:55:17.317Z</time>
      </trkpt>
      <trkpt lat="45.18064" lon="6.32339">
        <ele>1767</ele>
        <time>2023-02-05T08:55:31.299Z</time>
      </trkpt>
      <trkpt lat="45.18061" lon="6.32328">
        <ele>1767</ele>
        <time>2023-02-05T08:55:47.329Z</time>
      </trkpt>
      <trkpt lat="45.18057" lon="6.32315">
        <ele>1769</ele>
        <time>2023-02-05T08:56:03.322Z</time>
      </trkpt>
      <trkpt lat="45.18055" lon="6.32303">
        <ele>1771</ele>
        <time>2023-02-05T08:56:18.282Z</time>
      </trkpt>
      <trkpt lat="45.18055" lon="6.32298">
        <ele>1775</ele>
        <time>2023-02-05T08:56:34.334Z</time>
      </trkpt>
      <trkpt lat="45.18055" lon="6.32298">
        <ele>1775</ele>
        <time>2023-02-05T08:57:13.306Z</time>
      </trkpt>
      <trkpt lat="45.18047" lon="6.32267">
        <ele>1780</ele>
        <time>2023-02-05T08:57:14.332Z</time>
      </trkpt>
      <trkpt lat="45.1804" lon="6.32257">
        <ele>1783</ele>
        <time>2023-02-05T08:57:37.364Z</time>
      </trkpt>
      <trkpt lat="45.18036" lon="6.32248">
        <ele>1787</ele>
        <time>2023-02-05T08:58:02.343Z</time>
      </trkpt>
      <trkpt lat="45.18036" lon="6.32248">
        <ele>1787</ele>
        <time>2023-02-05T08:58:54.319Z</time>
      </trkpt>
      <trkpt lat="45.18021" lon="6.32223">
        <ele>1791</ele>
        <time>2023-02-05T08:58:55.343Z</time>
      </trkpt>
      <trkpt lat="45.18012" lon="6.32222">
        <ele>1793</ele>
        <time>2023-02-05T08:59:09.327Z</time>
      </trkpt>
      <trkpt lat="45.18005" lon="6.32213">
        <ele>1795</ele>
        <time>2023-02-05T08:59:21.367Z</time>
      </trkpt>
      <trkpt lat="45.17997" lon="6.32209">
        <ele>1802</ele>
        <time>2023-02-05T08:59:47.340Z</time>
      </trkpt>
      <trkpt lat="45.17997" lon="6.32209">
        <ele>1802</ele>
        <time>2023-02-05T09:07:21.297Z</time>
      </trkpt>
      <trkpt lat="45.17974" lon="6.32214">
        <ele>1809</ele>
        <time>2023-02-05T09:07:22.291Z</time>
      </trkpt>
      <trkpt lat="45.17965" lon="6.32216">
        <ele>1809</ele>
        <time>2023-02-05T09:07:33.356Z</time>
      </trkpt>
      <trkpt lat="45.17956" lon="6.32213">
        <ele>1809</ele>
        <time>2023-02-05T09:07:44.358Z</time>
      </trkpt>
      <trkpt lat="45.17947" lon="6.32208">
        <ele>1809</ele>
        <time>2023-02-05T09:08:03.320Z</time>
      </trkpt>
      <trkpt lat="45.17938" lon="6.3221">
        <ele>1810</ele>
        <time>2023-02-05T09:08:14.350Z</time>
      </trkpt>
      <trkpt lat="45.1793" lon="6.32215">
        <ele>1812</ele>
        <time>2023-02-05T09:08:26.304Z</time>
      </trkpt>
      <trkpt lat="45.17921" lon="6.32219">
        <ele>1814</ele>
        <time>2023-02-05T09:08:39.348Z</time>
      </trkpt>
      <trkpt lat="45.17912" lon="6.32222">
        <ele>1815</ele>
        <time>2023-02-05T09:08:48.347Z</time>
      </trkpt>
      <trkpt lat="45.17903" lon="6.32226">
        <ele>1815</ele>
        <time>2023-02-05T09:09:00.335Z</time>
      </trkpt>
      <trkpt lat="45.17896" lon="6.32235">
        <ele>1816</ele>
        <time>2023-02-05T09:09:13.345Z</time>
      </trkpt>
      <trkpt lat="45.17893" lon="6.32247">
        <ele>1817</ele>
        <time>2023-02-05T09:09:27.346Z</time>
      </trkpt>
      <trkpt lat="45.17888" lon="6.32259">
        <ele>1820</ele>
        <time>2023-02-05T09:09:40.332Z</time>
      </trkpt>
      <trkpt lat="45.17884" lon="6.32271">
        <ele>1822</ele>
        <time>2023-02-05T09:09:51.351Z</time>
      </trkpt>
      <trkpt lat="45.17879" lon="6.32281">
        <ele>1825</ele>
        <time>2023-02-05T09:10:04.356Z</time>
      </trkpt>
      <trkpt lat="45.17874" lon="6.32293">
        <ele>1828</ele>
        <time>2023-02-05T09:10:17.345Z</time>
      </trkpt>
      <trkpt lat="45.1787" lon="6.32304">
        <ele>1830</ele>
        <time>2023-02-05T09:10:28.345Z</time>
      </trkpt>
      <trkpt lat="45.17867" lon="6.32317">
        <ele>1832</ele>
        <time>2023-02-05T09:10:40.367Z</time>
      </trkpt>
      <trkpt lat="45.17861" lon="6.32327">
        <ele>1834</ele>
        <time>2023-02-05T09:10:53.345Z</time>
      </trkpt>
      <trkpt lat="45.17858" lon="6.32339">
        <ele>1836</ele>
        <time>2023-02-05T09:11:08.353Z</time>
      </trkpt>
      <trkpt lat="45.17852" lon="6.3235">
        <ele>1838</ele>
        <time>2023-02-05T09:11:21.302Z</time>
      </trkpt>
      <trkpt lat="45.17847" lon="6.32361">
        <ele>1839</ele>
        <time>2023-02-05T09:11:32.307Z</time>
      </trkpt>
      <trkpt lat="45.17839" lon="6.32369">
        <ele>1840</ele>
        <time>2023-02-05T09:11:44.360Z</time>
      </trkpt>
      <trkpt lat="45.17833" lon="6.32379">
        <ele>1843</ele>
        <time>2023-02-05T09:11:59.351Z</time>
      </trkpt>
      <trkpt lat="45.17827" lon="6.32389">
        <ele>1846</ele>
        <time>2023-02-05T09:12:11.343Z</time>
      </trkpt>
      <trkpt lat="45.17821" lon="6.324">
        <ele>1848</ele>
        <time>2023-02-05T09:12:22.316Z</time>
      </trkpt>
      <trkpt lat="45.17815" lon="6.32409">
        <ele>1851</ele>
        <time>2023-02-05T09:12:33.341Z</time>
      </trkpt>
      <trkpt lat="45.1781" lon="6.32421">
        <ele>1853</ele>
        <time>2023-02-05T09:12:48.340Z</time>
      </trkpt>
      <trkpt lat="45.17809" lon="6.32434">
        <ele>1855</ele>
        <time>2023-02-05T09:13:00.326Z</time>
      </trkpt>
      <trkpt lat="45.17804" lon="6.32444">
        <ele>1857</ele>
        <time>2023-02-05T09:13:10.343Z</time>
      </trkpt>
      <trkpt lat="45.17797" lon="6.32452">
        <ele>1859</ele>
        <time>2023-02-05T09:13:24.360Z</time>
      </trkpt>
      <trkpt lat="45.17792" lon="6.32464">
        <ele>1861</ele>
        <time>2023-02-05T09:13:37.352Z</time>
      </trkpt>
      <trkpt lat="45.17786" lon="6.32474">
        <ele>1862</ele>
        <time>2023-02-05T09:13:48.359Z</time>
      </trkpt>
      <trkpt lat="45.17781" lon="6.32485">
        <ele>1864</ele>
        <time>2023-02-05T09:13:59.364Z</time>
      </trkpt>
      <trkpt lat="45.17776" lon="6.32496">
        <ele>1865</ele>
        <time>2023-02-05T09:14:11.333Z</time>
      </trkpt>
      <trkpt lat="45.17773" lon="6.32509">
        <ele>1867</ele>
        <time>2023-02-05T09:14:23.356Z</time>
      </trkpt>
      <trkpt lat="45.17769" lon="6.32522">
        <ele>1869</ele>
        <time>2023-02-05T09:14:36.379Z</time>
      </trkpt>
      <trkpt lat="45.17767" lon="6.32535">
        <ele>1871</ele>
        <time>2023-02-05T09:14:50.346Z</time>
      </trkpt>
      <trkpt lat="45.17764" lon="6.32548">
        <ele>1873</ele>
        <time>2023-02-05T09:15:03.339Z</time>
      </trkpt>
      <trkpt lat="45.17761" lon="6.3256">
        <ele>1875</ele>
        <time>2023-02-05T09:15:16.334Z</time>
      </trkpt>
      <trkpt lat="45.17758" lon="6.32573">
        <ele>1878</ele>
        <time>2023-02-05T09:15:30.373Z</time>
      </trkpt>
      <trkpt lat="45.17753" lon="6.32583">
        <ele>1880</ele>
        <time>2023-02-05T09:15:43.329Z</time>
      </trkpt>
      <trkpt lat="45.17751" lon="6.32597">
        <ele>1882</ele>
        <time>2023-02-05T09:15:55.348Z</time>
      </trkpt>
      <trkpt lat="45.17748" lon="6.32609">
        <ele>1884</ele>
        <time>2023-02-05T09:16:05.337Z</time>
      </trkpt>
      <trkpt lat="45.17742" lon="6.32619">
        <ele>1885</ele>
        <time>2023-02-05T09:16:16.336Z</time>
      </trkpt>
      <trkpt lat="45.17736" lon="6.3263">
        <ele>1886</ele>
        <time>2023-02-05T09:16:28.325Z</time>
      </trkpt>
      <trkpt lat="45.17731" lon="6.32642">
        <ele>1888</ele>
        <time>2023-02-05T09:16:42.343Z</time>
      </trkpt>
      <trkpt lat="45.17731" lon="6.32655">
        <ele>1891</ele>
        <time>2023-02-05T09:16:59.331Z</time>
      </trkpt>
      <trkpt lat="45.17731" lon="6.32669">
        <ele>1893</ele>
        <time>2023-02-05T09:17:15.290Z</time>
      </trkpt>
      <trkpt lat="45.17727" lon="6.3268">
        <ele>1895</ele>
        <time>2023-02-05T09:17:26.267Z</time>
      </trkpt>
      <trkpt lat="45.17722" lon="6.32692">
        <ele>1897</ele>
        <time>2023-02-05T09:17:39.350Z</time>
      </trkpt>
      <trkpt lat="45.17715" lon="6.32702">
        <ele>1899</ele>
        <time>2023-02-05T09:17:52.370Z</time>
      </trkpt>
      <trkpt lat="45.17709" lon="6.32712">
        <ele>1901</ele>
        <time>2023-02-05T09:18:03.345Z</time>
      </trkpt>
      <trkpt lat="45.17705" lon="6.32724">
        <ele>1903</ele>
        <time>2023-02-05T09:18:14.339Z</time>
      </trkpt>
      <trkpt lat="45.177" lon="6.32736">
        <ele>1905</ele>
        <time>2023-02-05T09:18:30.345Z</time>
      </trkpt>
      <trkpt lat="45.17697" lon="6.32748">
        <ele>1906</ele>
        <time>2023-02-05T09:18:43.351Z</time>
      </trkpt>
      <trkpt lat="45.17694" lon="6.32761">
        <ele>1908</ele>
        <time>2023-02-05T09:19:00.300Z</time>
      </trkpt>
      <trkpt lat="45.1769" lon="6.32774">
        <ele>1909</ele>
        <time>2023-02-05T09:19:11.318Z</time>
      </trkpt>
      <trkpt lat="45.17686" lon="6.32785">
        <ele>1912</ele>
        <time>2023-02-05T09:19:23.288Z</time>
      </trkpt>
      <trkpt lat="45.17684" lon="6.32799">
        <ele>1915</ele>
        <time>2023-02-05T09:19:35.306Z</time>
      </trkpt>
      <trkpt lat="45.17683" lon="6.32813">
        <ele>1919</ele>
        <time>2023-02-05T09:19:47.328Z</time>
      </trkpt>
      <trkpt lat="45.1768" lon="6.32825">
        <ele>1921</ele>
        <time>2023-02-05T09:19:59.313Z</time>
      </trkpt>
      <trkpt lat="45.17675" lon="6.32837">
        <ele>1923</ele>
        <time>2023-02-05T09:20:11.318Z</time>
      </trkpt>
      <trkpt lat="45.17669" lon="6.32847">
        <ele>1925</ele>
        <time>2023-02-05T09:20:24.325Z</time>
      </trkpt>
      <trkpt lat="45.17665" lon="6.3286">
        <ele>1926</ele>
        <time>2023-02-05T09:20:36.317Z</time>
      </trkpt>
      <trkpt lat="45.17658" lon="6.32868">
        <ele>1927</ele>
        <time>2023-02-05T09:20:47.332Z</time>
      </trkpt>
      <trkpt lat="45.17651" lon="6.32876">
        <ele>1929</ele>
        <time>2023-02-05T09:21:00.346Z</time>
      </trkpt>
      <trkpt lat="45.17646" lon="6.32887">
        <ele>1930</ele>
        <time>2023-02-05T09:21:11.329Z</time>
      </trkpt>
      <trkpt lat="45.1764" lon="6.32897">
        <ele>1932</ele>
        <time>2023-02-05T09:21:23.325Z</time>
      </trkpt>
      <trkpt lat="45.17639" lon="6.32898">
        <ele>1934</ele>
        <time>2023-02-05T09:21:36.339Z</time>
      </trkpt>
      <trkpt lat="45.17639" lon="6.32898">
        <ele>1934</ele>
        <time>2023-02-05T09:27:23.349Z</time>
      </trkpt>
      <trkpt lat="45.1763" lon="6.32927">
        <ele>1938</ele>
        <time>2023-02-05T09:27:24.317Z</time>
      </trkpt>
      <trkpt lat="45.17628" lon="6.3294">
        <ele>1941</ele>
        <time>2023-02-05T09:27:38.369Z</time>
      </trkpt>
      <trkpt lat="45.17626" lon="6.32953">
        <ele>1943</ele>
        <time>2023-02-05T09:27:48.369Z</time>
      </trkpt>
      <trkpt lat="45.17624" lon="6.32967">
        <ele>1946</ele>
        <time>2023-02-05T09:28:03.287Z</time>
      </trkpt>
      <trkpt lat="45.17619" lon="6.32978">
        <ele>1947</ele>
        <time>2023-02-05T09:28:12.359Z</time>
      </trkpt>
      <trkpt lat="45.17617" lon="6.32991">
        <ele>1948</ele>
        <time>2023-02-05T09:28:22.341Z</time>
      </trkpt>
      <trkpt lat="45.17613" lon="6.33003">
        <ele>1948</ele>
        <time>2023-02-05T09:28:32.332Z</time>
      </trkpt>
      <trkpt lat="45.1761" lon="6.33017">
        <ele>1948</ele>
        <time>2023-02-05T09:28:43.289Z</time>
      </trkpt>
      <trkpt lat="45.17609" lon="6.3303">
        <ele>1950</ele>
        <time>2023-02-05T09:28:55.368Z</time>
      </trkpt>
      <trkpt lat="45.17608" lon="6.33043">
        <ele>1951</ele>
        <time>2023-02-05T09:29:06.342Z</time>
      </trkpt>
      <trkpt lat="45.17607" lon="6.33057">
        <ele>1953</ele>
        <time>2023-02-05T09:29:16.338Z</time>
      </trkpt>
      <trkpt lat="45.17606" lon="6.3307">
        <ele>1955</ele>
        <time>2023-02-05T09:29:26.293Z</time>
      </trkpt>
      <trkpt lat="45.17606" lon="6.33084">
        <ele>1956</ele>
        <time>2023-02-05T09:29:35.346Z</time>
      </trkpt>
      <trkpt lat="45.17605" lon="6.33097">
        <ele>1958</ele>
        <time>2023-02-05T09:29:45.348Z</time>
      </trkpt>
      <trkpt lat="45.17605" lon="6.3311">
        <ele>1960</ele>
        <time>2023-02-05T09:29:56.295Z</time>
      </trkpt>
      <trkpt lat="45.17603" lon="6.33123">
        <ele>1961</ele>
        <time>2023-02-05T09:30:06.343Z</time>
      </trkpt>
      <trkpt lat="45.17603" lon="6.33136">
        <ele>1963</ele>
        <time>2023-02-05T09:30:17.349Z</time>
      </trkpt>
      <trkpt lat="45.17604" lon="6.33149">
        <ele>1964</ele>
        <time>2023-02-05T09:30:27.299Z</time>
      </trkpt>
      <trkpt lat="45.17605" lon="6.33163">
        <ele>1965</ele>
        <time>2023-02-05T09:30:36.351Z</time>
      </trkpt>
      <trkpt lat="45.17603" lon="6.33176">
        <ele>1966</ele>
        <time>2023-02-05T09:30:45.317Z</time>
      </trkpt>
      <trkpt lat="45.17603" lon="6.3319">
        <ele>1968</ele>
        <time>2023-02-05T09:30:55.296Z</time>
      </trkpt>
      <trkpt lat="45.17602" lon="6.33204">
        <ele>1969</ele>
        <time>2023-02-05T09:31:04.295Z</time>
      </trkpt>
      <trkpt lat="45.17601" lon="6.33218">
        <ele>1969</ele>
        <time>2023-02-05T09:31:12.367Z</time>
      </trkpt>
      <trkpt lat="45.17597" lon="6.33229">
        <ele>1970</ele>
        <time>2023-02-05T09:31:21.335Z</time>
      </trkpt>
      <trkpt lat="45.17595" lon="6.33243">
        <ele>1971</ele>
        <time>2023-02-05T09:31:28.347Z</time>
      </trkpt>
      <trkpt lat="45.17592" lon="6.33256">
        <ele>1971</ele>
        <time>2023-02-05T09:31:37.286Z</time>
      </trkpt>
      <trkpt lat="45.17588" lon="6.33268">
        <ele>1971</ele>
        <time>2023-02-05T09:31:46.272Z</time>
      </trkpt>
      <trkpt lat="45.17586" lon="6.33281">
        <ele>1972</ele>
        <time>2023-02-05T09:31:56.325Z</time>
      </trkpt>
      <trkpt lat="45.17584" lon="6.33294">
        <ele>1972</ele>
        <time>2023-02-05T09:32:05.340Z</time>
      </trkpt>
      <trkpt lat="45.17583" lon="6.33307">
        <ele>1973</ele>
        <time>2023-02-05T09:32:13.334Z</time>
      </trkpt>
      <trkpt lat="45.17581" lon="6.33321">
        <ele>1974</ele>
        <time>2023-02-05T09:32:23.272Z</time>
      </trkpt>
      <trkpt lat="45.1758" lon="6.33335">
        <ele>1975</ele>
        <time>2023-02-05T09:32:34.325Z</time>
      </trkpt>
      <trkpt lat="45.1758" lon="6.33349">
        <ele>1975</ele>
        <time>2023-02-05T09:32:43.375Z</time>
      </trkpt>
      <trkpt lat="45.17574" lon="6.3336">
        <ele>1975</ele>
        <time>2023-02-05T09:32:52.345Z</time>
      </trkpt>
      <trkpt lat="45.17567" lon="6.3337">
        <ele>1974</ele>
        <time>2023-02-05T09:33:00.355Z</time>
      </trkpt>
      <trkpt lat="45.1756" lon="6.33378">
        <ele>1974</ele>
        <time>2023-02-05T09:33:09.345Z</time>
      </trkpt>
      <trkpt lat="45.17555" lon="6.33391">
        <ele>1975</ele>
        <time>2023-02-05T09:33:19.299Z</time>
      </trkpt>
      <trkpt lat="45.17553" lon="6.33404">
        <ele>1976</ele>
        <time>2023-02-05T09:33:28.323Z</time>
      </trkpt>
      <trkpt lat="45.17545" lon="6.3341">
        <ele>1978</ele>
        <time>2023-02-05T09:33:38.363Z</time>
      </trkpt>
      <trkpt lat="45.17537" lon="6.33418">
        <ele>1980</ele>
        <time>2023-02-05T09:33:48.343Z</time>
      </trkpt>
      <trkpt lat="45.1753" lon="6.33427">
        <ele>1982</ele>
        <time>2023-02-05T09:33:58.353Z</time>
      </trkpt>
      <trkpt lat="45.17524" lon="6.33438">
        <ele>1984</ele>
        <time>2023-02-05T09:34:08.343Z</time>
      </trkpt>
      <trkpt lat="45.17517" lon="6.33448">
        <ele>1987</ele>
        <time>2023-02-05T09:34:20.361Z</time>
      </trkpt>
      <trkpt lat="45.17509" lon="6.33454">
        <ele>1988</ele>
        <time>2023-02-05T09:34:30.344Z</time>
      </trkpt>
      <trkpt lat="45.17501" lon="6.3346">
        <ele>1990</ele>
        <time>2023-02-05T09:34:41.293Z</time>
      </trkpt>
      <trkpt lat="45.17494" lon="6.3347">
        <ele>1992</ele>
        <time>2023-02-05T09:34:52.250Z</time>
      </trkpt>
      <trkpt lat="45.17488" lon="6.33481">
        <ele>1993</ele>
        <time>2023-02-05T09:35:02.293Z</time>
      </trkpt>
      <trkpt lat="45.1748" lon="6.33489">
        <ele>1993</ele>
        <time>2023-02-05T09:35:12.317Z</time>
      </trkpt>
      <trkpt lat="45.17472" lon="6.33494">
        <ele>1994</ele>
        <time>2023-02-05T09:35:21.371Z</time>
      </trkpt>
      <trkpt lat="45.17464" lon="6.33502">
        <ele>1995</ele>
        <time>2023-02-05T09:35:30.350Z</time>
      </trkpt>
      <trkpt lat="45.17458" lon="6.33512">
        <ele>1996</ele>
        <time>2023-02-05T09:35:39.347Z</time>
      </trkpt>
      <trkpt lat="45.17451" lon="6.33522">
        <ele>1996</ele>
        <time>2023-02-05T09:35:48.390Z</time>
      </trkpt>
      <trkpt lat="45.17443" lon="6.33527">
        <ele>1997</ele>
        <time>2023-02-05T09:35:56.297Z</time>
      </trkpt>
      <trkpt lat="45.17435" lon="6.33534">
        <ele>1998</ele>
        <time>2023-02-05T09:36:05.354Z</time>
      </trkpt>
      <trkpt lat="45.17428" lon="6.33542">
        <ele>2000</ele>
        <time>2023-02-05T09:36:14.295Z</time>
      </trkpt>
      <trkpt lat="45.17424" lon="6.33554">
        <ele>2001</ele>
        <time>2023-02-05T09:36:23.275Z</time>
      </trkpt>
      <trkpt lat="45.1742" lon="6.33565">
        <ele>2002</ele>
        <time>2023-02-05T09:36:30.357Z</time>
      </trkpt>
      <trkpt lat="45.17415" lon="6.33578">
        <ele>2003</ele>
        <time>2023-02-05T09:36:38.348Z</time>
      </trkpt>
      <trkpt lat="45.17409" lon="6.33589">
        <ele>2003</ele>
        <time>2023-02-05T09:36:47.306Z</time>
      </trkpt>
      <trkpt lat="45.17404" lon="6.336">
        <ele>2003</ele>
        <time>2023-02-05T09:36:57.328Z</time>
      </trkpt>
      <trkpt lat="45.17399" lon="6.33612">
        <ele>2002</ele>
        <time>2023-02-05T09:37:06.266Z</time>
      </trkpt>
      <trkpt lat="45.17393" lon="6.33623">
        <ele>2001</ele>
        <time>2023-02-05T09:37:14.333Z</time>
      </trkpt>
      <trkpt lat="45.17387" lon="6.33633">
        <ele>2001</ele>
        <time>2023-02-05T09:37:22.293Z</time>
      </trkpt>
      <trkpt lat="45.17383" lon="6.33645">
        <ele>2000</ele>
        <time>2023-02-05T09:37:31.344Z</time>
      </trkpt>
      <trkpt lat="45.17377" lon="6.33655">
        <ele>2000</ele>
        <time>2023-02-05T09:37:40.359Z</time>
      </trkpt>
      <trkpt lat="45.17368" lon="6.33663">
        <ele>2000</ele>
        <time>2023-02-05T09:37:50.315Z</time>
      </trkpt>
      <trkpt lat="45.1736" lon="6.33668">
        <ele>2001</ele>
        <time>2023-02-05T09:37:59.334Z</time>
      </trkpt>
      <trkpt lat="45.17352" lon="6.33674">
        <ele>2002</ele>
        <time>2023-02-05T09:38:08.288Z</time>
      </trkpt>
      <trkpt lat="45.17343" lon="6.33679">
        <ele>2003</ele>
        <time>2023-02-05T09:38:18.370Z</time>
      </trkpt>
      <trkpt lat="45.17336" lon="6.33689">
        <ele>2005</ele>
        <time>2023-02-05T09:38:26.354Z</time>
      </trkpt>
      <trkpt lat="45.17331" lon="6.337">
        <ele>2006</ele>
        <time>2023-02-05T09:38:34.272Z</time>
      </trkpt>
      <trkpt lat="45.17325" lon="6.33711">
        <ele>2007</ele>
        <time>2023-02-05T09:38:43.275Z</time>
      </trkpt>
      <trkpt lat="45.17316" lon="6.33719">
        <ele>2008</ele>
        <time>2023-02-05T09:38:51.297Z</time>
      </trkpt>
      <trkpt lat="45.17308" lon="6.33725">
        <ele>2009</ele>
        <time>2023-02-05T09:38:58.335Z</time>
      </trkpt>
      <trkpt lat="45.17299" lon="6.33728">
        <ele>2009</ele>
        <time>2023-02-05T09:39:06.372Z</time>
      </trkpt>
      <trkpt lat="45.1729" lon="6.3373">
        <ele>2009</ele>
        <time>2023-02-05T09:39:13.330Z</time>
      </trkpt>
      <trkpt lat="45.1728" lon="6.33734">
        <ele>2008</ele>
        <time>2023-02-05T09:39:20.348Z</time>
      </trkpt>
      <trkpt lat="45.17272" lon="6.33738">
        <ele>2007</ele>
        <time>2023-02-05T09:39:27.350Z</time>
      </trkpt>
      <trkpt lat="45.17263" lon="6.33739">
        <ele>2006</ele>
        <time>2023-02-05T09:39:34.253Z</time>
      </trkpt>
      <trkpt lat="45.17254" lon="6.33744">
        <ele>2005</ele>
        <time>2023-02-05T09:39:41.327Z</time>
      </trkpt>
      <trkpt lat="45.17245" lon="6.33747">
        <ele>2004</ele>
        <time>2023-02-05T09:39:49.275Z</time>
      </trkpt>
      <trkpt lat="45.17236" lon="6.33749">
        <ele>2004</ele>
        <time>2023-02-05T09:39:56.343Z</time>
      </trkpt>
      <trkpt lat="45.17227" lon="6.33747">
        <ele>2003</ele>
        <time>2023-02-05T09:40:03.296Z</time>
      </trkpt>
      <trkpt lat="45.17217" lon="6.33746">
        <ele>2003</ele>
        <time>2023-02-05T09:40:12.344Z</time>
      </trkpt>
      <trkpt lat="45.17208" lon="6.33746">
        <ele>2002</ele>
        <time>2023-02-05T09:40:21.336Z</time>
      </trkpt>
      <trkpt lat="45.17199" lon="6.33746">
        <ele>2003</ele>
        <time>2023-02-05T09:40:30.345Z</time>
      </trkpt>
      <trkpt lat="45.1719" lon="6.33746">
        <ele>2003</ele>
        <time>2023-02-05T09:40:38.344Z</time>
      </trkpt>
      <trkpt lat="45.1718" lon="6.33749">
        <ele>2003</ele>
        <time>2023-02-05T09:40:47.324Z</time>
      </trkpt>
      <trkpt lat="45.17171" lon="6.33753">
        <ele>2004</ele>
        <time>2023-02-05T09:40:55.328Z</time>
      </trkpt>
      <trkpt lat="45.17163" lon="6.3376">
        <ele>2005</ele>
        <time>2023-02-05T09:41:04.345Z</time>
      </trkpt>
      <trkpt lat="45.17156" lon="6.33768">
        <ele>2006</ele>
        <time>2023-02-05T09:41:12.372Z</time>
      </trkpt>
      <trkpt lat="45.17146" lon="6.33775">
        <ele>2008</ele>
        <time>2023-02-05T09:41:22.337Z</time>
      </trkpt>
      <trkpt lat="45.17138" lon="6.33782">
        <ele>2009</ele>
        <time>2023-02-05T09:41:30.281Z</time>
      </trkpt>
      <trkpt lat="45.17129" lon="6.33787">
        <ele>2011</ele>
        <time>2023-02-05T09:41:38.349Z</time>
      </trkpt>
      <trkpt lat="45.1712" lon="6.33786">
        <ele>2012</ele>
        <time>2023-02-05T09:41:46.288Z</time>
      </trkpt>
      <trkpt lat="45.17109" lon="6.33786">
        <ele>2012</ele>
        <time>2023-02-05T09:41:54.295Z</time>
      </trkpt>
      <trkpt lat="45.171" lon="6.33789">
        <ele>2013</ele>
        <time>2023-02-05T09:42:02.282Z</time>
      </trkpt>
      <trkpt lat="45.17092" lon="6.33793">
        <ele>2013</ele>
        <time>2023-02-05T09:42:10.294Z</time>
      </trkpt>
      <trkpt lat="45.17082" lon="6.33799">
        <ele>2014</ele>
        <time>2023-02-05T09:42:18.287Z</time>
      </trkpt>
      <trkpt lat="45.17074" lon="6.33805">
        <ele>2014</ele>
        <time>2023-02-05T09:42:24.306Z</time>
      </trkpt>
      <trkpt lat="45.17065" lon="6.3381">
        <ele>2014</ele>
        <time>2023-02-05T09:42:32.293Z</time>
      </trkpt>
      <trkpt lat="45.17056" lon="6.33816">
        <ele>2014</ele>
        <time>2023-02-05T09:42:40.342Z</time>
      </trkpt>
      <trkpt lat="45.17046" lon="6.33819">
        <ele>2014</ele>
        <time>2023-02-05T09:42:47.341Z</time>
      </trkpt>
      <trkpt lat="45.17037" lon="6.33824">
        <ele>2014</ele>
        <time>2023-02-05T09:42:54.321Z</time>
      </trkpt>
      <trkpt lat="45.17029" lon="6.3383">
        <ele>2014</ele>
        <time>2023-02-05T09:43:01.271Z</time>
      </trkpt>
      <trkpt lat="45.17019" lon="6.33834">
        <ele>2013</ele>
        <time>2023-02-05T09:43:07.344Z</time>
      </trkpt>
      <trkpt lat="45.1701" lon="6.33836">
        <ele>2012</ele>
        <time>2023-02-05T09:43:15.330Z</time>
      </trkpt>
      <trkpt lat="45.17007" lon="6.33835">
        <ele>2010</ele>
        <time>2023-02-05T09:43:30.326Z</time>
      </trkpt>
      <trkpt lat="45.17007" lon="6.33835">
        <ele>2010</ele>
        <time>2023-02-05T09:44:50.325Z</time>
      </trkpt>
      <trkpt lat="45.16985" lon="6.33831">
        <ele>2008</ele>
        <time>2023-02-05T09:44:51.340Z</time>
      </trkpt>
      <trkpt lat="45.16976" lon="6.33828">
        <ele>2008</ele>
        <time>2023-02-05T09:45:00.319Z</time>
      </trkpt>
      <trkpt lat="45.16967" lon="6.33825">
        <ele>2008</ele>
        <time>2023-02-05T09:45:08.354Z</time>
      </trkpt>
      <trkpt lat="45.16958" lon="6.33821">
        <ele>2008</ele>
        <time>2023-02-05T09:45:17.300Z</time>
      </trkpt>
      <trkpt lat="45.16948" lon="6.33821">
        <ele>2009</ele>
        <time>2023-02-05T09:45:28.328Z</time>
      </trkpt>
      <trkpt lat="45.16938" lon="6.3382">
        <ele>2009</ele>
        <time>2023-02-05T09:45:36.322Z</time>
      </trkpt>
      <trkpt lat="45.16929" lon="6.33819">
        <ele>2010</ele>
        <time>2023-02-05T09:45:45.280Z</time>
      </trkpt>
      <trkpt lat="45.16919" lon="6.33818">
        <ele>2010</ele>
        <time>2023-02-05T09:45:55.331Z</time>
      </trkpt>
      <trkpt lat="45.1691" lon="6.33817">
        <ele>2011</ele>
        <time>2023-02-05T09:46:05.272Z</time>
      </trkpt>
      <trkpt lat="45.169" lon="6.3382">
        <ele>2013</ele>
        <time>2023-02-05T09:46:15.262Z</time>
      </trkpt>
      <trkpt lat="45.16891" lon="6.33818">
        <ele>2014</ele>
        <time>2023-02-05T09:46:24.335Z</time>
      </trkpt>
      <trkpt lat="45.16882" lon="6.33816">
        <ele>2015</ele>
        <time>2023-02-05T09:46:33.339Z</time>
      </trkpt>
      <trkpt lat="45.16871" lon="6.33815">
        <ele>2017</ele>
        <time>2023-02-05T09:46:42.345Z</time>
      </trkpt>
      <trkpt lat="45.16862" lon="6.33815">
        <ele>2018</ele>
        <time>2023-02-05T09:46:52.329Z</time>
      </trkpt>
      <trkpt lat="45.16861" lon="6.33815">
        <ele>2020</ele>
        <time>2023-02-05T09:47:03.311Z</time>
      </trkpt>
      <trkpt lat="45.16861" lon="6.33815">
        <ele>2020</ele>
        <time>2023-02-05T09:47:32.337Z</time>
      </trkpt>
      <trkpt lat="45.16839" lon="6.33821">
        <ele>2024</ele>
        <time>2023-02-05T09:47:33.330Z</time>
      </trkpt>
      <trkpt lat="45.16829" lon="6.33823">
        <ele>2025</ele>
        <time>2023-02-05T09:47:42.325Z</time>
      </trkpt>
      <trkpt lat="45.16819" lon="6.33823">
        <ele>2026</ele>
        <time>2023-02-05T09:47:52.321Z</time>
      </trkpt>
      <trkpt lat="45.1681" lon="6.33822">
        <ele>2027</ele>
        <time>2023-02-05T09:48:00.356Z</time>
      </trkpt>
      <trkpt lat="45.168" lon="6.33822">
        <ele>2028</ele>
        <time>2023-02-05T09:48:09.335Z</time>
      </trkpt>
      <trkpt lat="45.16791" lon="6.33818">
        <ele>2029</ele>
        <time>2023-02-05T09:48:18.318Z</time>
      </trkpt>
      <trkpt lat="45.16781" lon="6.33816">
        <ele>2031</ele>
        <time>2023-02-05T09:48:26.340Z</time>
      </trkpt>
      <trkpt lat="45.16772" lon="6.33814">
        <ele>2032</ele>
        <time>2023-02-05T09:48:34.273Z</time>
      </trkpt>
      <trkpt lat="45.16763" lon="6.33814">
        <ele>2034</ele>
        <time>2023-02-05T09:48:46.338Z</time>
      </trkpt>
      <trkpt lat="45.16754" lon="6.33813">
        <ele>2035</ele>
        <time>2023-02-05T09:48:57.339Z</time>
      </trkpt>
      <trkpt lat="45.16744" lon="6.33814">
        <ele>2037</ele>
        <time>2023-02-05T09:49:07.302Z</time>
      </trkpt>
      <trkpt lat="45.16734" lon="6.33814">
        <ele>2038</ele>
        <time>2023-02-05T09:49:17.357Z</time>
      </trkpt>
      <trkpt lat="45.16724" lon="6.33815">
        <ele>2039</ele>
        <time>2023-02-05T09:49:29.344Z</time>
      </trkpt>
      <trkpt lat="45.16715" lon="6.33817">
        <ele>2039</ele>
        <time>2023-02-05T09:49:39.306Z</time>
      </trkpt>
      <trkpt lat="45.16705" lon="6.33818">
        <ele>2040</ele>
        <time>2023-02-05T09:49:48.301Z</time>
      </trkpt>
      <trkpt lat="45.16696" lon="6.3382">
        <ele>2042</ele>
        <time>2023-02-05T09:49:59.347Z</time>
      </trkpt>
      <trkpt lat="45.16687" lon="6.33824">
        <ele>2043</ele>
        <time>2023-02-05T09:50:09.290Z</time>
      </trkpt>
      <trkpt lat="45.16677" lon="6.33823">
        <ele>2045</ele>
        <time>2023-02-05T09:50:20.346Z</time>
      </trkpt>
      <trkpt lat="45.16669" lon="6.33817">
        <ele>2046</ele>
        <time>2023-02-05T09:50:29.317Z</time>
      </trkpt>
      <trkpt lat="45.16662" lon="6.33809">
        <ele>2048</ele>
        <time>2023-02-05T09:50:39.327Z</time>
      </trkpt>
      <trkpt lat="45.16654" lon="6.33801">
        <ele>2049</ele>
        <time>2023-02-05T09:50:48.307Z</time>
      </trkpt>
      <trkpt lat="45.16645" lon="6.33796">
        <ele>2050</ele>
        <time>2023-02-05T09:50:59.299Z</time>
      </trkpt>
      <trkpt lat="45.16636" lon="6.33791">
        <ele>2051</ele>
        <time>2023-02-05T09:51:11.339Z</time>
      </trkpt>
      <trkpt lat="45.16628" lon="6.33787">
        <ele>2052</ele>
        <time>2023-02-05T09:51:20.357Z</time>
      </trkpt>
      <trkpt lat="45.16619" lon="6.33784">
        <ele>2054</ele>
        <time>2023-02-05T09:51:30.357Z</time>
      </trkpt>
      <trkpt lat="45.1661" lon="6.33783">
        <ele>2055</ele>
        <time>2023-02-05T09:51:39.333Z</time>
      </trkpt>
      <trkpt lat="45.166" lon="6.33781">
        <ele>2056</ele>
        <time>2023-02-05T09:51:50.347Z</time>
      </trkpt>
      <trkpt lat="45.16591" lon="6.33778">
        <ele>2057</ele>
        <time>2023-02-05T09:52:00.333Z</time>
      </trkpt>
      <trkpt lat="45.16582" lon="6.3377">
        <ele>2058</ele>
        <time>2023-02-05T09:52:10.331Z</time>
      </trkpt>
      <trkpt lat="45.16575" lon="6.33762">
        <ele>2059</ele>
        <time>2023-02-05T09:52:18.334Z</time>
      </trkpt>
      <trkpt lat="45.16565" lon="6.33758">
        <ele>2061</ele>
        <time>2023-02-05T09:52:28.339Z</time>
      </trkpt>
      <trkpt lat="45.16556" lon="6.33755">
        <ele>2062</ele>
        <time>2023-02-05T09:52:37.356Z</time>
      </trkpt>
      <trkpt lat="45.16547" lon="6.33751">
        <ele>2063</ele>
        <time>2023-02-05T09:52:47.323Z</time>
      </trkpt>
      <trkpt lat="45.16538" lon="6.33746">
        <ele>2063</ele>
        <time>2023-02-05T09:52:57.355Z</time>
      </trkpt>
      <trkpt lat="45.1653" lon="6.33743">
        <ele>2064</ele>
        <time>2023-02-05T09:53:06.336Z</time>
      </trkpt>
      <trkpt lat="45.16521" lon="6.33737">
        <ele>2065</ele>
        <time>2023-02-05T09:53:15.363Z</time>
      </trkpt>
      <trkpt lat="45.16514" lon="6.33728">
        <ele>2066</ele>
        <time>2023-02-05T09:53:23.306Z</time>
      </trkpt>
      <trkpt lat="45.16505" lon="6.33721">
        <ele>2066</ele>
        <time>2023-02-05T09:53:31.353Z</time>
      </trkpt>
      <trkpt lat="45.16499" lon="6.33711">
        <ele>2067</ele>
        <time>2023-02-05T09:53:38.360Z</time>
      </trkpt>
      <trkpt lat="45.16494" lon="6.337">
        <ele>2068</ele>
        <time>2023-02-05T09:53:46.344Z</time>
      </trkpt>
      <trkpt lat="45.16487" lon="6.33691">
        <ele>2068</ele>
        <time>2023-02-05T09:53:55.339Z</time>
      </trkpt>
      <trkpt lat="45.16478" lon="6.33684">
        <ele>2069</ele>
        <time>2023-02-05T09:54:06.330Z</time>
      </trkpt>
      <trkpt lat="45.16469" lon="6.33683">
        <ele>2070</ele>
        <time>2023-02-05T09:54:15.329Z</time>
      </trkpt>
      <trkpt lat="45.16459" lon="6.33683">
        <ele>2070</ele>
        <time>2023-02-05T09:54:24.280Z</time>
      </trkpt>
      <trkpt lat="45.1645" lon="6.33686">
        <ele>2069</ele>
        <time>2023-02-05T09:54:32.277Z</time>
      </trkpt>
      <trkpt lat="45.1644" lon="6.33688">
        <ele>2069</ele>
        <time>2023-02-05T09:54:42.294Z</time>
      </trkpt>
      <trkpt lat="45.16431" lon="6.33696">
        <ele>2068</ele>
        <time>2023-02-05T09:54:52.282Z</time>
      </trkpt>
      <trkpt lat="45.16423" lon="6.33703">
        <ele>2067</ele>
        <time>2023-02-05T09:55:06.298Z</time>
      </trkpt>
      <trkpt lat="45.16415" lon="6.33711">
        <ele>2067</ele>
        <time>2023-02-05T09:55:17.287Z</time>
      </trkpt>
      <trkpt lat="45.16408" lon="6.33719">
        <ele>2066</ele>
        <time>2023-02-05T09:55:31.282Z</time>
      </trkpt>
      <trkpt lat="45.164" lon="6.33724">
        <ele>2065</ele>
        <time>2023-02-05T09:55:43.319Z</time>
      </trkpt>
      <trkpt lat="45.16399" lon="6.33711">
        <ele>2064</ele>
        <time>2023-02-05T09:55:54.330Z</time>
      </trkpt>
      <trkpt lat="45.16404" lon="6.33699">
        <ele>2064</ele>
        <time>2023-02-05T09:56:04.314Z</time>
      </trkpt>
      <trkpt lat="45.16407" lon="6.33685">
        <ele>2063</ele>
        <time>2023-02-05T09:56:11.331Z</time>
      </trkpt>
      <trkpt lat="45.16408" lon="6.33672">
        <ele>2061</ele>
        <time>2023-02-05T09:56:25.300Z</time>
      </trkpt>
      <trkpt lat="45.16401" lon="6.33664">
        <ele>2058</ele>
        <time>2023-02-05T09:56:42.319Z</time>
      </trkpt>
      <trkpt lat="45.16398" lon="6.33656">
        <ele>2057</ele>
        <time>2023-02-05T09:57:00.303Z</time>
      </trkpt>
      <trkpt lat="45.16398" lon="6.33656">
        <ele>2057</ele>
        <time>2023-02-05T09:57:48.301Z</time>
      </trkpt>
      <trkpt lat="45.16406" lon="6.33625">
        <ele>2055</ele>
        <time>2023-02-05T09:57:49.345Z</time>
      </trkpt>
      <trkpt lat="45.16413" lon="6.33616">
        <ele>2056</ele>
        <time>2023-02-05T09:58:00.348Z</time>
      </trkpt>
      <trkpt lat="45.16418" lon="6.33605">
        <ele>2059</ele>
        <time>2023-02-05T09:58:15.351Z</time>
      </trkpt>
      <trkpt lat="45.16422" lon="6.33596">
        <ele>2061</ele>
        <time>2023-02-05T09:58:38.354Z</time>
      </trkpt>
      <trkpt lat="45.16422" lon="6.33596">
        <ele>2061</ele>
        <time>2023-02-05T09:59:12.327Z</time>
      </trkpt>
      <trkpt lat="45.16427" lon="6.33564">
        <ele>2064</ele>
        <time>2023-02-05T09:59:13.317Z</time>
      </trkpt>
      <trkpt lat="45.16426" lon="6.33551">
        <ele>2065</ele>
        <time>2023-02-05T09:59:25.314Z</time>
      </trkpt>
      <trkpt lat="45.16423" lon="6.33538">
        <ele>2067</ele>
        <time>2023-02-05T09:59:38.310Z</time>
      </trkpt>
      <trkpt lat="45.16417" lon="6.33528">
        <ele>2067</ele>
        <time>2023-02-05T09:59:45.359Z</time>
      </trkpt>
      <trkpt lat="45.16409" lon="6.33523">
        <ele>2067</ele>
        <time>2023-02-05T10:00:05.350Z</time>
      </trkpt>
      <trkpt lat="45.16409" lon="6.33523">
        <ele>2067</ele>
        <time>2023-02-05T10:04:43.340Z</time>
      </trkpt>
      <trkpt lat="45.16413" lon="6.33491">
        <ele>2061</ele>
        <time>2023-02-05T10:04:44.360Z</time>
      </trkpt>
      <trkpt lat="45.16411" lon="6.33477">
        <ele>2060</ele>
        <time>2023-02-05T10:04:51.345Z</time>
      </trkpt>
      <trkpt lat="45.16407" lon="6.33464">
        <ele>2060</ele>
        <time>2023-02-05T10:04:58.304Z</time>
      </trkpt>
      <trkpt lat="45.16401" lon="6.33454">
        <ele>2061</ele>
        <time>2023-02-05T10:05:09.325Z</time>
      </trkpt>
      <trkpt lat="45.16394" lon="6.33446">
        <ele>2061</ele>
        <time>2023-02-05T10:05:20.335Z</time>
      </trkpt>
      <trkpt lat="45.16386" lon="6.33438">
        <ele>2062</ele>
        <time>2023-02-05T10:05:30.326Z</time>
      </trkpt>
      <trkpt lat="45.16387" lon="6.33434">
        <ele>2063</ele>
        <time>2023-02-05T10:05:43.325Z</time>
      </trkpt>
      <trkpt lat="45.16387" lon="6.33434">
        <ele>2063</ele>
        <time>2023-02-05T10:06:14.302Z</time>
      </trkpt>
      <trkpt lat="45.16388" lon="6.33402">
        <ele>2064</ele>
        <time>2023-02-05T10:06:15.277Z</time>
      </trkpt>
      <trkpt lat="45.16389" lon="6.33389">
        <ele>2065</ele>
        <time>2023-02-05T10:06:26.327Z</time>
      </trkpt>
      <trkpt lat="45.16394" lon="6.33377">
        <ele>2065</ele>
        <time>2023-02-05T10:06:34.347Z</time>
      </trkpt>
      <trkpt lat="45.16399" lon="6.33367">
        <ele>2065</ele>
        <time>2023-02-05T10:06:45.320Z</time>
      </trkpt>
      <trkpt lat="45.16405" lon="6.33356">
        <ele>2066</ele>
        <time>2023-02-05T10:07:07.336Z</time>
      </trkpt>
      <trkpt lat="45.16405" lon="6.33355">
        <ele>2066</ele>
        <time>2023-02-05T10:07:08.328Z</time>
      </trkpt>
      <trkpt lat="45.16405" lon="6.33355">
        <ele>2066</ele>
        <time>2023-02-05T10:07:31.294Z</time>
      </trkpt>
      <trkpt lat="45.16397" lon="6.33324">
        <ele>2068</ele>
        <time>2023-02-05T10:07:32.345Z</time>
      </trkpt>
      <trkpt lat="45.16397" lon="6.3331">
        <ele>2069</ele>
        <time>2023-02-05T10:07:42.326Z</time>
      </trkpt>
      <trkpt lat="45.16398" lon="6.33297">
        <ele>2070</ele>
        <time>2023-02-05T10:07:55.326Z</time>
      </trkpt>
      <trkpt lat="45.16396" lon="6.33284">
        <ele>2071</ele>
        <time>2023-02-05T10:08:08.335Z</time>
      </trkpt>
      <trkpt lat="45.16397" lon="6.33271">
        <ele>2073</ele>
        <time>2023-02-05T10:08:21.333Z</time>
      </trkpt>
      <trkpt lat="45.16397" lon="6.33258">
        <ele>2074</ele>
        <time>2023-02-05T10:08:31.327Z</time>
      </trkpt>
      <trkpt lat="45.16398" lon="6.33245">
        <ele>2075</ele>
        <time>2023-02-05T10:08:40.318Z</time>
      </trkpt>
      <trkpt lat="45.16395" lon="6.33232">
        <ele>2077</ele>
        <time>2023-02-05T10:08:50.295Z</time>
      </trkpt>
      <trkpt lat="45.16394" lon="6.33218">
        <ele>2078</ele>
        <time>2023-02-05T10:09:02.322Z</time>
      </trkpt>
      <trkpt lat="45.16394" lon="6.33205">
        <ele>2079</ele>
        <time>2023-02-05T10:09:12.355Z</time>
      </trkpt>
      <trkpt lat="45.16392" lon="6.33192">
        <ele>2079</ele>
        <time>2023-02-05T10:09:21.334Z</time>
      </trkpt>
      <trkpt lat="45.1639" lon="6.33181">
        <ele>2081</ele>
        <time>2023-02-05T10:09:42.312Z</time>
      </trkpt>
      <trkpt lat="45.1639" lon="6.33181">
        <ele>2081</ele>
        <time>2023-02-05T10:10:46.331Z</time>
      </trkpt>
      <trkpt lat="45.16378" lon="6.33154">
        <ele>2082</ele>
        <time>2023-02-05T10:10:47.298Z</time>
      </trkpt>
      <trkpt lat="45.16369" lon="6.33148">
        <ele>2081</ele>
        <time>2023-02-05T10:10:57.293Z</time>
      </trkpt>
      <trkpt lat="45.16362" lon="6.33142">
        <ele>2081</ele>
        <time>2023-02-05T10:11:10.353Z</time>
      </trkpt>
      <trkpt lat="45.16355" lon="6.33133">
        <ele>2081</ele>
        <time>2023-02-05T10:11:19.312Z</time>
      </trkpt>
      <trkpt lat="45.16347" lon="6.33126">
        <ele>2081</ele>
        <time>2023-02-05T10:11:31.296Z</time>
      </trkpt>
      <trkpt lat="45.16338" lon="6.33119">
        <ele>2083</ele>
        <time>2023-02-05T10:11:44.321Z</time>
      </trkpt>
      <trkpt lat="45.16333" lon="6.33108">
        <ele>2083</ele>
        <time>2023-02-05T10:11:53.336Z</time>
      </trkpt>
      <trkpt lat="45.16327" lon="6.33098">
        <ele>2084</ele>
        <time>2023-02-05T10:12:04.363Z</time>
      </trkpt>
      <trkpt lat="45.16319" lon="6.3309">
        <ele>2084</ele>
        <time>2023-02-05T10:12:15.353Z</time>
      </trkpt>
      <trkpt lat="45.16311" lon="6.33084">
        <ele>2085</ele>
        <time>2023-02-05T10:12:28.312Z</time>
      </trkpt>
      <trkpt lat="45.16302" lon="6.33079">
        <ele>2085</ele>
        <time>2023-02-05T10:12:38.265Z</time>
      </trkpt>
      <trkpt lat="45.16296" lon="6.3307">
        <ele>2087</ele>
        <time>2023-02-05T10:12:54.295Z</time>
      </trkpt>
      <trkpt lat="45.16292" lon="6.33058">
        <ele>2088</ele>
        <time>2023-02-05T10:13:07.260Z</time>
      </trkpt>
      <trkpt lat="45.16286" lon="6.33048">
        <ele>2089</ele>
        <time>2023-02-05T10:13:22.305Z</time>
      </trkpt>
      <trkpt lat="45.16286" lon="6.33048">
        <ele>2090</ele>
        <time>2023-02-05T10:13:31.311Z</time>
      </trkpt>
      <trkpt lat="45.16286" lon="6.33048">
        <ele>2090</ele>
        <time>2023-02-05T10:14:00.310Z</time>
      </trkpt>
      <trkpt lat="45.16268" lon="6.33028">
        <ele>2096</ele>
        <time>2023-02-05T10:14:01.275Z</time>
      </trkpt>
      <trkpt lat="45.16262" lon="6.33019">
        <ele>2098</ele>
        <time>2023-02-05T10:14:15.249Z</time>
      </trkpt>
      <trkpt lat="45.16255" lon="6.3301">
        <ele>2099</ele>
        <time>2023-02-05T10:14:29.296Z</time>
      </trkpt>
      <trkpt lat="45.16248" lon="6.33001">
        <ele>2100</ele>
        <time>2023-02-05T10:14:46.332Z</time>
      </trkpt>
      <trkpt lat="45.1624" lon="6.32992">
        <ele>2101</ele>
        <time>2023-02-05T10:15:02.303Z</time>
      </trkpt>
      <trkpt lat="45.16232" lon="6.32986">
        <ele>2103</ele>
        <time>2023-02-05T10:15:14.334Z</time>
      </trkpt>
      <trkpt lat="45.16227" lon="6.32975">
        <ele>2105</ele>
        <time>2023-02-05T10:15:34.320Z</time>
      </trkpt>
      <trkpt lat="45.16221" lon="6.32965">
        <ele>2107</ele>
        <time>2023-02-05T10:15:49.329Z</time>
      </trkpt>
      <trkpt lat="45.16217" lon="6.32953">
        <ele>2109</ele>
        <time>2023-02-05T10:16:03.263Z</time>
      </trkpt>
      <trkpt lat="45.16214" lon="6.32941">
        <ele>2110</ele>
        <time>2023-02-05T10:16:18.332Z</time>
      </trkpt>
      <trkpt lat="45.16211" lon="6.32928">
        <ele>2111</ele>
        <time>2023-02-05T10:16:31.319Z</time>
      </trkpt>
      <trkpt lat="45.1621" lon="6.32924">
        <ele>2113</ele>
        <time>2023-02-05T10:16:47.327Z</time>
      </trkpt>
      <trkpt lat="45.1621" lon="6.32924">
        <ele>2113</ele>
        <time>2023-02-05T10:17:23.345Z</time>
      </trkpt>
      <trkpt lat="45.16198" lon="6.32896">
        <ele>2116</ele>
        <time>2023-02-05T10:17:24.366Z</time>
      </trkpt>
      <trkpt lat="45.16193" lon="6.32884">
        <ele>2117</ele>
        <time>2023-02-05T10:17:41.280Z</time>
      </trkpt>
      <trkpt lat="45.16189" lon="6.32872">
        <ele>2117</ele>
        <time>2023-02-05T10:17:57.322Z</time>
      </trkpt>
      <trkpt lat="45.1619" lon="6.32871">
        <ele>2118</ele>
        <time>2023-02-05T10:18:10.341Z</time>
      </trkpt>
      <trkpt lat="45.1619" lon="6.32871">
        <ele>2118</ele>
        <time>2023-02-05T10:18:48.310Z</time>
      </trkpt>
      <trkpt lat="45.16181" lon="6.32842">
        <ele>2121</ele>
        <time>2023-02-05T10:18:49.353Z</time>
      </trkpt>
      <trkpt lat="45.16183" lon="6.32842">
        <ele>2123</ele>
        <time>2023-02-05T10:19:01.314Z</time>
      </trkpt>
      <trkpt lat="45.16183" lon="6.32842">
        <ele>2123</ele>
        <time>2023-02-05T10:22:46.293Z</time>
      </trkpt>
      <trkpt lat="45.16181" lon="6.3281">
        <ele>2147</ele>
        <time>2023-02-05T10:22:47.276Z</time>
      </trkpt>
      <trkpt lat="45.16174" lon="6.32802">
        <ele>2156</ele>
        <time>2023-02-05T10:23:12.333Z</time>
      </trkpt>
      <trkpt lat="45.1617" lon="6.32791">
        <ele>2162</ele>
        <time>2023-02-05T10:23:31.323Z</time>
      </trkpt>
      <trkpt lat="45.16165" lon="6.3278">
        <ele>2164</ele>
        <time>2023-02-05T10:23:47.316Z</time>
      </trkpt>
      <trkpt lat="45.1616" lon="6.32768">
        <ele>2165</ele>
        <time>2023-02-05T10:24:02.335Z</time>
      </trkpt>
      <trkpt lat="45.16153" lon="6.3276">
        <ele>2169</ele>
        <time>2023-02-05T10:24:21.319Z</time>
      </trkpt>
      <trkpt lat="45.1615" lon="6.32755">
        <ele>2173</ele>
        <time>2023-02-05T10:24:34.263Z</time>
      </trkpt>
      <trkpt lat="45.1615" lon="6.32755">
        <ele>2173</ele>
        <time>2023-02-05T10:25:40.285Z</time>
      </trkpt>
      <trkpt lat="45.16156" lon="6.32724">
        <ele>2183</ele>
        <time>2023-02-05T10:25:41.330Z</time>
      </trkpt>
      <trkpt lat="45.16163" lon="6.32714">
        <ele>2185</ele>
        <time>2023-02-05T10:25:59.359Z</time>
      </trkpt>
      <trkpt lat="45.16164" lon="6.32701">
        <ele>2186</ele>
        <time>2023-02-05T10:26:15.330Z</time>
      </trkpt>
      <trkpt lat="45.16166" lon="6.32688">
        <ele>2190</ele>
        <time>2023-02-05T10:26:39.355Z</time>
      </trkpt>
      <trkpt lat="45.16164" lon="6.32676">
        <ele>2191</ele>
        <time>2023-02-05T10:27:05.337Z</time>
      </trkpt>
      <trkpt lat="45.1616" lon="6.32668">
        <ele>2193</ele>
        <time>2023-02-05T10:27:22.344Z</time>
      </trkpt>
      <trkpt lat="45.1616" lon="6.32668">
        <ele>2193</ele>
        <time>2023-02-05T10:28:50.343Z</time>
      </trkpt>
      <trkpt lat="45.16144" lon="6.32644">
        <ele>2215</ele>
        <time>2023-02-05T10:28:51.326Z</time>
      </trkpt>
      <trkpt lat="45.16141" lon="6.32641">
        <ele>2215</ele>
        <time>2023-02-05T10:29:10.338Z</time>
      </trkpt>
      <trkpt lat="45.16141" lon="6.32641">
        <ele>2215</ele>
        <time>2023-02-05T10:31:03.284Z</time>
      </trkpt>
      <trkpt lat="45.16135" lon="6.3261">
        <ele>2224</ele>
        <time>2023-02-05T10:31:04.262Z</time>
      </trkpt>
      <trkpt lat="45.16137" lon="6.32606">
        <ele>2227</ele>
        <time>2023-02-05T10:31:24.357Z</time>
      </trkpt>
      <trkpt lat="45.16137" lon="6.32606">
        <ele>2227</ele>
        <time>2023-02-05T10:32:34.276Z</time>
      </trkpt>
      <trkpt lat="45.16115" lon="6.32597">
        <ele>2240</ele>
        <time>2023-02-05T10:32:35.279Z</time>
      </trkpt>
      <trkpt lat="45.16108" lon="6.32588">
        <ele>2247</ele>
        <time>2023-02-05T10:33:00.297Z</time>
      </trkpt>
      <trkpt lat="45.16107" lon="6.32587">
        <ele>2252</ele>
        <time>2023-02-05T10:33:33.324Z</time>
      </trkpt>
      <trkpt lat="45.16107" lon="6.32587">
        <ele>2252</ele>
        <time>2023-02-05T10:34:25.347Z</time>
      </trkpt>
      <trkpt lat="45.16086" lon="6.32575">
        <ele>2257</ele>
        <time>2023-02-05T10:34:26.373Z</time>
      </trkpt>
      <trkpt lat="45.16078" lon="6.32568">
        <ele>2260</ele>
        <time>2023-02-05T10:34:43.361Z</time>
      </trkpt>
      <trkpt lat="45.1607" lon="6.32564">
        <ele>2263</ele>
        <time>2023-02-05T10:35:01.322Z</time>
      </trkpt>
      <trkpt lat="45.16061" lon="6.3256">
        <ele>2267</ele>
        <time>2023-02-05T10:35:21.368Z</time>
      </trkpt>
      <trkpt lat="45.1606" lon="6.32558">
        <ele>2269</ele>
        <time>2023-02-05T10:35:31.350Z</time>
      </trkpt>
      <trkpt lat="45.1606" lon="6.32558">
        <ele>2269</ele>
        <time>2023-02-05T10:36:35.279Z</time>
      </trkpt>
      <trkpt lat="45.16077" lon="6.32537">
        <ele>2270</ele>
        <time>2023-02-05T10:36:36.297Z</time>
      </trkpt>
      <trkpt lat="45.16086" lon="6.32532">
        <ele>2267</ele>
        <time>2023-02-05T10:36:53.312Z</time>
      </trkpt>
      <trkpt lat="45.16094" lon="6.32526">
        <ele>2266</ele>
        <time>2023-02-05T10:37:08.344Z</time>
      </trkpt>
      <trkpt lat="45.16084" lon="6.32527">
        <ele>2267</ele>
        <time>2023-02-05T10:37:39.291Z</time>
      </trkpt>
      <trkpt lat="45.16076" lon="6.32523">
        <ele>2272</ele>
        <time>2023-02-05T10:37:55.333Z</time>
      </trkpt>
      <trkpt lat="45.16068" lon="6.32516">
        <ele>2279</ele>
        <time>2023-02-05T10:38:13.306Z</time>
      </trkpt>
      <trkpt lat="45.16064" lon="6.32515">
        <ele>2284</ele>
        <time>2023-02-05T10:38:30.316Z</time>
      </trkpt>
      <trkpt lat="45.16064" lon="6.32515">
        <ele>2284</ele>
        <time>2023-02-05T10:42:03.333Z</time>
      </trkpt>
      <trkpt lat="45.16053" lon="6.32487">
        <ele>2294</ele>
        <time>2023-02-05T10:42:04.328Z</time>
      </trkpt>
      <trkpt lat="45.1605" lon="6.32485">
        <ele>2296</ele>
        <time>2023-02-05T10:42:18.321Z</time>
      </trkpt>
      <trkpt lat="45.1605" lon="6.32485">
        <ele>2296</ele>
        <time>2023-02-05T10:43:48.286Z</time>
      </trkpt>
      <trkpt lat="45.16042" lon="6.32455">
        <ele>2305</ele>
        <time>2023-02-05T10:43:49.323Z</time>
      </trkpt>
      <trkpt lat="45.16035" lon="6.32446">
        <ele>2310</ele>
        <time>2023-02-05T10:44:06.354Z</time>
      </trkpt>
      <trkpt lat="45.16029" lon="6.32436">
        <ele>2314</ele>
        <time>2023-02-05T10:44:23.319Z</time>
      </trkpt>
      <trkpt lat="45.16037" lon="6.3243">
        <ele>2315</ele>
        <time>2023-02-05T10:44:42.333Z</time>
      </trkpt>
      <trkpt lat="45.16046" lon="6.32427">
        <ele>2314</ele>
        <time>2023-02-05T10:44:58.328Z</time>
      </trkpt>
      <trkpt lat="45.16055" lon="6.32422">
        <ele>2312</ele>
        <time>2023-02-05T10:45:13.265Z</time>
      </trkpt>
      <trkpt lat="45.16054" lon="6.32409">
        <ele>2312</ele>
        <time>2023-02-05T10:45:40.346Z</time>
      </trkpt>
      <trkpt lat="45.16048" lon="6.32399">
        <ele>2316</ele>
        <time>2023-02-05T10:45:55.332Z</time>
      </trkpt>
      <trkpt lat="45.16042" lon="6.32391">
        <ele>2322</ele>
        <time>2023-02-05T10:46:21.366Z</time>
      </trkpt>
      <trkpt lat="45.16042" lon="6.32391">
        <ele>2322</ele>
        <time>2023-02-05T10:46:57.341Z</time>
      </trkpt>
      <trkpt lat="45.16029" lon="6.32364">
        <ele>2325</ele>
        <time>2023-02-05T10:46:58.334Z</time>
      </trkpt>
      <trkpt lat="45.16026" lon="6.32354">
        <ele>2328</ele>
        <time>2023-02-05T10:47:20.353Z</time>
      </trkpt>
      <trkpt lat="45.16026" lon="6.32354">
        <ele>2328</ele>
        <time>2023-02-05T10:53:57.314Z</time>
      </trkpt>
      <trkpt lat="45.16009" lon="6.32332">
        <ele>2337</ele>
        <time>2023-02-05T10:53:58.314Z</time>
      </trkpt>
      <trkpt lat="45.16005" lon="6.3232">
        <ele>2338</ele>
        <time>2023-02-05T10:54:14.341Z</time>
      </trkpt>
      <trkpt lat="45.15996" lon="6.32317">
        <ele>2339</ele>
        <time>2023-02-05T10:54:31.342Z</time>
      </trkpt>
      <trkpt lat="45.15987" lon="6.32317">
        <ele>2340</ele>
        <time>2023-02-05T10:54:43.342Z</time>
      </trkpt>
      <trkpt lat="45.15979" lon="6.3231">
        <ele>2342</ele>
        <time>2023-02-05T10:54:57.338Z</time>
      </trkpt>
      <trkpt lat="45.15973" lon="6.32299">
        <ele>2343</ele>
        <time>2023-02-05T10:55:07.323Z</time>
      </trkpt>
      <trkpt lat="45.15972" lon="6.32285">
        <ele>2343</ele>
        <time>2023-02-05T10:55:13.357Z</time>
      </trkpt>
      <trkpt lat="45.15978" lon="6.32276">
        <ele>2344</ele>
        <time>2023-02-05T10:55:28.390Z</time>
      </trkpt>
      <trkpt lat="45.15985" lon="6.32267">
        <ele>2346</ele>
        <time>2023-02-05T10:55:40.343Z</time>
      </trkpt>
      <trkpt lat="45.15991" lon="6.32256">
        <ele>2347</ele>
        <time>2023-02-05T10:55:52.347Z</time>
      </trkpt>
      <trkpt lat="45.15982" lon="6.32251">
        <ele>2349</ele>
        <time>2023-02-05T10:56:15.328Z</time>
      </trkpt>
      <trkpt lat="45.15973" lon="6.32254">
        <ele>2351</ele>
        <time>2023-02-05T10:56:28.264Z</time>
      </trkpt>
      <trkpt lat="45.15964" lon="6.32254">
        <ele>2354</ele>
        <time>2023-02-05T10:56:41.303Z</time>
      </trkpt>
      <trkpt lat="45.15965" lon="6.32241">
        <ele>2356</ele>
        <time>2023-02-05T10:56:56.307Z</time>
      </trkpt>
      <trkpt lat="45.15966" lon="6.32228">
        <ele>2358</ele>
        <time>2023-02-05T10:57:09.300Z</time>
      </trkpt>
      <trkpt lat="45.15968" lon="6.32215">
        <ele>2359</ele>
        <time>2023-02-05T10:57:21.301Z</time>
      </trkpt>
      <trkpt lat="45.15972" lon="6.32203">
        <ele>2361</ele>
        <time>2023-02-05T10:57:34.309Z</time>
      </trkpt>
      <trkpt lat="45.15978" lon="6.32193">
        <ele>2362</ele>
        <time>2023-02-05T10:57:49.379Z</time>
      </trkpt>
      <trkpt lat="45.15983" lon="6.32182">
        <ele>2362</ele>
        <time>2023-02-05T10:58:04.347Z</time>
      </trkpt>
      <trkpt lat="45.15984" lon="6.32168">
        <ele>2363</ele>
        <time>2023-02-05T10:58:22.288Z</time>
      </trkpt>
      <trkpt lat="45.15983" lon="6.32155">
        <ele>2364</ele>
        <time>2023-02-05T10:58:36.350Z</time>
      </trkpt>
      <trkpt lat="45.15981" lon="6.32142">
        <ele>2367</ele>
        <time>2023-02-05T10:58:55.341Z</time>
      </trkpt>
      <trkpt lat="45.15981" lon="6.32137">
        <ele>2369</ele>
        <time>2023-02-05T10:59:11.272Z</time>
      </trkpt>
      <trkpt lat="45.15981" lon="6.32137">
        <ele>2369</ele>
        <time>2023-02-05T11:00:14.291Z</time>
      </trkpt>
      <trkpt lat="45.15958" lon="6.32141">
        <ele>2387</ele>
        <time>2023-02-05T11:00:15.279Z</time>
      </trkpt>
      <trkpt lat="45.15955" lon="6.32128">
        <ele>2389</ele>
        <time>2023-02-05T11:00:31.339Z</time>
      </trkpt>
      <trkpt lat="45.15956" lon="6.32115">
        <ele>2389</ele>
        <time>2023-02-05T11:00:43.287Z</time>
      </trkpt>
      <trkpt lat="45.15956" lon="6.32109">
        <ele>2388</ele>
        <time>2023-02-05T11:01:02.356Z</time>
      </trkpt>
      <trkpt lat="45.15956" lon="6.32109">
        <ele>2388</ele>
        <time>2023-02-05T11:02:34.340Z</time>
      </trkpt>
      <trkpt lat="45.15955" lon="6.32077">
        <ele>2392</ele>
        <time>2023-02-05T11:02:35.321Z</time>
      </trkpt>
      <trkpt lat="45.15951" lon="6.32064">
        <ele>2396</ele>
        <time>2023-02-05T11:02:57.309Z</time>
      </trkpt>
      <trkpt lat="45.15945" lon="6.32073">
        <ele>2401</ele>
        <time>2023-02-05T11:03:18.361Z</time>
      </trkpt>
      <trkpt lat="45.15936" lon="6.3208">
        <ele>2404</ele>
        <time>2023-02-05T11:03:34.350Z</time>
      </trkpt>
      <trkpt lat="45.15927" lon="6.32085">
        <ele>2407</ele>
        <time>2023-02-05T11:03:47.311Z</time>
      </trkpt>
      <trkpt lat="45.15919" lon="6.32092">
        <ele>2410</ele>
        <time>2023-02-05T11:04:03.308Z</time>
      </trkpt>
      <trkpt lat="45.1591" lon="6.32093">
        <ele>2412</ele>
        <time>2023-02-05T11:04:23.280Z</time>
      </trkpt>
      <trkpt lat="45.15902" lon="6.32091">
        <ele>2415</ele>
        <time>2023-02-05T11:04:53.320Z</time>
      </trkpt>
      <trkpt lat="45.15902" lon="6.32091">
        <ele>2415</ele>
        <time>2023-02-05T11:09:10.289Z</time>
      </trkpt>
      <trkpt lat="45.15892" lon="6.32062">
        <ele>2423</ele>
        <time>2023-02-05T11:09:11.290Z</time>
      </trkpt>
      <trkpt lat="45.1589" lon="6.32049">
        <ele>2426</ele>
        <time>2023-02-05T11:09:28.293Z</time>
      </trkpt>
      <trkpt lat="45.1588" lon="6.32048">
        <ele>2430</ele>
        <time>2023-02-05T11:10:00.302Z</time>
      </trkpt>
      <trkpt lat="45.15871" lon="6.32052">
        <ele>2432</ele>
        <time>2023-02-05T11:10:16.305Z</time>
      </trkpt>
      <trkpt lat="45.15862" lon="6.32054">
        <ele>2435</ele>
        <time>2023-02-05T11:10:37.343Z</time>
      </trkpt>
      <trkpt lat="45.15853" lon="6.32056">
        <ele>2437</ele>
        <time>2023-02-05T11:10:53.334Z</time>
      </trkpt>
      <trkpt lat="45.15851" lon="6.32043">
        <ele>2439</ele>
        <time>2023-02-05T11:11:04.336Z</time>
      </trkpt>
      <trkpt lat="45.15851" lon="6.3203">
        <ele>2441</ele>
        <time>2023-02-05T11:11:19.350Z</time>
      </trkpt>
      <trkpt lat="45.15849" lon="6.32017">
        <ele>2443</ele>
        <time>2023-02-05T11:11:36.336Z</time>
      </trkpt>
      <trkpt lat="45.15846" lon="6.32005">
        <ele>2445</ele>
        <time>2023-02-05T11:11:50.335Z</time>
      </trkpt>
      <trkpt lat="45.15839" lon="6.32013">
        <ele>2447</ele>
        <time>2023-02-05T11:12:05.356Z</time>
      </trkpt>
      <trkpt lat="45.1583" lon="6.32019">
        <ele>2450</ele>
        <time>2023-02-05T11:12:24.367Z</time>
      </trkpt>
      <trkpt lat="45.15827" lon="6.32006">
        <ele>2453</ele>
        <time>2023-02-05T11:12:37.374Z</time>
      </trkpt>
      <trkpt lat="45.15826" lon="6.31993">
        <ele>2455</ele>
        <time>2023-02-05T11:12:48.345Z</time>
      </trkpt>
      <trkpt lat="45.15826" lon="6.3198">
        <ele>2457</ele>
        <time>2023-02-05T11:13:04.359Z</time>
      </trkpt>
      <trkpt lat="45.15816" lon="6.31979">
        <ele>2462</ele>
        <time>2023-02-05T11:13:39.344Z</time>
      </trkpt>
      <trkpt lat="45.15808" lon="6.31986">
        <ele>2463</ele>
        <time>2023-02-05T11:13:52.316Z</time>
      </trkpt>
      <trkpt lat="45.15805" lon="6.31974">
        <ele>2466</ele>
        <time>2023-02-05T11:14:14.380Z</time>
      </trkpt>
      <trkpt lat="45.15809" lon="6.31961">
        <ele>2467</ele>
        <time>2023-02-05T11:14:30.371Z</time>
      </trkpt>
      <trkpt lat="45.15807" lon="6.31955">
        <ele>2469</ele>
        <time>2023-02-05T11:14:49.327Z</time>
      </trkpt>
      <trkpt lat="45.15807" lon="6.31955">
        <ele>2469</ele>
        <time>2023-02-05T11:15:46.330Z</time>
      </trkpt>
      <trkpt lat="45.15807" lon="6.31923">
        <ele>2473</ele>
        <time>2023-02-05T11:15:47.346Z</time>
      </trkpt>
      <trkpt lat="45.15809" lon="6.3191">
        <ele>2475</ele>
        <time>2023-02-05T11:16:06.320Z</time>
      </trkpt>
      <trkpt lat="45.15809" lon="6.31896">
        <ele>2478</ele>
        <time>2023-02-05T11:16:25.329Z</time>
      </trkpt>
      <trkpt lat="45.15808" lon="6.31898">
        <ele>2482</ele>
        <time>2023-02-05T11:16:49.343Z</time>
      </trkpt>
      <trkpt lat="45.15808" lon="6.31898">
        <ele>2482</ele>
        <time>2023-02-05T11:17:57.330Z</time>
      </trkpt>
      <trkpt lat="45.15787" lon="6.31914">
        <ele>2492</ele>
        <time>2023-02-05T11:17:58.321Z</time>
      </trkpt>
      <trkpt lat="45.15787" lon="6.31914">
        <ele>2493</ele>
        <time>2023-02-05T11:18:04.337Z</time>
      </trkpt>
      <trkpt lat="45.15787" lon="6.31914">
        <ele>2493</ele>
        <time>2023-02-05T11:20:26.347Z</time>
      </trkpt>
      <trkpt lat="45.15766" lon="6.31901">
        <ele>2506</ele>
        <time>2023-02-05T11:20:27.363Z</time>
      </trkpt>
      <trkpt lat="45.15758" lon="6.31909">
        <ele>2508</ele>
        <time>2023-02-05T11:20:42.341Z</time>
      </trkpt>
      <trkpt lat="45.1575" lon="6.31914">
        <ele>2511</ele>
        <time>2023-02-05T11:21:04.335Z</time>
      </trkpt>
      <trkpt lat="45.15741" lon="6.3192">
        <ele>2513</ele>
        <time>2023-02-05T11:21:21.359Z</time>
      </trkpt>
      <trkpt lat="45.15733" lon="6.31926">
        <ele>2517</ele>
        <time>2023-02-05T11:21:40.336Z</time>
      </trkpt>
      <trkpt lat="45.15725" lon="6.31931">
        <ele>2520</ele>
        <time>2023-02-05T11:21:57.340Z</time>
      </trkpt>
      <trkpt lat="45.15716" lon="6.31934">
        <ele>2523</ele>
        <time>2023-02-05T11:22:24.345Z</time>
      </trkpt>
      <trkpt lat="45.15707" lon="6.31936">
        <ele>2524</ele>
        <time>2023-02-05T11:22:39.345Z</time>
      </trkpt>
      <trkpt lat="45.15703" lon="6.31938">
        <ele>2526</ele>
        <time>2023-02-05T11:22:52.354Z</time>
      </trkpt>
      <trkpt lat="45.15703" lon="6.31938">
        <ele>2526</ele>
        <time>2023-02-05T11:23:43.345Z</time>
      </trkpt>
      <trkpt lat="45.15682" lon="6.3195">
        <ele>2535</ele>
        <time>2023-02-05T11:23:44.347Z</time>
      </trkpt>
      <trkpt lat="45.15674" lon="6.31956">
        <ele>2536</ele>
        <time>2023-02-05T11:24:06.355Z</time>
      </trkpt>
      <trkpt lat="45.15665" lon="6.31958">
        <ele>2537</ele>
        <time>2023-02-05T11:24:22.333Z</time>
      </trkpt>
      <trkpt lat="45.15656" lon="6.31954">
        <ele>2539</ele>
        <time>2023-02-05T11:24:39.326Z</time>
      </trkpt>
      <trkpt lat="45.15653" lon="6.31952">
        <ele>2542</ele>
        <time>2023-02-05T11:24:56.349Z</time>
      </trkpt>
      <trkpt lat="45.15653" lon="6.31952">
        <ele>2542</ele>
        <time>2023-02-05T11:33:33.329Z</time>
      </trkpt>
      <trkpt lat="45.15651" lon="6.31921">
        <ele>2549</ele>
        <time>2023-02-05T11:33:34.305Z</time>
      </trkpt>
      <trkpt lat="45.15641" lon="6.31921">
        <ele>2551</ele>
        <time>2023-02-05T11:33:55.319Z</time>
      </trkpt>
      <trkpt lat="45.15633" lon="6.31914">
        <ele>2554</ele>
        <time>2023-02-05T11:34:17.344Z</time>
      </trkpt>
      <trkpt lat="45.15635" lon="6.319">
        <ele>2558</ele>
        <time>2023-02-05T11:34:33.323Z</time>
      </trkpt>
      <trkpt lat="45.15627" lon="6.31896">
        <ele>2564</ele>
        <time>2023-02-05T11:34:58.273Z</time>
      </trkpt>
      <trkpt lat="45.15627" lon="6.31883">
        <ele>2568</ele>
        <time>2023-02-05T11:35:31.349Z</time>
      </trkpt>
      <trkpt lat="45.15632" lon="6.31872">
        <ele>2571</ele>
        <time>2023-02-05T11:35:50.309Z</time>
      </trkpt>
      <trkpt lat="45.15638" lon="6.31861">
        <ele>2573</ele>
        <time>2023-02-05T11:36:07.327Z</time>
      </trkpt>
      <trkpt lat="45.15642" lon="6.31849">
        <ele>2574</ele>
        <time>2023-02-05T11:36:26.301Z</time>
      </trkpt>
      <trkpt lat="45.15647" lon="6.31838">
        <ele>2575</ele>
        <time>2023-02-05T11:36:44.337Z</time>
      </trkpt>
      <trkpt lat="45.15653" lon="6.31829">
        <ele>2576</ele>
        <time>2023-02-05T11:37:03.344Z</time>
      </trkpt>
      <trkpt lat="45.15653" lon="6.31829">
        <ele>2576</ele>
        <time>2023-02-05T11:39:14.371Z</time>
      </trkpt>
      <trkpt lat="45.15647" lon="6.31797">
        <ele>2592</ele>
        <time>2023-02-05T11:39:15.352Z</time>
      </trkpt>
      <trkpt lat="45.15649" lon="6.31793">
        <ele>2594</ele>
        <time>2023-02-05T11:39:27.339Z</time>
      </trkpt>
      <trkpt lat="45.15649" lon="6.31793">
        <ele>2594</ele>
        <time>2023-02-05T11:40:21.333Z</time>
      </trkpt>
      <trkpt lat="45.15626" lon="6.31801">
        <ele>2601</ele>
        <time>2023-02-05T11:40:22.345Z</time>
      </trkpt>
      <trkpt lat="45.15617" lon="6.31804">
        <ele>2602</ele>
        <time>2023-02-05T11:40:36.326Z</time>
      </trkpt>
      <trkpt lat="45.15608" lon="6.31806">
        <ele>2605</ele>
        <time>2023-02-05T11:40:53.337Z</time>
      </trkpt>
      <trkpt lat="45.15599" lon="6.3181">
        <ele>2607</ele>
        <time>2023-02-05T11:41:09.356Z</time>
      </trkpt>
      <trkpt lat="45.15595" lon="6.31809">
        <ele>2611</ele>
        <time>2023-02-05T11:41:27.334Z</time>
      </trkpt>
      <trkpt lat="45.15595" lon="6.31809">
        <ele>2611</ele>
        <time>2023-02-05T11:42:18.338Z</time>
      </trkpt>
      <trkpt lat="45.15572" lon="6.31814">
        <ele>2615</ele>
        <time>2023-02-05T11:42:19.346Z</time>
      </trkpt>
      <trkpt lat="45.15563" lon="6.31818">
        <ele>2616</ele>
        <time>2023-02-05T11:42:31.331Z</time>
      </trkpt>
      <trkpt lat="45.15554" lon="6.3182">
        <ele>2617</ele>
        <time>2023-02-05T11:42:42.315Z</time>
      </trkpt>
      <trkpt lat="45.15545" lon="6.31822">
        <ele>2619</ele>
        <time>2023-02-05T11:42:54.351Z</time>
      </trkpt>
      <trkpt lat="45.15536" lon="6.31825">
        <ele>2621</ele>
        <time>2023-02-05T11:43:09.326Z</time>
      </trkpt>
      <trkpt lat="45.15527" lon="6.31827">
        <ele>2623</ele>
        <time>2023-02-05T11:43:22.328Z</time>
      </trkpt>
      <trkpt lat="45.15518" lon="6.3183">
        <ele>2625</ele>
        <time>2023-02-05T11:43:36.364Z</time>
      </trkpt>
      <trkpt lat="45.15509" lon="6.31829">
        <ele>2627</ele>
        <time>2023-02-05T11:43:48.364Z</time>
      </trkpt>
      <trkpt lat="45.15508" lon="6.31829">
        <ele>2629</ele>
        <time>2023-02-05T11:44:01.371Z</time>
      </trkpt>
      <trkpt lat="45.15508" lon="6.31829">
        <ele>2629</ele>
        <time>2023-02-05T12:03:21.325Z</time>
      </trkpt>
      <trkpt lat="45.15491" lon="6.31809">
        <ele>2629</ele>
        <time>2023-02-05T12:03:22.349Z</time>
      </trkpt>
      <trkpt lat="45.15484" lon="6.31799">
        <ele>2629</ele>
        <time>2023-02-05T12:03:40.359Z</time>
      </trkpt>
      <trkpt lat="45.15475" lon="6.31794">
        <ele>2629</ele>
        <time>2023-02-05T12:03:52.338Z</time>
      </trkpt>
      <trkpt lat="45.15469" lon="6.31784">
        <ele>2629</ele>
        <time>2023-02-05T12:04:10.357Z</time>
      </trkpt>
      <trkpt lat="45.15466" lon="6.31775">
        <ele>2627</ele>
        <time>2023-02-05T12:04:34.340Z</time>
      </trkpt>
      <trkpt lat="45.15466" lon="6.31775">
        <ele>2627</ele>
        <time>2023-02-05T12:09:00.358Z</time>
      </trkpt>
      <trkpt lat="45.15465" lon="6.31738">
        <ele>2618</ele>
        <time>2023-02-05T12:09:01.311Z</time>
      </trkpt>
      <trkpt lat="45.15472" lon="6.31729">
        <ele>2618</ele>
        <time>2023-02-05T12:09:04.329Z</time>
      </trkpt>
      <trkpt lat="45.15481" lon="6.31722">
        <ele>2618</ele>
        <time>2023-02-05T12:09:07.313Z</time>
      </trkpt>
      <trkpt lat="45.15474" lon="6.31709">
        <ele>2616</ele>
        <time>2023-02-05T12:09:15.346Z</time>
      </trkpt>
      <trkpt lat="45.15465" lon="6.31703">
        <ele>2615</ele>
        <time>2023-02-05T12:09:17.365Z</time>
      </trkpt>
      <trkpt lat="45.15456" lon="6.317">
        <ele>2614</ele>
        <time>2023-02-05T12:09:20.334Z</time>
      </trkpt>
      <trkpt lat="45.15455" lon="6.31686">
        <ele>2611</ele>
        <time>2023-02-05T12:09:28.327Z</time>
      </trkpt>
      <trkpt lat="45.15445" lon="6.31677">
        <ele>2609</ele>
        <time>2023-02-05T12:09:31.323Z</time>
      </trkpt>
      <trkpt lat="45.15433" lon="6.31672">
        <ele>2607</ele>
        <time>2023-02-05T12:09:34.311Z</time>
      </trkpt>
      <trkpt lat="45.15419" lon="6.31671">
        <ele>2605</ele>
        <time>2023-02-05T12:09:38.342Z</time>
      </trkpt>
      <trkpt lat="45.15403" lon="6.31671">
        <ele>2601</ele>
        <time>2023-02-05T12:09:43.350Z</time>
      </trkpt>
      <trkpt lat="45.1539" lon="6.31673">
        <ele>2597</ele>
        <time>2023-02-05T12:09:48.339Z</time>
      </trkpt>
      <trkpt lat="45.1538" lon="6.31674">
        <ele>2593</ele>
        <time>2023-02-05T12:09:53.325Z</time>
      </trkpt>
      <trkpt lat="45.15381" lon="6.3166">
        <ele>2583</ele>
        <time>2023-02-05T12:10:10.294Z</time>
      </trkpt>
      <trkpt lat="45.15375" lon="6.31649">
        <ele>2580</ele>
        <time>2023-02-05T12:10:18.338Z</time>
      </trkpt>
      <trkpt lat="45.15372" lon="6.31637">
        <ele>2578</ele>
        <time>2023-02-05T12:10:25.283Z</time>
      </trkpt>
      <trkpt lat="45.15371" lon="6.31623">
        <ele>2574</ele>
        <time>2023-02-05T12:10:37.326Z</time>
      </trkpt>
      <trkpt lat="45.15365" lon="6.31611">
        <ele>2572</ele>
        <time>2023-02-05T12:10:41.317Z</time>
      </trkpt>
      <trkpt lat="45.15363" lon="6.31598">
        <ele>2570</ele>
        <time>2023-02-05T12:10:46.306Z</time>
      </trkpt>
      <trkpt lat="45.15359" lon="6.31585">
        <ele>2568</ele>
        <time>2023-02-05T12:10:50.330Z</time>
      </trkpt>
      <trkpt lat="45.15349" lon="6.31582">
        <ele>2563</ele>
        <time>2023-02-05T12:10:57.261Z</time>
      </trkpt>
      <trkpt lat="45.15338" lon="6.31585">
        <ele>2561</ele>
        <time>2023-02-05T12:11:00.346Z</time>
      </trkpt>
      <trkpt lat="45.15327" lon="6.31593">
        <ele>2558</ele>
        <time>2023-02-05T12:11:03.332Z</time>
      </trkpt>
      <trkpt lat="45.15313" lon="6.31603">
        <ele>2555</ele>
        <time>2023-02-05T12:11:07.354Z</time>
      </trkpt>
      <trkpt lat="45.15303" lon="6.31605">
        <ele>2547</ele>
        <time>2023-02-05T12:11:16.313Z</time>
      </trkpt>
      <trkpt lat="45.15295" lon="6.31608">
        <ele>2535</ele>
        <time>2023-02-05T12:11:33.344Z</time>
      </trkpt>
      <trkpt lat="45.15295" lon="6.31608">
        <ele>2535</ele>
        <time>2023-02-05T12:12:47.337Z</time>
      </trkpt>
      <trkpt lat="45.15297" lon="6.31575">
        <ele>2526</ele>
        <time>2023-02-05T12:12:48.355Z</time>
      </trkpt>
      <trkpt lat="45.15288" lon="6.31576">
        <ele>2526</ele>
        <time>2023-02-05T12:12:51.269Z</time>
      </trkpt>
      <trkpt lat="45.15287" lon="6.31563">
        <ele>2526</ele>
        <time>2023-02-05T12:12:55.342Z</time>
      </trkpt>
      <trkpt lat="45.15276" lon="6.31554">
        <ele>2525</ele>
        <time>2023-02-05T12:12:59.320Z</time>
      </trkpt>
      <trkpt lat="45.15268" lon="6.31541">
        <ele>2524</ele>
        <time>2023-02-05T12:13:04.336Z</time>
      </trkpt>
      <trkpt lat="45.15264" lon="6.31524">
        <ele>2522</ele>
        <time>2023-02-05T12:13:09.310Z</time>
      </trkpt>
      <trkpt lat="45.1526" lon="6.31506">
        <ele>2520</ele>
        <time>2023-02-05T12:13:14.298Z</time>
      </trkpt>
      <trkpt lat="45.15247" lon="6.31498">
        <ele>2518</ele>
        <time>2023-02-05T12:13:17.306Z</time>
      </trkpt>
      <trkpt lat="45.15244" lon="6.31479">
        <ele>2515</ele>
        <time>2023-02-05T12:13:22.354Z</time>
      </trkpt>
      <trkpt lat="45.1523" lon="6.31473">
        <ele>2510</ele>
        <time>2023-02-05T12:13:28.368Z</time>
      </trkpt>
      <trkpt lat="45.1523" lon="6.31473">
        <ele>2500</ele>
        <time>2023-02-05T12:13:40.334Z</time>
      </trkpt>
      <trkpt lat="45.1523" lon="6.31473">
        <ele>2500</ele>
        <time>2023-02-05T12:14:10.324Z</time>
      </trkpt>
      <trkpt lat="45.15218" lon="6.31442">
        <ele>2483</ele>
        <time>2023-02-05T12:14:11.346Z</time>
      </trkpt>
      <trkpt lat="45.15216" lon="6.31426">
        <ele>2480</ele>
        <time>2023-02-05T12:14:20.367Z</time>
      </trkpt>
      <trkpt lat="45.15207" lon="6.31422">
        <ele>2479</ele>
        <time>2023-02-05T12:14:22.359Z</time>
      </trkpt>
      <trkpt lat="45.15198" lon="6.31417">
        <ele>2476</ele>
        <time>2023-02-05T12:14:30.355Z</time>
      </trkpt>
      <trkpt lat="45.15196" lon="6.31402">
        <ele>2472</ele>
        <time>2023-02-05T12:14:38.335Z</time>
      </trkpt>
      <trkpt lat="45.15197" lon="6.31389">
        <ele>2469</ele>
        <time>2023-02-05T12:14:43.350Z</time>
      </trkpt>
      <trkpt lat="45.15188" lon="6.3138">
        <ele>2467</ele>
        <time>2023-02-05T12:14:47.349Z</time>
      </trkpt>
      <trkpt lat="45.15185" lon="6.31366">
        <ele>2463</ele>
        <time>2023-02-05T12:14:53.342Z</time>
      </trkpt>
      <trkpt lat="45.15186" lon="6.31352">
        <ele>2459</ele>
        <time>2023-02-05T12:14:58.355Z</time>
      </trkpt>
      <trkpt lat="45.15178" lon="6.31343">
        <ele>2457</ele>
        <time>2023-02-05T12:15:01.350Z</time>
      </trkpt>
      <trkpt lat="45.15174" lon="6.31328">
        <ele>2453</ele>
        <time>2023-02-05T12:15:06.292Z</time>
      </trkpt>
      <trkpt lat="45.15164" lon="6.31323">
        <ele>2451</ele>
        <time>2023-02-05T12:15:09.337Z</time>
      </trkpt>
      <trkpt lat="45.15164" lon="6.3131">
        <ele>2439</ele>
        <time>2023-02-05T12:15:23.317Z</time>
      </trkpt>
      <trkpt lat="45.15158" lon="6.31299">
        <ele>2436</ele>
        <time>2023-02-05T12:15:27.343Z</time>
      </trkpt>
      <trkpt lat="45.15155" lon="6.31285">
        <ele>2431</ele>
        <time>2023-02-05T12:15:33.331Z</time>
      </trkpt>
      <trkpt lat="45.15147" lon="6.31274">
        <ele>2427</ele>
        <time>2023-02-05T12:15:38.328Z</time>
      </trkpt>
      <trkpt lat="45.15141" lon="6.31272">
        <ele>2414</ele>
        <time>2023-02-05T12:15:56.336Z</time>
      </trkpt>
      <trkpt lat="45.15141" lon="6.31272">
        <ele>2414</ele>
        <time>2023-02-05T12:16:15.370Z</time>
      </trkpt>
      <trkpt lat="45.15143" lon="6.31238">
        <ele>2403</ele>
        <time>2023-02-05T12:16:16.337Z</time>
      </trkpt>
      <trkpt lat="45.15141" lon="6.31225">
        <ele>2400</ele>
        <time>2023-02-05T12:16:23.333Z</time>
      </trkpt>
      <trkpt lat="45.15135" lon="6.31215">
        <ele>2397</ele>
        <time>2023-02-05T12:16:28.333Z</time>
      </trkpt>
      <trkpt lat="45.15135" lon="6.312">
        <ele>2388</ele>
        <time>2023-02-05T12:16:42.294Z</time>
      </trkpt>
      <trkpt lat="45.1514" lon="6.31185">
        <ele>2384</ele>
        <time>2023-02-05T12:16:48.371Z</time>
      </trkpt>
      <trkpt lat="45.15148" lon="6.31173">
        <ele>2382</ele>
        <time>2023-02-05T12:16:50.320Z</time>
      </trkpt>
      <trkpt lat="45.15154" lon="6.31163">
        <ele>2377</ele>
        <time>2023-02-05T12:16:58.319Z</time>
      </trkpt>
      <trkpt lat="45.15145" lon="6.31159">
        <ele>2371</ele>
        <time>2023-02-05T12:17:06.339Z</time>
      </trkpt>
      <trkpt lat="45.15145" lon="6.31159">
        <ele>2364</ele>
        <time>2023-02-05T12:17:16.334Z</time>
      </trkpt>
      <trkpt lat="45.15145" lon="6.31159">
        <ele>2364</ele>
        <time>2023-02-05T12:19:00.349Z</time>
      </trkpt>
      <trkpt lat="45.15127" lon="6.31129">
        <ele>2340</ele>
        <time>2023-02-05T12:19:01.369Z</time>
      </trkpt>
      <trkpt lat="45.15118" lon="6.31124">
        <ele>2339</ele>
        <time>2023-02-05T12:19:10.359Z</time>
      </trkpt>
      <trkpt lat="45.15114" lon="6.31111">
        <ele>2337</ele>
        <time>2023-02-05T12:19:19.328Z</time>
      </trkpt>
      <trkpt lat="45.15108" lon="6.311">
        <ele>2336</ele>
        <time>2023-02-05T12:19:26.339Z</time>
      </trkpt>
      <trkpt lat="45.151" lon="6.31093">
        <ele>2334</ele>
        <time>2023-02-05T12:19:32.371Z</time>
      </trkpt>
      <trkpt lat="45.151" lon="6.31092">
        <ele>2332</ele>
        <time>2023-02-05T12:19:44.335Z</time>
      </trkpt>
      <trkpt lat="45.151" lon="6.31092">
        <ele>2332</ele>
        <time>2023-02-05T12:20:12.381Z</time>
      </trkpt>
      <trkpt lat="45.15078" lon="6.31079">
        <ele>2330</ele>
        <time>2023-02-05T12:20:13.370Z</time>
      </trkpt>
      <trkpt lat="45.15065" lon="6.31073">
        <ele>2330</ele>
        <time>2023-02-05T12:20:16.341Z</time>
      </trkpt>
      <trkpt lat="45.15051" lon="6.31078">
        <ele>2329</ele>
        <time>2023-02-05T12:20:21.386Z</time>
      </trkpt>
      <trkpt lat="45.15037" lon="6.31077">
        <ele>2329</ele>
        <time>2023-02-05T12:20:24.330Z</time>
      </trkpt>
      <trkpt lat="45.15033" lon="6.31079">
        <ele>2325</ele>
        <time>2023-02-05T12:20:38.360Z</time>
      </trkpt>
      <trkpt lat="45.15033" lon="6.31079">
        <ele>2325</ele>
        <time>2023-02-05T12:20:55.306Z</time>
      </trkpt>
      <trkpt lat="45.15044" lon="6.31051">
        <ele>2320</ele>
        <time>2023-02-05T12:20:56.335Z</time>
      </trkpt>
      <trkpt lat="45.15041" lon="6.31035">
        <ele>2318</ele>
        <time>2023-02-05T12:21:02.359Z</time>
      </trkpt>
      <trkpt lat="45.15039" lon="6.31023">
        <ele>2317</ele>
        <time>2023-02-05T12:21:08.335Z</time>
      </trkpt>
      <trkpt lat="45.15037" lon="6.3101">
        <ele>2315</ele>
        <time>2023-02-05T12:21:13.299Z</time>
      </trkpt>
      <trkpt lat="45.15032" lon="6.31006">
        <ele>2308</ele>
        <time>2023-02-05T12:21:32.353Z</time>
      </trkpt>
      <trkpt lat="45.15032" lon="6.31006">
        <ele>2308</ele>
        <time>2023-02-05T12:21:57.349Z</time>
      </trkpt>
      <trkpt lat="45.15017" lon="6.30982">
        <ele>2299</ele>
        <time>2023-02-05T12:21:58.280Z</time>
      </trkpt>
      <trkpt lat="45.15007" lon="6.30977">
        <ele>2298</ele>
        <time>2023-02-05T12:22:02.357Z</time>
      </trkpt>
      <trkpt lat="45.15002" lon="6.30965">
        <ele>2293</ele>
        <time>2023-02-05T12:22:16.347Z</time>
      </trkpt>
      <trkpt lat="45.14995" lon="6.30954">
        <ele>2283</ele>
        <time>2023-02-05T12:22:38.331Z</time>
      </trkpt>
      <trkpt lat="45.14994" lon="6.30943">
        <ele>2278</ele>
        <time>2023-02-05T12:22:56.358Z</time>
      </trkpt>
      <trkpt lat="45.14994" lon="6.30943">
        <ele>2278</ele>
        <time>2023-02-05T12:23:28.330Z</time>
      </trkpt>
      <trkpt lat="45.14997" lon="6.30911">
        <ele>2270</ele>
        <time>2023-02-05T12:23:29.332Z</time>
      </trkpt>
      <trkpt lat="45.14995" lon="6.309">
        <ele>2266</ele>
        <time>2023-02-05T12:23:51.356Z</time>
      </trkpt>
      <trkpt lat="45.14995" lon="6.309">
        <ele>2266</ele>
        <time>2023-02-05T12:41:09.372Z</time>
      </trkpt>
      <trkpt lat="45.14973" lon="6.30894">
        <ele>2265</ele>
        <time>2023-02-05T12:41:10.341Z</time>
      </trkpt>
      <trkpt lat="45.14966" lon="6.30903">
        <ele>2268</ele>
        <time>2023-02-05T12:41:28.361Z</time>
      </trkpt>
      <trkpt lat="45.1496" lon="6.30914">
        <ele>2271</ele>
        <time>2023-02-05T12:41:48.287Z</time>
      </trkpt>
      <trkpt lat="45.14956" lon="6.30926">
        <ele>2273</ele>
        <time>2023-02-05T12:42:03.357Z</time>
      </trkpt>
      <trkpt lat="45.14954" lon="6.3093">
        <ele>2274</ele>
        <time>2023-02-05T12:42:22.231Z</time>
      </trkpt>
      <trkpt lat="45.14954" lon="6.3093">
        <ele>2274</ele>
        <time>2023-02-05T12:43:40.318Z</time>
      </trkpt>
      <trkpt lat="45.14933" lon="6.30944">
        <ele>2278</ele>
        <time>2023-02-05T12:43:41.337Z</time>
      </trkpt>
      <trkpt lat="45.14924" lon="6.3095">
        <ele>2280</ele>
        <time>2023-02-05T12:43:52.302Z</time>
      </trkpt>
      <trkpt lat="45.14918" lon="6.30959">
        <ele>2281</ele>
        <time>2023-02-05T12:44:05.355Z</time>
      </trkpt>
      <trkpt lat="45.14909" lon="6.30963">
        <ele>2283</ele>
        <time>2023-02-05T12:44:16.362Z</time>
      </trkpt>
      <trkpt lat="45.14899" lon="6.30967">
        <ele>2285</ele>
        <time>2023-02-05T12:44:31.358Z</time>
      </trkpt>
      <trkpt lat="45.14891" lon="6.30974">
        <ele>2286</ele>
        <time>2023-02-05T12:44:42.324Z</time>
      </trkpt>
      <trkpt lat="45.14883" lon="6.3098">
        <ele>2289</ele>
        <time>2023-02-05T12:44:59.351Z</time>
      </trkpt>
      <trkpt lat="45.14875" lon="6.30987">
        <ele>2291</ele>
        <time>2023-02-05T12:45:15.343Z</time>
      </trkpt>
      <trkpt lat="45.14869" lon="6.30997">
        <ele>2293</ele>
        <time>2023-02-05T12:45:31.328Z</time>
      </trkpt>
      <trkpt lat="45.14863" lon="6.31006">
        <ele>2295</ele>
        <time>2023-02-05T12:45:50.267Z</time>
      </trkpt>
      <trkpt lat="45.14855" lon="6.31014">
        <ele>2297</ele>
        <time>2023-02-05T12:46:07.359Z</time>
      </trkpt>
      <trkpt lat="45.14846" lon="6.3102">
        <ele>2299</ele>
        <time>2023-02-05T12:46:23.301Z</time>
      </trkpt>
      <trkpt lat="45.14838" lon="6.31029">
        <ele>2301</ele>
        <time>2023-02-05T12:46:39.347Z</time>
      </trkpt>
      <trkpt lat="45.14833" lon="6.3104">
        <ele>2303</ele>
        <time>2023-02-05T12:46:55.332Z</time>
      </trkpt>
      <trkpt lat="45.14826" lon="6.31048">
        <ele>2306</ele>
        <time>2023-02-05T12:47:08.305Z</time>
      </trkpt>
      <trkpt lat="45.14822" lon="6.3106">
        <ele>2309</ele>
        <time>2023-02-05T12:47:22.371Z</time>
      </trkpt>
      <trkpt lat="45.14818" lon="6.31072">
        <ele>2311</ele>
        <time>2023-02-05T12:47:38.353Z</time>
      </trkpt>
      <trkpt lat="45.14813" lon="6.31083">
        <ele>2312</ele>
        <time>2023-02-05T12:47:48.346Z</time>
      </trkpt>
      <trkpt lat="45.14808" lon="6.31094">
        <ele>2312</ele>
        <time>2023-02-05T12:48:02.333Z</time>
      </trkpt>
      <trkpt lat="45.14803" lon="6.31104">
        <ele>2314</ele>
        <time>2023-02-05T12:48:15.325Z</time>
      </trkpt>
      <trkpt lat="45.14796" lon="6.31115">
        <ele>2316</ele>
        <time>2023-02-05T12:48:31.333Z</time>
      </trkpt>
      <trkpt lat="45.1479" lon="6.31124">
        <ele>2318</ele>
        <time>2023-02-05T12:48:48.360Z</time>
      </trkpt>
      <trkpt lat="45.14783" lon="6.31133">
        <ele>2320</ele>
        <time>2023-02-05T12:49:03.382Z</time>
      </trkpt>
      <trkpt lat="45.14776" lon="6.31141">
        <ele>2323</ele>
        <time>2023-02-05T12:49:20.287Z</time>
      </trkpt>
      <trkpt lat="45.1477" lon="6.31152">
        <ele>2325</ele>
        <time>2023-02-05T12:49:36.310Z</time>
      </trkpt>
      <trkpt lat="45.14763" lon="6.3116">
        <ele>2326</ele>
        <time>2023-02-05T12:49:55.322Z</time>
      </trkpt>
      <trkpt lat="45.14758" lon="6.31171">
        <ele>2328</ele>
        <time>2023-02-05T12:50:14.347Z</time>
      </trkpt>
      <trkpt lat="45.14752" lon="6.31182">
        <ele>2330</ele>
        <time>2023-02-05T12:50:28.323Z</time>
      </trkpt>
      <trkpt lat="45.14748" lon="6.31193">
        <ele>2333</ele>
        <time>2023-02-05T12:50:45.336Z</time>
      </trkpt>
      <trkpt lat="45.14745" lon="6.31206">
        <ele>2337</ele>
        <time>2023-02-05T12:51:03.339Z</time>
      </trkpt>
      <trkpt lat="45.14741" lon="6.31218">
        <ele>2339</ele>
        <time>2023-02-05T12:51:17.311Z</time>
      </trkpt>
      <trkpt lat="45.14737" lon="6.3123">
        <ele>2342</ele>
        <time>2023-02-05T12:51:33.316Z</time>
      </trkpt>
      <trkpt lat="45.14731" lon="6.31239">
        <ele>2346</ele>
        <time>2023-02-05T12:51:52.347Z</time>
      </trkpt>
      <trkpt lat="45.14731" lon="6.3124">
        <ele>2346</ele>
        <time>2023-02-05T12:51:53.348Z</time>
      </trkpt>
      <trkpt lat="45.14731" lon="6.3124">
        <ele>2346</ele>
        <time>2023-02-05T12:52:32.330Z</time>
      </trkpt>
      <trkpt lat="45.1472" lon="6.31269">
        <ele>2348</ele>
        <time>2023-02-05T12:52:33.302Z</time>
      </trkpt>
      <trkpt lat="45.14716" lon="6.31281">
        <ele>2350</ele>
        <time>2023-02-05T12:52:47.333Z</time>
      </trkpt>
      <trkpt lat="45.1471" lon="6.3129">
        <ele>2352</ele>
        <time>2023-02-05T12:53:00.341Z</time>
      </trkpt>
      <trkpt lat="45.14702" lon="6.31296">
        <ele>2355</ele>
        <time>2023-02-05T12:53:16.283Z</time>
      </trkpt>
      <trkpt lat="45.14695" lon="6.31304">
        <ele>2358</ele>
        <time>2023-02-05T12:53:29.321Z</time>
      </trkpt>
      <trkpt lat="45.14694" lon="6.31311">
        <ele>2361</ele>
        <time>2023-02-05T12:53:49.346Z</time>
      </trkpt>
      <trkpt lat="45.14694" lon="6.31311">
        <ele>2361</ele>
        <time>2023-02-05T12:54:34.320Z</time>
      </trkpt>
      <trkpt lat="45.14679" lon="6.31335">
        <ele>2362</ele>
        <time>2023-02-05T12:54:35.342Z</time>
      </trkpt>
      <trkpt lat="45.14673" lon="6.31345">
        <ele>2362</ele>
        <time>2023-02-05T12:54:48.348Z</time>
      </trkpt>
      <trkpt lat="45.14665" lon="6.31354">
        <ele>2362</ele>
        <time>2023-02-05T12:55:01.302Z</time>
      </trkpt>
      <trkpt lat="45.14658" lon="6.31361">
        <ele>2363</ele>
        <time>2023-02-05T12:55:14.338Z</time>
      </trkpt>
      <trkpt lat="45.1465" lon="6.31367">
        <ele>2364</ele>
        <time>2023-02-05T12:55:28.334Z</time>
      </trkpt>
      <trkpt lat="45.14644" lon="6.31377">
        <ele>2366</ele>
        <time>2023-02-05T12:55:44.351Z</time>
      </trkpt>
      <trkpt lat="45.14638" lon="6.31387">
        <ele>2369</ele>
        <time>2023-02-05T12:55:59.329Z</time>
      </trkpt>
      <trkpt lat="45.14632" lon="6.31397">
        <ele>2371</ele>
        <time>2023-02-05T12:56:14.353Z</time>
      </trkpt>
      <trkpt lat="45.14627" lon="6.31408">
        <ele>2372</ele>
        <time>2023-02-05T12:56:29.355Z</time>
      </trkpt>
      <trkpt lat="45.14627" lon="6.31409">
        <ele>2372</ele>
        <time>2023-02-05T12:56:40.361Z</time>
      </trkpt>
      <trkpt lat="45.14627" lon="6.31409">
        <ele>2372</ele>
        <time>2023-02-05T13:00:05.351Z</time>
      </trkpt>
      <trkpt lat="45.14608" lon="6.31427">
        <ele>2367</ele>
        <time>2023-02-05T13:00:06.332Z</time>
      </trkpt>
      <trkpt lat="45.14605" lon="6.3144">
        <ele>2368</ele>
        <time>2023-02-05T13:00:23.330Z</time>
      </trkpt>
      <trkpt lat="45.14605" lon="6.31452">
        <ele>2368</ele>
        <time>2023-02-05T13:00:39.333Z</time>
      </trkpt>
      <trkpt lat="45.14609" lon="6.31464">
        <ele>2371</ele>
        <time>2023-02-05T13:00:58.320Z</time>
      </trkpt>
      <trkpt lat="45.14608" lon="6.31477">
        <ele>2375</ele>
        <time>2023-02-05T13:01:22.373Z</time>
      </trkpt>
      <trkpt lat="45.14607" lon="6.31491">
        <ele>2378</ele>
        <time>2023-02-05T13:01:41.328Z</time>
      </trkpt>
      <trkpt lat="45.14607" lon="6.31504">
        <ele>2380</ele>
        <time>2023-02-05T13:01:59.355Z</time>
      </trkpt>
      <trkpt lat="45.14605" lon="6.31517">
        <ele>2382</ele>
        <time>2023-02-05T13:02:18.364Z</time>
      </trkpt>
      <trkpt lat="45.14604" lon="6.31531">
        <ele>2386</ele>
        <time>2023-02-05T13:02:35.296Z</time>
      </trkpt>
      <trkpt lat="45.14602" lon="6.31543">
        <ele>2390</ele>
        <time>2023-02-05T13:02:53.345Z</time>
      </trkpt>
      <trkpt lat="45.14601" lon="6.31556">
        <ele>2394</ele>
        <time>2023-02-05T13:03:14.291Z</time>
      </trkpt>
      <trkpt lat="45.14603" lon="6.3157">
        <ele>2397</ele>
        <time>2023-02-05T13:03:29.344Z</time>
      </trkpt>
      <trkpt lat="45.14601" lon="6.31582">
        <ele>2400</ele>
        <time>2023-02-05T13:03:52.315Z</time>
      </trkpt>
      <trkpt lat="45.14599" lon="6.31595">
        <ele>2402</ele>
        <time>2023-02-05T13:04:12.315Z</time>
      </trkpt>
      <trkpt lat="45.14599" lon="6.31608">
        <ele>2405</ele>
        <time>2023-02-05T13:04:29.397Z</time>
      </trkpt>
      <trkpt lat="45.14599" lon="6.31622">
        <ele>2409</ele>
        <time>2023-02-05T13:04:51.353Z</time>
      </trkpt>
      <trkpt lat="45.14598" lon="6.31635">
        <ele>2414</ele>
        <time>2023-02-05T13:05:15.351Z</time>
      </trkpt>
      <trkpt lat="45.14595" lon="6.31648">
        <ele>2417</ele>
        <time>2023-02-05T13:05:31.342Z</time>
      </trkpt>
      <trkpt lat="45.14598" lon="6.31661">
        <ele>2420</ele>
        <time>2023-02-05T13:05:46.370Z</time>
      </trkpt>
      <trkpt lat="45.14599" lon="6.31674">
        <ele>2422</ele>
        <time>2023-02-05T13:06:05.371Z</time>
      </trkpt>
      <trkpt lat="45.14599" lon="6.31687">
        <ele>2424</ele>
        <time>2023-02-05T13:06:25.317Z</time>
      </trkpt>
      <trkpt lat="45.14605" lon="6.31697">
        <ele>2425</ele>
        <time>2023-02-05T13:06:42.361Z</time>
      </trkpt>
      <trkpt lat="45.14608" lon="6.31709">
        <ele>2425</ele>
        <time>2023-02-05T13:07:03.361Z</time>
      </trkpt>
      <trkpt lat="45.14608" lon="6.31712">
        <ele>2425</ele>
        <time>2023-02-05T13:07:09.347Z</time>
      </trkpt>
      <trkpt lat="45.14608" lon="6.31712">
        <ele>2425</ele>
        <time>2023-02-05T13:07:44.345Z</time>
      </trkpt>
      <trkpt lat="45.14619" lon="6.31741">
        <ele>2433</ele>
        <time>2023-02-05T13:07:45.343Z</time>
      </trkpt>
      <trkpt lat="45.1462" lon="6.31752">
        <ele>2436</ele>
        <time>2023-02-05T13:08:10.353Z</time>
      </trkpt>
      <trkpt lat="45.1462" lon="6.31752">
        <ele>2436</ele>
        <time>2023-02-05T13:10:06.258Z</time>
      </trkpt>
      <trkpt lat="45.14619" lon="6.31785">
        <ele>2440</ele>
        <time>2023-02-05T13:10:07.362Z</time>
      </trkpt>
      <trkpt lat="45.14619" lon="6.31798">
        <ele>2440</ele>
        <time>2023-02-05T13:10:21.326Z</time>
      </trkpt>
      <trkpt lat="45.14616" lon="6.31811">
        <ele>2440</ele>
        <time>2023-02-05T13:10:39.282Z</time>
      </trkpt>
      <trkpt lat="45.14621" lon="6.31822">
        <ele>2443</ele>
        <time>2023-02-05T13:10:59.351Z</time>
      </trkpt>
      <trkpt lat="45.14621" lon="6.31835">
        <ele>2449</ele>
        <time>2023-02-05T13:11:22.341Z</time>
      </trkpt>
      <trkpt lat="45.14622" lon="6.31842">
        <ele>2453</ele>
        <time>2023-02-05T13:11:44.336Z</time>
      </trkpt>
      <trkpt lat="45.14622" lon="6.31842">
        <ele>2453</ele>
        <time>2023-02-05T13:12:41.344Z</time>
      </trkpt>
      <trkpt lat="45.14643" lon="6.31854">
        <ele>2461</ele>
        <time>2023-02-05T13:12:42.330Z</time>
      </trkpt>
      <trkpt lat="45.14651" lon="6.3186">
        <ele>2465</ele>
        <time>2023-02-05T13:13:01.347Z</time>
      </trkpt>
      <trkpt lat="45.14658" lon="6.31864">
        <ele>2469</ele>
        <time>2023-02-05T13:13:22.354Z</time>
      </trkpt>
      <trkpt lat="45.14658" lon="6.31864">
        <ele>2469</ele>
        <time>2023-02-05T13:14:11.334Z</time>
      </trkpt>
      <trkpt lat="45.14666" lon="6.31894">
        <ele>2476</ele>
        <time>2023-02-05T13:14:12.357Z</time>
      </trkpt>
      <trkpt lat="45.14669" lon="6.31895">
        <ele>2477</ele>
        <time>2023-02-05T13:14:32.324Z</time>
      </trkpt>
      <trkpt lat="45.14669" lon="6.31895">
        <ele>2477</ele>
        <time>2023-02-05T13:15:27.318Z</time>
      </trkpt>
      <trkpt lat="45.1469" lon="6.31909">
        <ele>2484</ele>
        <time>2023-02-05T13:15:28.331Z</time>
      </trkpt>
      <trkpt lat="45.14696" lon="6.31918">
        <ele>2488</ele>
        <time>2023-02-05T13:15:46.374Z</time>
      </trkpt>
      <trkpt lat="45.14701" lon="6.3193">
        <ele>2491</ele>
        <time>2023-02-05T13:16:02.319Z</time>
      </trkpt>
      <trkpt lat="45.14707" lon="6.3194">
        <ele>2492</ele>
        <time>2023-02-05T13:16:19.328Z</time>
      </trkpt>
      <trkpt lat="45.14714" lon="6.31949">
        <ele>2492</ele>
        <time>2023-02-05T13:16:37.350Z</time>
      </trkpt>
      <trkpt lat="45.14721" lon="6.31958">
        <ele>2494</ele>
        <time>2023-02-05T13:16:52.334Z</time>
      </trkpt>
      <trkpt lat="45.14726" lon="6.31969">
        <ele>2495</ele>
        <time>2023-02-05T13:17:10.352Z</time>
      </trkpt>
      <trkpt lat="45.14732" lon="6.3198">
        <ele>2497</ele>
        <time>2023-02-05T13:17:29.306Z</time>
      </trkpt>
      <trkpt lat="45.14738" lon="6.31989">
        <ele>2499</ele>
        <time>2023-02-05T13:17:45.269Z</time>
      </trkpt>
      <trkpt lat="45.14741" lon="6.32002">
        <ele>2501</ele>
        <time>2023-02-05T13:18:04.317Z</time>
      </trkpt>
      <trkpt lat="45.14746" lon="6.32014">
        <ele>2503</ele>
        <time>2023-02-05T13:18:23.345Z</time>
      </trkpt>
      <trkpt lat="45.14751" lon="6.32026">
        <ele>2504</ele>
        <time>2023-02-05T13:18:38.317Z</time>
      </trkpt>
      <trkpt lat="45.14754" lon="6.3203">
        <ele>2506</ele>
        <time>2023-02-05T13:18:56.316Z</time>
      </trkpt>
      <trkpt lat="45.14754" lon="6.3203">
        <ele>2506</ele>
        <time>2023-02-05T13:23:29.353Z</time>
      </trkpt>
      <trkpt lat="45.14741" lon="6.32056">
        <ele>2511</ele>
        <time>2023-02-05T13:23:30.379Z</time>
      </trkpt>
      <trkpt lat="45.14738" lon="6.32069">
        <ele>2516</ele>
        <time>2023-02-05T13:23:47.315Z</time>
      </trkpt>
      <trkpt lat="45.14734" lon="6.32081">
        <ele>2519</ele>
        <time>2023-02-05T13:24:00.344Z</time>
      </trkpt>
      <trkpt lat="45.14731" lon="6.32093">
        <ele>2523</ele>
        <time>2023-02-05T13:24:15.351Z</time>
      </trkpt>
      <trkpt lat="45.14727" lon="6.32104">
        <ele>2525</ele>
        <time>2023-02-05T13:24:30.360Z</time>
      </trkpt>
      <trkpt lat="45.14722" lon="6.32116">
        <ele>2526</ele>
        <time>2023-02-05T13:24:45.334Z</time>
      </trkpt>
      <trkpt lat="45.1472" lon="6.32129">
        <ele>2527</ele>
        <time>2023-02-05T13:25:01.331Z</time>
      </trkpt>
      <trkpt lat="45.14719" lon="6.32143">
        <ele>2529</ele>
        <time>2023-02-05T13:25:17.351Z</time>
      </trkpt>
      <trkpt lat="45.14716" lon="6.32155">
        <ele>2531</ele>
        <time>2023-02-05T13:25:33.331Z</time>
      </trkpt>
      <trkpt lat="45.14715" lon="6.32169">
        <ele>2532</ele>
        <time>2023-02-05T13:25:47.348Z</time>
      </trkpt>
      <trkpt lat="45.14715" lon="6.32168">
        <ele>2534</ele>
        <time>2023-02-05T13:26:00.302Z</time>
      </trkpt>
      <trkpt lat="45.14715" lon="6.32168">
        <ele>2534</ele>
        <time>2023-02-05T13:27:17.307Z</time>
      </trkpt>
      <trkpt lat="45.14735" lon="6.32182">
        <ele>2531</ele>
        <time>2023-02-05T13:27:18.330Z</time>
      </trkpt>
      <trkpt lat="45.14744" lon="6.32177">
        <ele>2533</ele>
        <time>2023-02-05T13:27:41.329Z</time>
      </trkpt>
      <trkpt lat="45.14747" lon="6.3219">
        <ele>2536</ele>
        <time>2023-02-05T13:27:56.350Z</time>
      </trkpt>
      <trkpt lat="45.14756" lon="6.32191">
        <ele>2541</ele>
        <time>2023-02-05T13:28:17.336Z</time>
      </trkpt>
      <trkpt lat="45.14763" lon="6.32199">
        <ele>2546</ele>
        <time>2023-02-05T13:28:37.357Z</time>
      </trkpt>
      <trkpt lat="45.14772" lon="6.32203">
        <ele>2551</ele>
        <time>2023-02-05T13:29:09.303Z</time>
      </trkpt>
      <trkpt lat="45.14781" lon="6.32205">
        <ele>2552</ele>
        <time>2023-02-05T13:29:27.322Z</time>
      </trkpt>
      <trkpt lat="45.1479" lon="6.32208">
        <ele>2553</ele>
        <time>2023-02-05T13:29:47.352Z</time>
      </trkpt>
      <trkpt lat="45.14797" lon="6.32216">
        <ele>2556</ele>
        <time>2023-02-05T13:30:10.336Z</time>
      </trkpt>
      <trkpt lat="45.148" lon="6.32229">
        <ele>2557</ele>
        <time>2023-02-05T13:30:26.286Z</time>
      </trkpt>
      <trkpt lat="45.14806" lon="6.32238">
        <ele>2562</ele>
        <time>2023-02-05T13:30:50.352Z</time>
      </trkpt>
      <trkpt lat="45.14816" lon="6.32238">
        <ele>2568</ele>
        <time>2023-02-05T13:31:10.288Z</time>
      </trkpt>
      <trkpt lat="45.14825" lon="6.32238">
        <ele>2573</ele>
        <time>2023-02-05T13:31:28.333Z</time>
      </trkpt>
      <trkpt lat="45.14826" lon="6.32251">
        <ele>2577</ele>
        <time>2023-02-05T13:31:45.343Z</time>
      </trkpt>
      <trkpt lat="45.14835" lon="6.32256">
        <ele>2581</ele>
        <time>2023-02-05T13:32:04.315Z</time>
      </trkpt>
      <trkpt lat="45.1484" lon="6.32266">
        <ele>2585</ele>
        <time>2023-02-05T13:32:23.363Z</time>
      </trkpt>
      <trkpt lat="45.14837" lon="6.32278">
        <ele>2588</ele>
        <time>2023-02-05T13:32:39.359Z</time>
      </trkpt>
      <trkpt lat="45.14846" lon="6.32278">
        <ele>2591</ele>
        <time>2023-02-05T13:32:55.345Z</time>
      </trkpt>
      <trkpt lat="45.1485" lon="6.32277">
        <ele>2593</ele>
        <time>2023-02-05T13:33:10.352Z</time>
      </trkpt>
      <trkpt lat="45.1485" lon="6.32277">
        <ele>2593</ele>
        <time>2023-02-05T13:34:35.353Z</time>
      </trkpt>
      <trkpt lat="45.14844" lon="6.32308">
        <ele>2599</ele>
        <time>2023-02-05T13:34:36.324Z</time>
      </trkpt>
      <trkpt lat="45.14836" lon="6.32318">
        <ele>2599</ele>
        <time>2023-02-05T13:34:50.283Z</time>
      </trkpt>
      <trkpt lat="45.14834" lon="6.32331">
        <ele>2598</ele>
        <time>2023-02-05T13:35:09.349Z</time>
      </trkpt>
      <trkpt lat="45.14834" lon="6.32331">
        <ele>2598</ele>
        <time>2023-02-05T13:35:13.337Z</time>
      </trkpt>
      <trkpt lat="45.14834" lon="6.32331">
        <ele>2598</ele>
        <time>2023-02-05T13:36:00.354Z</time>
      </trkpt>
      <trkpt lat="45.14813" lon="6.32349">
        <ele>2592</ele>
        <time>2023-02-05T13:36:01.320Z</time>
      </trkpt>
      <trkpt lat="45.14803" lon="6.32352">
        <ele>2591</ele>
        <time>2023-02-05T13:36:10.268Z</time>
      </trkpt>
      <trkpt lat="45.14795" lon="6.32359">
        <ele>2589</ele>
        <time>2023-02-05T13:36:25.294Z</time>
      </trkpt>
      <trkpt lat="45.14787" lon="6.32366">
        <ele>2588</ele>
        <time>2023-02-05T13:36:38.266Z</time>
      </trkpt>
      <trkpt lat="45.14778" lon="6.32371">
        <ele>2587</ele>
        <time>2023-02-05T13:36:56.282Z</time>
      </trkpt>
      <trkpt lat="45.14778" lon="6.32371">
        <ele>2587</ele>
        <time>2023-02-05T13:36:59.355Z</time>
      </trkpt>
      <trkpt lat="45.14778" lon="6.32371">
        <ele>2587</ele>
        <time>2023-02-05T13:40:01.347Z</time>
      </trkpt>
      <trkpt lat="45.14766" lon="6.32398">
        <ele>2588</ele>
        <time>2023-02-05T13:40:02.352Z</time>
      </trkpt>
      <trkpt lat="45.14766" lon="6.32411">
        <ele>2584</ele>
        <time>2023-02-05T13:40:25.302Z</time>
      </trkpt>
      <trkpt lat="45.14766" lon="6.32413">
        <ele>2583</ele>
        <time>2023-02-05T13:40:31.279Z</time>
      </trkpt>
      <trkpt lat="45.14766" lon="6.32413">
        <ele>2583</ele>
        <time>2023-02-05T13:43:01.378Z</time>
      </trkpt>
      <trkpt lat="45.14748" lon="6.32438">
        <ele>2571</ele>
        <time>2023-02-05T13:43:02.329Z</time>
      </trkpt>
      <trkpt lat="45.1474" lon="6.32445">
        <ele>2571</ele>
        <time>2023-02-05T13:43:05.376Z</time>
      </trkpt>
      <trkpt lat="45.14731" lon="6.3245">
        <ele>2571</ele>
        <time>2023-02-05T13:43:08.314Z</time>
      </trkpt>
      <trkpt lat="45.14724" lon="6.32458">
        <ele>2571</ele>
        <time>2023-02-05T13:43:18.276Z</time>
      </trkpt>
      <trkpt lat="45.14716" lon="6.32465">
        <ele>2570</ele>
        <time>2023-02-05T13:43:27.292Z</time>
      </trkpt>
      <trkpt lat="45.1471" lon="6.32475">
        <ele>2569</ele>
        <time>2023-02-05T13:43:40.314Z</time>
      </trkpt>
      <trkpt lat="45.14702" lon="6.32483">
        <ele>2569</ele>
        <time>2023-02-05T13:43:51.321Z</time>
      </trkpt>
      <trkpt lat="45.14695" lon="6.32491">
        <ele>2569</ele>
        <time>2023-02-05T13:44:00.327Z</time>
      </trkpt>
      <trkpt lat="45.1469" lon="6.32502">
        <ele>2570</ele>
        <time>2023-02-05T13:44:11.319Z</time>
      </trkpt>
      <trkpt lat="45.14687" lon="6.32514">
        <ele>2570</ele>
        <time>2023-02-05T13:44:24.364Z</time>
      </trkpt>
      <trkpt lat="45.1468" lon="6.32523">
        <ele>2569</ele>
        <time>2023-02-05T13:44:42.326Z</time>
      </trkpt>
      <trkpt lat="45.14677" lon="6.32535">
        <ele>2568</ele>
        <time>2023-02-05T13:44:54.329Z</time>
      </trkpt>
      <trkpt lat="45.14672" lon="6.32547">
        <ele>2567</ele>
        <time>2023-02-05T13:45:07.341Z</time>
      </trkpt>
      <trkpt lat="45.14667" lon="6.32559">
        <ele>2566</ele>
        <time>2023-02-05T13:45:17.311Z</time>
      </trkpt>
      <trkpt lat="45.14665" lon="6.32572">
        <ele>2566</ele>
        <time>2023-02-05T13:45:29.288Z</time>
      </trkpt>
      <trkpt lat="45.14661" lon="6.32584">
        <ele>2566</ele>
        <time>2023-02-05T13:45:39.341Z</time>
      </trkpt>
      <trkpt lat="45.14656" lon="6.32595">
        <ele>2566</ele>
        <time>2023-02-05T13:45:50.323Z</time>
      </trkpt>
      <trkpt lat="45.1465" lon="6.32606">
        <ele>2566</ele>
        <time>2023-02-05T13:46:00.326Z</time>
      </trkpt>
      <trkpt lat="45.14646" lon="6.32618">
        <ele>2567</ele>
        <time>2023-02-05T13:46:10.267Z</time>
      </trkpt>
      <trkpt lat="45.14641" lon="6.32629">
        <ele>2567</ele>
        <time>2023-02-05T13:46:21.316Z</time>
      </trkpt>
      <trkpt lat="45.14632" lon="6.32636">
        <ele>2568</ele>
        <time>2023-02-05T13:46:30.332Z</time>
      </trkpt>
      <trkpt lat="45.14626" lon="6.32645">
        <ele>2569</ele>
        <time>2023-02-05T13:46:40.319Z</time>
      </trkpt>
      <trkpt lat="45.14617" lon="6.32653">
        <ele>2570</ele>
        <time>2023-02-05T13:46:50.343Z</time>
      </trkpt>
      <trkpt lat="45.14612" lon="6.32663">
        <ele>2570</ele>
        <time>2023-02-05T13:47:01.332Z</time>
      </trkpt>
      <trkpt lat="45.14606" lon="6.32672">
        <ele>2570</ele>
        <time>2023-02-05T13:47:12.325Z</time>
      </trkpt>
      <trkpt lat="45.14599" lon="6.32682">
        <ele>2572</ele>
        <time>2023-02-05T13:47:23.273Z</time>
      </trkpt>
      <trkpt lat="45.14591" lon="6.3269">
        <ele>2573</ele>
        <time>2023-02-05T13:47:34.256Z</time>
      </trkpt>
      <trkpt lat="45.14584" lon="6.32699">
        <ele>2575</ele>
        <time>2023-02-05T13:47:43.271Z</time>
      </trkpt>
      <trkpt lat="45.14575" lon="6.32706">
        <ele>2575</ele>
        <time>2023-02-05T13:47:52.270Z</time>
      </trkpt>
      <trkpt lat="45.14568" lon="6.32713">
        <ele>2576</ele>
        <time>2023-02-05T13:48:03.281Z</time>
      </trkpt>
      <trkpt lat="45.14568" lon="6.32716">
        <ele>2575</ele>
        <time>2023-02-05T13:48:16.340Z</time>
      </trkpt>
      <trkpt lat="45.14568" lon="6.32716">
        <ele>2575</ele>
        <time>2023-02-05T13:51:52.245Z</time>
      </trkpt>
      <trkpt lat="45.14547" lon="6.3273">
        <ele>2575</ele>
        <time>2023-02-05T13:51:53.270Z</time>
      </trkpt>
      <trkpt lat="45.14539" lon="6.32734">
        <ele>2575</ele>
        <time>2023-02-05T13:52:02.283Z</time>
      </trkpt>
      <trkpt lat="45.14529" lon="6.32736">
        <ele>2575</ele>
        <time>2023-02-05T13:52:13.360Z</time>
      </trkpt>
      <trkpt lat="45.14519" lon="6.32738">
        <ele>2576</ele>
        <time>2023-02-05T13:52:21.276Z</time>
      </trkpt>
      <trkpt lat="45.1451" lon="6.32742">
        <ele>2578</ele>
        <time>2023-02-05T13:52:35.333Z</time>
      </trkpt>
      <trkpt lat="45.14501" lon="6.32744">
        <ele>2579</ele>
        <time>2023-02-05T13:52:45.319Z</time>
      </trkpt>
      <trkpt lat="45.14492" lon="6.32745">
        <ele>2579</ele>
        <time>2023-02-05T13:52:56.308Z</time>
      </trkpt>
      <trkpt lat="45.14483" lon="6.32748">
        <ele>2580</ele>
        <time>2023-02-05T13:53:08.323Z</time>
      </trkpt>
      <trkpt lat="45.14474" lon="6.32753">
        <ele>2581</ele>
        <time>2023-02-05T13:53:20.346Z</time>
      </trkpt>
      <trkpt lat="45.14465" lon="6.32756">
        <ele>2582</ele>
        <time>2023-02-05T13:53:34.343Z</time>
      </trkpt>
      <trkpt lat="45.14457" lon="6.32762">
        <ele>2584</ele>
        <time>2023-02-05T13:53:47.275Z</time>
      </trkpt>
      <trkpt lat="45.14448" lon="6.32767">
        <ele>2586</ele>
        <time>2023-02-05T13:53:58.290Z</time>
      </trkpt>
      <trkpt lat="45.14439" lon="6.32771">
        <ele>2587</ele>
        <time>2023-02-05T13:54:09.321Z</time>
      </trkpt>
      <trkpt lat="45.14429" lon="6.32775">
        <ele>2587</ele>
        <time>2023-02-05T13:54:22.294Z</time>
      </trkpt>
      <trkpt lat="45.1442" lon="6.32778">
        <ele>2589</ele>
        <time>2023-02-05T13:54:34.304Z</time>
      </trkpt>
      <trkpt lat="45.14411" lon="6.32779">
        <ele>2589</ele>
        <time>2023-02-05T13:54:44.349Z</time>
      </trkpt>
      <trkpt lat="45.14402" lon="6.32783">
        <ele>2591</ele>
        <time>2023-02-05T13:54:54.327Z</time>
      </trkpt>
      <trkpt lat="45.14393" lon="6.32786">
        <ele>2592</ele>
        <time>2023-02-05T13:55:08.312Z</time>
      </trkpt>
      <trkpt lat="45.14385" lon="6.32791">
        <ele>2594</ele>
        <time>2023-02-05T13:55:21.366Z</time>
      </trkpt>
      <trkpt lat="45.14376" lon="6.32795">
        <ele>2595</ele>
        <time>2023-02-05T13:55:40.270Z</time>
      </trkpt>
      <trkpt lat="45.14375" lon="6.32795">
        <ele>2595</ele>
        <time>2023-02-05T13:55:52.299Z</time>
      </trkpt>
      <trkpt lat="45.14375" lon="6.32795">
        <ele>2595</ele>
        <time>2023-02-05T14:08:26.342Z</time>
      </trkpt>
      <trkpt lat="45.14382" lon="6.32831">
        <ele>2602</ele>
        <time>2023-02-05T14:08:27.328Z</time>
      </trkpt>
      <trkpt lat="45.14391" lon="6.32843">
        <ele>2601</ele>
        <time>2023-02-05T14:08:31.282Z</time>
      </trkpt>
      <trkpt lat="45.14392" lon="6.32862">
        <ele>2600</ele>
        <time>2023-02-05T14:08:39.318Z</time>
      </trkpt>
      <trkpt lat="45.1439" lon="6.32875">
        <ele>2598</ele>
        <time>2023-02-05T14:08:47.335Z</time>
      </trkpt>
      <trkpt lat="45.14387" lon="6.32895">
        <ele>2596</ele>
        <time>2023-02-05T14:08:51.325Z</time>
      </trkpt>
      <trkpt lat="45.14391" lon="6.32912">
        <ele>2595</ele>
        <time>2023-02-05T14:08:53.331Z</time>
      </trkpt>
      <trkpt lat="45.14397" lon="6.32927">
        <ele>2594</ele>
        <time>2023-02-05T14:08:55.341Z</time>
      </trkpt>
      <trkpt lat="45.14406" lon="6.32951">
        <ele>2592</ele>
        <time>2023-02-05T14:09:00.282Z</time>
      </trkpt>
      <trkpt lat="45.14409" lon="6.32953">
        <ele>2584</ele>
        <time>2023-02-05T14:09:16.332Z</time>
      </trkpt>
      <trkpt lat="45.14409" lon="6.32953">
        <ele>2584</ele>
        <time>2023-02-05T14:10:03.347Z</time>
      </trkpt>
      <trkpt lat="45.14412" lon="6.32986">
        <ele>2578</ele>
        <time>2023-02-05T14:10:04.327Z</time>
      </trkpt>
      <trkpt lat="45.14418" lon="6.32998">
        <ele>2578</ele>
        <time>2023-02-05T14:10:06.320Z</time>
      </trkpt>
      <trkpt lat="45.14423" lon="6.33021">
        <ele>2578</ele>
        <time>2023-02-05T14:10:09.321Z</time>
      </trkpt>
      <trkpt lat="45.14425" lon="6.3305">
        <ele>2577</ele>
        <time>2023-02-05T14:10:12.334Z</time>
      </trkpt>
      <trkpt lat="45.14428" lon="6.33079">
        <ele>2576</ele>
        <time>2023-02-05T14:10:19.321Z</time>
      </trkpt>
      <trkpt lat="45.14436" lon="6.33094">
        <ele>2575</ele>
        <time>2023-02-05T14:10:24.305Z</time>
      </trkpt>
      <trkpt lat="45.14441" lon="6.33107">
        <ele>2574</ele>
        <time>2023-02-05T14:10:27.330Z</time>
      </trkpt>
      <trkpt lat="45.14451" lon="6.33116">
        <ele>2573</ele>
        <time>2023-02-05T14:10:31.320Z</time>
      </trkpt>
      <trkpt lat="45.14456" lon="6.33137">
        <ele>2571</ele>
        <time>2023-02-05T14:10:35.275Z</time>
      </trkpt>
      <trkpt lat="45.14451" lon="6.33155">
        <ele>2569</ele>
        <time>2023-02-05T14:10:40.295Z</time>
      </trkpt>
      <trkpt lat="45.14452" lon="6.33156">
        <ele>2564</ele>
        <time>2023-02-05T14:10:53.314Z</time>
      </trkpt>
      <trkpt lat="45.14452" lon="6.33156">
        <ele>2564</ele>
        <time>2023-02-05T14:11:13.287Z</time>
      </trkpt>
      <trkpt lat="45.14441" lon="6.33188">
        <ele>2558</ele>
        <time>2023-02-05T14:11:14.273Z</time>
      </trkpt>
      <trkpt lat="45.14436" lon="6.33201">
        <ele>2557</ele>
        <time>2023-02-05T14:11:16.306Z</time>
      </trkpt>
      <trkpt lat="45.14424" lon="6.33217">
        <ele>2556</ele>
        <time>2023-02-05T14:11:21.313Z</time>
      </trkpt>
      <trkpt lat="45.14429" lon="6.33239">
        <ele>2555</ele>
        <time>2023-02-05T14:11:25.295Z</time>
      </trkpt>
      <trkpt lat="45.14437" lon="6.33261">
        <ele>2553</ele>
        <time>2023-02-05T14:11:29.257Z</time>
      </trkpt>
      <trkpt lat="45.14428" lon="6.33281">
        <ele>2551</ele>
        <time>2023-02-05T14:11:34.355Z</time>
      </trkpt>
      <trkpt lat="45.14429" lon="6.33288">
        <ele>2543</ele>
        <time>2023-02-05T14:11:50.315Z</time>
      </trkpt>
      <trkpt lat="45.14429" lon="6.33288">
        <ele>2543</ele>
        <time>2023-02-05T14:12:01.323Z</time>
      </trkpt>
      <trkpt lat="45.14442" lon="6.3332">
        <ele>2537</ele>
        <time>2023-02-05T14:12:02.284Z</time>
      </trkpt>
      <trkpt lat="45.14451" lon="6.33322">
        <ele>2536</ele>
        <time>2023-02-05T14:12:04.339Z</time>
      </trkpt>
      <trkpt lat="45.14466" lon="6.3333">
        <ele>2534</ele>
        <time>2023-02-05T14:12:11.350Z</time>
      </trkpt>
      <trkpt lat="45.14474" lon="6.33338">
        <ele>2531</ele>
        <time>2023-02-05T14:12:18.289Z</time>
      </trkpt>
      <trkpt lat="45.14481" lon="6.3335">
        <ele>2529</ele>
        <time>2023-02-05T14:12:24.280Z</time>
      </trkpt>
      <trkpt lat="45.1448" lon="6.33365">
        <ele>2528</ele>
        <time>2023-02-05T14:12:28.273Z</time>
      </trkpt>
      <trkpt lat="45.14487" lon="6.33376">
        <ele>2526</ele>
        <time>2023-02-05T14:12:33.241Z</time>
      </trkpt>
      <trkpt lat="45.14491" lon="6.33388">
        <ele>2525</ele>
        <time>2023-02-05T14:12:37.250Z</time>
      </trkpt>
      <trkpt lat="45.14488" lon="6.33401">
        <ele>2523</ele>
        <time>2023-02-05T14:12:40.259Z</time>
      </trkpt>
      <trkpt lat="45.14481" lon="6.3341">
        <ele>2521</ele>
        <time>2023-02-05T14:12:44.326Z</time>
      </trkpt>
      <trkpt lat="45.14469" lon="6.33423">
        <ele>2520</ele>
        <time>2023-02-05T14:12:48.274Z</time>
      </trkpt>
      <trkpt lat="45.14466" lon="6.3344">
        <ele>2518</ele>
        <time>2023-02-05T14:12:51.269Z</time>
      </trkpt>
      <trkpt lat="45.14462" lon="6.33452">
        <ele>2515</ele>
        <time>2023-02-05T14:12:59.251Z</time>
      </trkpt>
      <trkpt lat="45.14464" lon="6.33456">
        <ele>2509</ele>
        <time>2023-02-05T14:13:13.324Z</time>
      </trkpt>
      <trkpt lat="45.14464" lon="6.33456">
        <ele>2509</ele>
        <time>2023-02-05T14:13:51.297Z</time>
      </trkpt>
      <trkpt lat="45.1447" lon="6.3349">
        <ele>2501</ele>
        <time>2023-02-05T14:13:52.290Z</time>
      </trkpt>
      <trkpt lat="45.14468" lon="6.33504">
        <ele>2500</ele>
        <time>2023-02-05T14:13:57.239Z</time>
      </trkpt>
      <trkpt lat="45.14465" lon="6.33518">
        <ele>2499</ele>
        <time>2023-02-05T14:14:01.292Z</time>
      </trkpt>
      <trkpt lat="45.14473" lon="6.3353">
        <ele>2498</ele>
        <time>2023-02-05T14:14:04.252Z</time>
      </trkpt>
      <trkpt lat="45.14466" lon="6.3354">
        <ele>2495</ele>
        <time>2023-02-05T14:14:11.263Z</time>
      </trkpt>
      <trkpt lat="45.14454" lon="6.33545">
        <ele>2493</ele>
        <time>2023-02-05T14:14:15.299Z</time>
      </trkpt>
      <trkpt lat="45.14445" lon="6.33546">
        <ele>2490</ele>
        <time>2023-02-05T14:14:20.296Z</time>
      </trkpt>
      <trkpt lat="45.1445" lon="6.3356">
        <ele>2487</ele>
        <time>2023-02-05T14:14:25.267Z</time>
      </trkpt>
      <trkpt lat="45.14459" lon="6.3357">
        <ele>2485</ele>
        <time>2023-02-05T14:14:28.306Z</time>
      </trkpt>
      <trkpt lat="45.14465" lon="6.33581">
        <ele>2484</ele>
        <time>2023-02-05T14:14:30.336Z</time>
      </trkpt>
      <trkpt lat="45.14476" lon="6.33599">
        <ele>2481</ele>
        <time>2023-02-05T14:14:34.256Z</time>
      </trkpt>
      <trkpt lat="45.1449" lon="6.33626">
        <ele>2477</ele>
        <time>2023-02-05T14:14:39.268Z</time>
      </trkpt>
      <trkpt lat="45.14494" lon="6.33648">
        <ele>2472</ele>
        <time>2023-02-05T14:14:47.265Z</time>
      </trkpt>
      <trkpt lat="45.14493" lon="6.33648">
        <ele>2465</ele>
        <time>2023-02-05T14:14:59.307Z</time>
      </trkpt>
      <trkpt lat="45.14493" lon="6.33648">
        <ele>2465</ele>
        <time>2023-02-05T14:15:33.332Z</time>
      </trkpt>
      <trkpt lat="45.14513" lon="6.33629">
        <ele>2459</ele>
        <time>2023-02-05T14:15:34.320Z</time>
      </trkpt>
      <trkpt lat="45.14522" lon="6.33623">
        <ele>2459</ele>
        <time>2023-02-05T14:15:38.300Z</time>
      </trkpt>
      <trkpt lat="45.14529" lon="6.33612">
        <ele>2459</ele>
        <time>2023-02-05T14:15:41.325Z</time>
      </trkpt>
      <trkpt lat="45.14537" lon="6.33622">
        <ele>2458</ele>
        <time>2023-02-05T14:15:45.297Z</time>
      </trkpt>
      <trkpt lat="45.14551" lon="6.33622">
        <ele>2457</ele>
        <time>2023-02-05T14:15:49.308Z</time>
      </trkpt>
      <trkpt lat="45.14557" lon="6.33639">
        <ele>2456</ele>
        <time>2023-02-05T14:15:53.290Z</time>
      </trkpt>
      <trkpt lat="45.14572" lon="6.33641">
        <ele>2455</ele>
        <time>2023-02-05T14:15:57.328Z</time>
      </trkpt>
      <trkpt lat="45.14575" lon="6.33656">
        <ele>2451</ele>
        <time>2023-02-05T14:16:04.324Z</time>
      </trkpt>
      <trkpt lat="45.14586" lon="6.33662">
        <ele>2447</ele>
        <time>2023-02-05T14:16:11.322Z</time>
      </trkpt>
      <trkpt lat="45.14596" lon="6.33661">
        <ele>2445</ele>
        <time>2023-02-05T14:16:14.317Z</time>
      </trkpt>
      <trkpt lat="45.14608" lon="6.33657">
        <ele>2442</ele>
        <time>2023-02-05T14:16:18.333Z</time>
      </trkpt>
      <trkpt lat="45.14615" lon="6.33669">
        <ele>2436</ele>
        <time>2023-02-05T14:16:26.332Z</time>
      </trkpt>
      <trkpt lat="45.14626" lon="6.33671">
        <ele>2434</ele>
        <time>2023-02-05T14:16:29.329Z</time>
      </trkpt>
      <trkpt lat="45.1462" lon="6.33682">
        <ele>2430</ele>
        <time>2023-02-05T14:16:34.285Z</time>
      </trkpt>
      <trkpt lat="45.1462" lon="6.33682">
        <ele>2423</ele>
        <time>2023-02-05T14:16:46.324Z</time>
      </trkpt>
      <trkpt lat="45.1462" lon="6.33682">
        <ele>2423</ele>
        <time>2023-02-05T14:17:34.326Z</time>
      </trkpt>
      <trkpt lat="45.14642" lon="6.33691">
        <ele>2413</ele>
        <time>2023-02-05T14:17:35.329Z</time>
      </trkpt>
      <trkpt lat="45.14654" lon="6.3369">
        <ele>2412</ele>
        <time>2023-02-05T14:17:38.344Z</time>
      </trkpt>
      <trkpt lat="45.14663" lon="6.33699">
        <ele>2410</ele>
        <time>2023-02-05T14:17:45.313Z</time>
      </trkpt>
      <trkpt lat="45.14673" lon="6.33702">
        <ele>2407</ele>
        <time>2023-02-05T14:17:53.338Z</time>
      </trkpt>
      <trkpt lat="45.14682" lon="6.33712">
        <ele>2405</ele>
        <time>2023-02-05T14:17:56.313Z</time>
      </trkpt>
      <trkpt lat="45.14681" lon="6.33725">
        <ele>2403</ele>
        <time>2023-02-05T14:17:59.320Z</time>
      </trkpt>
      <trkpt lat="45.14682" lon="6.33744">
        <ele>2400</ele>
        <time>2023-02-05T14:18:06.311Z</time>
      </trkpt>
      <trkpt lat="45.14694" lon="6.33747">
        <ele>2398</ele>
        <time>2023-02-05T14:18:09.353Z</time>
      </trkpt>
      <trkpt lat="45.14704" lon="6.33759">
        <ele>2396</ele>
        <time>2023-02-05T14:18:12.342Z</time>
      </trkpt>
      <trkpt lat="45.1471" lon="6.33758">
        <ele>2387</ele>
        <time>2023-02-05T14:18:27.303Z</time>
      </trkpt>
      <trkpt lat="45.1471" lon="6.33758">
        <ele>2387</ele>
        <time>2023-02-05T14:18:57.359Z</time>
      </trkpt>
      <trkpt lat="45.14713" lon="6.33791">
        <ele>2377</ele>
        <time>2023-02-05T14:18:58.361Z</time>
      </trkpt>
      <trkpt lat="45.1471" lon="6.33805">
        <ele>2376</ele>
        <time>2023-02-05T14:19:04.331Z</time>
      </trkpt>
      <trkpt lat="45.14713" lon="6.33821">
        <ele>2374</ele>
        <time>2023-02-05T14:19:11.325Z</time>
      </trkpt>
      <trkpt lat="45.14725" lon="6.33829">
        <ele>2373</ele>
        <time>2023-02-05T14:19:13.347Z</time>
      </trkpt>
      <trkpt lat="45.14733" lon="6.33835">
        <ele>2373</ele>
        <time>2023-02-05T14:19:14.345Z</time>
      </trkpt>
      <trkpt lat="45.1475" lon="6.33841">
        <ele>2372</ele>
        <time>2023-02-05T14:19:16.361Z</time>
      </trkpt>
      <trkpt lat="45.14771" lon="6.33852">
        <ele>2370</ele>
        <time>2023-02-05T14:19:19.367Z</time>
      </trkpt>
      <trkpt lat="45.14809" lon="6.33847">
        <ele>2367</ele>
        <time>2023-02-05T14:19:24.283Z</time>
      </trkpt>
      <trkpt lat="45.14848" lon="6.3385">
        <ele>2364</ele>
        <time>2023-02-05T14:19:29.322Z</time>
      </trkpt>
      <trkpt lat="45.14885" lon="6.33841">
        <ele>2361</ele>
        <time>2023-02-05T14:19:33.359Z</time>
      </trkpt>
      <trkpt lat="45.14932" lon="6.33839">
        <ele>2356</ele>
        <time>2023-02-05T14:19:38.296Z</time>
      </trkpt>
      <trkpt lat="45.14975" lon="6.33833">
        <ele>2351</ele>
        <time>2023-02-05T14:19:43.364Z</time>
      </trkpt>
      <trkpt lat="45.15009" lon="6.33805">
        <ele>2344</ele>
        <time>2023-02-05T14:19:49.365Z</time>
      </trkpt>
      <trkpt lat="45.15014" lon="6.33794">
        <ele>2330</ele>
        <time>2023-02-05T14:20:05.276Z</time>
      </trkpt>
      <trkpt lat="45.15015" lon="6.33795">
        <ele>2321</ele>
        <time>2023-02-05T14:20:19.354Z</time>
      </trkpt>
      <trkpt lat="45.15015" lon="6.33795">
        <ele>2321</ele>
        <time>2023-02-05T14:21:42.336Z</time>
      </trkpt>
      <trkpt lat="45.15032" lon="6.33815">
        <ele>2318</ele>
        <time>2023-02-05T14:21:43.314Z</time>
      </trkpt>
      <trkpt lat="45.15036" lon="6.33821">
        <ele>2318</ele>
        <time>2023-02-05T14:22:02.332Z</time>
      </trkpt>
      <trkpt lat="45.15036" lon="6.33821">
        <ele>2318</ele>
        <time>2023-02-05T14:23:36.325Z</time>
      </trkpt>
      <trkpt lat="45.15021" lon="6.33846">
        <ele>2315</ele>
        <time>2023-02-05T14:23:37.305Z</time>
      </trkpt>
      <trkpt lat="45.15018" lon="6.33859">
        <ele>2315</ele>
        <time>2023-02-05T14:23:45.338Z</time>
      </trkpt>
      <trkpt lat="45.15014" lon="6.33871">
        <ele>2315</ele>
        <time>2023-02-05T14:23:52.336Z</time>
      </trkpt>
      <trkpt lat="45.15013" lon="6.33872">
        <ele>2313</ele>
        <time>2023-02-05T14:24:06.289Z</time>
      </trkpt>
      <trkpt lat="45.15013" lon="6.33872">
        <ele>2313</ele>
        <time>2023-02-05T14:27:38.356Z</time>
      </trkpt>
      <trkpt lat="45.15032" lon="6.3389">
        <ele>2309</ele>
        <time>2023-02-05T14:27:39.294Z</time>
      </trkpt>
      <trkpt lat="45.1504" lon="6.33883">
        <ele>2309</ele>
        <time>2023-02-05T14:27:54.356Z</time>
      </trkpt>
      <trkpt lat="45.15048" lon="6.33878">
        <ele>2309</ele>
        <time>2023-02-05T14:28:10.265Z</time>
      </trkpt>
      <trkpt lat="45.15052" lon="6.3388">
        <ele>2310</ele>
        <time>2023-02-05T14:28:33.379Z</time>
      </trkpt>
      <trkpt lat="45.15052" lon="6.3388">
        <ele>2310</ele>
        <time>2023-02-05T14:29:34.350Z</time>
      </trkpt>
      <trkpt lat="45.15079" lon="6.33871">
        <ele>2315</ele>
        <time>2023-02-05T14:29:35.286Z</time>
      </trkpt>
      <trkpt lat="45.15093" lon="6.33868">
        <ele>2315</ele>
        <time>2023-02-05T14:29:37.334Z</time>
      </trkpt>
      <trkpt lat="45.15105" lon="6.33864">
        <ele>2315</ele>
        <time>2023-02-05T14:29:39.343Z</time>
      </trkpt>
      <trkpt lat="45.15118" lon="6.33858">
        <ele>2314</ele>
        <time>2023-02-05T14:29:41.326Z</time>
      </trkpt>
      <trkpt lat="45.15144" lon="6.33849">
        <ele>2313</ele>
        <time>2023-02-05T14:29:45.337Z</time>
      </trkpt>
      <trkpt lat="45.15161" lon="6.33843">
        <ele>2311</ele>
        <time>2023-02-05T14:29:54.350Z</time>
      </trkpt>
      <trkpt lat="45.15161" lon="6.33843">
        <ele>2308</ele>
        <time>2023-02-05T14:30:04.336Z</time>
      </trkpt>
      <trkpt lat="45.15161" lon="6.33843">
        <ele>2308</ele>
        <time>2023-02-05T14:31:20.309Z</time>
      </trkpt>
      <trkpt lat="45.15181" lon="6.33826">
        <ele>2300</ele>
        <time>2023-02-05T14:31:21.346Z</time>
      </trkpt>
      <trkpt lat="45.15188" lon="6.33815">
        <ele>2300</ele>
        <time>2023-02-05T14:31:25.344Z</time>
      </trkpt>
      <trkpt lat="45.15198" lon="6.33808">
        <ele>2300</ele>
        <time>2023-02-05T14:31:28.350Z</time>
      </trkpt>
      <trkpt lat="45.1521" lon="6.33799">
        <ele>2299</ele>
        <time>2023-02-05T14:31:31.322Z</time>
      </trkpt>
      <trkpt lat="45.15219" lon="6.33791">
        <ele>2298</ele>
        <time>2023-02-05T14:31:40.353Z</time>
      </trkpt>
      <trkpt lat="45.15227" lon="6.33785">
        <ele>2297</ele>
        <time>2023-02-05T14:31:44.321Z</time>
      </trkpt>
      <trkpt lat="45.15237" lon="6.33793">
        <ele>2294</ele>
        <time>2023-02-05T14:31:53.310Z</time>
      </trkpt>
      <trkpt lat="45.15245" lon="6.33784">
        <ele>2293</ele>
        <time>2023-02-05T14:31:56.329Z</time>
      </trkpt>
      <trkpt lat="45.15255" lon="6.33772">
        <ele>2291</ele>
        <time>2023-02-05T14:32:01.339Z</time>
      </trkpt>
      <trkpt lat="45.15265" lon="6.33762">
        <ele>2290</ele>
        <time>2023-02-05T14:32:04.288Z</time>
      </trkpt>
      <trkpt lat="45.15277" lon="6.3375">
        <ele>2288</ele>
        <time>2023-02-05T14:32:08.327Z</time>
      </trkpt>
      <trkpt lat="45.15284" lon="6.3374">
        <ele>2284</ele>
        <time>2023-02-05T14:32:16.335Z</time>
      </trkpt>
      <trkpt lat="45.15284" lon="6.33741">
        <ele>2279</ele>
        <time>2023-02-05T14:32:26.349Z</time>
      </trkpt>
      <trkpt lat="45.15284" lon="6.33741">
        <ele>2279</ele>
        <time>2023-02-05T14:33:27.312Z</time>
      </trkpt>
      <trkpt lat="45.15294" lon="6.33773">
        <ele>2267</ele>
        <time>2023-02-05T14:33:28.348Z</time>
      </trkpt>
      <trkpt lat="45.15296" lon="6.33781">
        <ele>2265</ele>
        <time>2023-02-05T14:33:43.351Z</time>
      </trkpt>
      <trkpt lat="45.15296" lon="6.33781">
        <ele>2265</ele>
        <time>2023-02-05T14:34:10.353Z</time>
      </trkpt>
      <trkpt lat="45.15304" lon="6.33816">
        <ele>2258</ele>
        <time>2023-02-05T14:34:11.379Z</time>
      </trkpt>
      <trkpt lat="45.15302" lon="6.33833">
        <ele>2258</ele>
        <time>2023-02-05T14:34:14.337Z</time>
      </trkpt>
      <trkpt lat="45.153" lon="6.33851">
        <ele>2255</ele>
        <time>2023-02-05T14:34:21.367Z</time>
      </trkpt>
      <trkpt lat="45.15308" lon="6.33857">
        <ele>2253</ele>
        <time>2023-02-05T14:34:27.344Z</time>
      </trkpt>
      <trkpt lat="45.15318" lon="6.33854">
        <ele>2251</ele>
        <time>2023-02-05T14:34:31.357Z</time>
      </trkpt>
      <trkpt lat="45.15325" lon="6.3387">
        <ele>2249</ele>
        <time>2023-02-05T14:34:34.338Z</time>
      </trkpt>
      <trkpt lat="45.15339" lon="6.33874">
        <ele>2245</ele>
        <time>2023-02-05T14:34:41.341Z</time>
      </trkpt>
      <trkpt lat="45.15339" lon="6.33875">
        <ele>2238</ele>
        <time>2023-02-05T14:34:55.340Z</time>
      </trkpt>
      <trkpt lat="45.15339" lon="6.33875">
        <ele>2238</ele>
        <time>2023-02-05T14:35:23.258Z</time>
      </trkpt>
      <trkpt lat="45.1536" lon="6.33893">
        <ele>2229</ele>
        <time>2023-02-05T14:35:24.292Z</time>
      </trkpt>
      <trkpt lat="45.15373" lon="6.33887">
        <ele>2229</ele>
        <time>2023-02-05T14:35:27.302Z</time>
      </trkpt>
      <trkpt lat="45.15388" lon="6.33886">
        <ele>2228</ele>
        <time>2023-02-05T14:35:30.313Z</time>
      </trkpt>
      <trkpt lat="45.15408" lon="6.33883">
        <ele>2226</ele>
        <time>2023-02-05T14:35:34.289Z</time>
      </trkpt>
      <trkpt lat="45.15429" lon="6.33872">
        <ele>2224</ele>
        <time>2023-02-05T14:35:40.291Z</time>
      </trkpt>
      <trkpt lat="45.15443" lon="6.33862">
        <ele>2221</ele>
        <time>2023-02-05T14:35:45.323Z</time>
      </trkpt>
      <trkpt lat="45.15455" lon="6.33855">
        <ele>2219</ele>
        <time>2023-02-05T14:35:49.311Z</time>
      </trkpt>
      <trkpt lat="45.15465" lon="6.3385">
        <ele>2217</ele>
        <time>2023-02-05T14:35:54.343Z</time>
      </trkpt>
      <trkpt lat="45.15475" lon="6.33847">
        <ele>2215</ele>
        <time>2023-02-05T14:35:58.322Z</time>
      </trkpt>
      <trkpt lat="45.15483" lon="6.33844">
        <ele>2213</ele>
        <time>2023-02-05T14:36:03.258Z</time>
      </trkpt>
      <trkpt lat="45.15484" lon="6.33844">
        <ele>2210</ele>
        <time>2023-02-05T14:36:14.336Z</time>
      </trkpt>
      <trkpt lat="45.15484" lon="6.33844">
        <ele>2210</ele>
        <time>2023-02-05T14:38:49.287Z</time>
      </trkpt>
      <trkpt lat="45.15486" lon="6.33809">
        <ele>2201</ele>
        <time>2023-02-05T14:38:50.276Z</time>
      </trkpt>
      <trkpt lat="45.15489" lon="6.33796">
        <ele>2201</ele>
        <time>2023-02-05T14:38:52.291Z</time>
      </trkpt>
      <trkpt lat="45.15494" lon="6.3378">
        <ele>2201</ele>
        <time>2023-02-05T14:38:55.298Z</time>
      </trkpt>
      <trkpt lat="45.15507" lon="6.3376">
        <ele>2201</ele>
        <time>2023-02-05T14:39:00.278Z</time>
      </trkpt>
      <trkpt lat="45.15511" lon="6.33757">
        <ele>2198</ele>
        <time>2023-02-05T14:39:16.326Z</time>
      </trkpt>
      <trkpt lat="45.15511" lon="6.33757">
        <ele>2198</ele>
        <time>2023-02-05T14:39:38.326Z</time>
      </trkpt>
      <trkpt lat="45.15537" lon="6.33758">
        <ele>2195</ele>
        <time>2023-02-05T14:39:39.343Z</time>
      </trkpt>
      <trkpt lat="45.15547" lon="6.33758">
        <ele>2194</ele>
        <time>2023-02-05T14:39:42.332Z</time>
      </trkpt>
      <trkpt lat="45.15559" lon="6.33754">
        <ele>2194</ele>
        <time>2023-02-05T14:39:46.307Z</time>
      </trkpt>
      <trkpt lat="45.15572" lon="6.33749">
        <ele>2193</ele>
        <time>2023-02-05T14:39:52.282Z</time>
      </trkpt>
      <trkpt lat="45.15584" lon="6.33743">
        <ele>2193</ele>
        <time>2023-02-05T14:39:56.262Z</time>
      </trkpt>
      <trkpt lat="45.15594" lon="6.3374">
        <ele>2192</ele>
        <time>2023-02-05T14:39:59.281Z</time>
      </trkpt>
      <trkpt lat="45.15605" lon="6.33736">
        <ele>2192</ele>
        <time>2023-02-05T14:40:03.256Z</time>
      </trkpt>
      <trkpt lat="45.15617" lon="6.33731">
        <ele>2191</ele>
        <time>2023-02-05T14:40:08.281Z</time>
      </trkpt>
      <trkpt lat="45.15627" lon="6.33725">
        <ele>2190</ele>
        <time>2023-02-05T14:40:12.285Z</time>
      </trkpt>
      <trkpt lat="45.15636" lon="6.33723">
        <ele>2189</ele>
        <time>2023-02-05T14:40:17.275Z</time>
      </trkpt>
      <trkpt lat="45.15646" lon="6.33724">
        <ele>2185</ele>
        <time>2023-02-05T14:40:32.277Z</time>
      </trkpt>
      <trkpt lat="45.15657" lon="6.33729">
        <ele>2184</ele>
        <time>2023-02-05T14:40:36.322Z</time>
      </trkpt>
      <trkpt lat="45.15667" lon="6.33737">
        <ele>2183</ele>
        <time>2023-02-05T14:40:40.310Z</time>
      </trkpt>
      <trkpt lat="45.15676" lon="6.33746">
        <ele>2183</ele>
        <time>2023-02-05T14:40:42.315Z</time>
      </trkpt>
      <trkpt lat="45.15679" lon="6.33758">
        <ele>2179</ele>
        <time>2023-02-05T14:40:54.343Z</time>
      </trkpt>
      <trkpt lat="45.15689" lon="6.3376">
        <ele>2178</ele>
        <time>2023-02-05T14:40:57.303Z</time>
      </trkpt>
      <trkpt lat="45.15697" lon="6.33751">
        <ele>2177</ele>
        <time>2023-02-05T14:41:00.290Z</time>
      </trkpt>
      <trkpt lat="45.15705" lon="6.33743">
        <ele>2175</ele>
        <time>2023-02-05T14:41:08.311Z</time>
      </trkpt>
      <trkpt lat="45.15705" lon="6.33743">
        <ele>2172</ele>
        <time>2023-02-05T14:41:17.277Z</time>
      </trkpt>
      <trkpt lat="45.15705" lon="6.33743">
        <ele>2172</ele>
        <time>2023-02-05T14:41:31.298Z</time>
      </trkpt>
      <trkpt lat="45.15729" lon="6.33736">
        <ele>2169</ele>
        <time>2023-02-05T14:41:32.293Z</time>
      </trkpt>
      <trkpt lat="45.15739" lon="6.33735">
        <ele>2168</ele>
        <time>2023-02-05T14:41:34.283Z</time>
      </trkpt>
      <trkpt lat="45.15752" lon="6.3373">
        <ele>2168</ele>
        <time>2023-02-05T14:41:37.270Z</time>
      </trkpt>
      <trkpt lat="45.15769" lon="6.33715">
        <ele>2167</ele>
        <time>2023-02-05T14:41:42.323Z</time>
      </trkpt>
      <trkpt lat="45.15778" lon="6.33712">
        <ele>2165</ele>
        <time>2023-02-05T14:41:50.302Z</time>
      </trkpt>
      <trkpt lat="45.15777" lon="6.33712">
        <ele>2163</ele>
        <time>2023-02-05T14:42:03.239Z</time>
      </trkpt>
      <trkpt lat="45.15777" lon="6.33712">
        <ele>2163</ele>
        <time>2023-02-05T14:48:14.327Z</time>
      </trkpt>
      <trkpt lat="45.15802" lon="6.33714">
        <ele>2155</ele>
        <time>2023-02-05T14:48:15.310Z</time>
      </trkpt>
      <trkpt lat="45.15812" lon="6.33713">
        <ele>2155</ele>
        <time>2023-02-05T14:48:19.283Z</time>
      </trkpt>
      <trkpt lat="45.15822" lon="6.33713">
        <ele>2155</ele>
        <time>2023-02-05T14:48:23.349Z</time>
      </trkpt>
      <trkpt lat="45.15834" lon="6.33712">
        <ele>2155</ele>
        <time>2023-02-05T14:48:26.335Z</time>
      </trkpt>
      <trkpt lat="45.15848" lon="6.33707">
        <ele>2156</ele>
        <time>2023-02-05T14:48:29.350Z</time>
      </trkpt>
      <trkpt lat="45.15866" lon="6.33698">
        <ele>2156</ele>
        <time>2023-02-05T14:48:32.370Z</time>
      </trkpt>
      <trkpt lat="45.15887" lon="6.33695">
        <ele>2156</ele>
        <time>2023-02-05T14:48:38.332Z</time>
      </trkpt>
      <trkpt lat="45.15896" lon="6.33698">
        <ele>2156</ele>
        <time>2023-02-05T14:48:50.345Z</time>
      </trkpt>
      <trkpt lat="45.15907" lon="6.337">
        <ele>2155</ele>
        <time>2023-02-05T14:48:57.273Z</time>
      </trkpt>
      <trkpt lat="45.15917" lon="6.33709">
        <ele>2155</ele>
        <time>2023-02-05T14:49:04.340Z</time>
      </trkpt>
      <trkpt lat="45.15927" lon="6.33715">
        <ele>2155</ele>
        <time>2023-02-05T14:49:06.373Z</time>
      </trkpt>
      <trkpt lat="45.15938" lon="6.33712">
        <ele>2154</ele>
        <time>2023-02-05T14:49:09.314Z</time>
      </trkpt>
      <trkpt lat="45.15941" lon="6.33709">
        <ele>2153</ele>
        <time>2023-02-05T14:49:27.338Z</time>
      </trkpt>
      <trkpt lat="45.15941" lon="6.33709">
        <ele>2153</ele>
        <time>2023-02-05T14:51:08.338Z</time>
      </trkpt>
      <trkpt lat="45.15964" lon="6.33706">
        <ele>2152</ele>
        <time>2023-02-05T14:51:09.318Z</time>
      </trkpt>
      <trkpt lat="45.15973" lon="6.33711">
        <ele>2152</ele>
        <time>2023-02-05T14:51:16.335Z</time>
      </trkpt>
      <trkpt lat="45.15981" lon="6.33717">
        <ele>2152</ele>
        <time>2023-02-05T14:51:22.332Z</time>
      </trkpt>
      <trkpt lat="45.15982" lon="6.33717">
        <ele>2153</ele>
        <time>2023-02-05T14:51:34.335Z</time>
      </trkpt>
      <trkpt lat="45.15982" lon="6.33717">
        <ele>2153</ele>
        <time>2023-02-05T14:54:43.347Z</time>
      </trkpt>
      <trkpt lat="45.16003" lon="6.33739">
        <ele>2152</ele>
        <time>2023-02-05T14:54:44.302Z</time>
      </trkpt>
      <trkpt lat="45.16012" lon="6.33749">
        <ele>2152</ele>
        <time>2023-02-05T14:54:46.280Z</time>
      </trkpt>
      <trkpt lat="45.16029" lon="6.3376">
        <ele>2152</ele>
        <time>2023-02-05T14:54:49.350Z</time>
      </trkpt>
      <trkpt lat="45.16052" lon="6.3378">
        <ele>2152</ele>
        <time>2023-02-05T14:54:54.352Z</time>
      </trkpt>
      <trkpt lat="45.16073" lon="6.33795">
        <ele>2150</ele>
        <time>2023-02-05T14:55:00.345Z</time>
      </trkpt>
      <trkpt lat="45.16093" lon="6.338">
        <ele>2149</ele>
        <time>2023-02-05T14:55:06.343Z</time>
      </trkpt>
      <trkpt lat="45.16108" lon="6.33802">
        <ele>2147</ele>
        <time>2023-02-05T14:55:09.345Z</time>
      </trkpt>
      <trkpt lat="45.16127" lon="6.33809">
        <ele>2146</ele>
        <time>2023-02-05T14:55:13.342Z</time>
      </trkpt>
      <trkpt lat="45.16137" lon="6.33801">
        <ele>2140</ele>
        <time>2023-02-05T14:55:23.301Z</time>
      </trkpt>
      <trkpt lat="45.16147" lon="6.338">
        <ele>2138</ele>
        <time>2023-02-05T14:55:26.317Z</time>
      </trkpt>
      <trkpt lat="45.16157" lon="6.33797">
        <ele>2134</ele>
        <time>2023-02-05T14:55:33.354Z</time>
      </trkpt>
      <trkpt lat="45.16163" lon="6.33807">
        <ele>2132</ele>
        <time>2023-02-05T14:55:37.323Z</time>
      </trkpt>
      <trkpt lat="45.1617" lon="6.33817">
        <ele>2130</ele>
        <time>2023-02-05T14:55:40.340Z</time>
      </trkpt>
      <trkpt lat="45.16171" lon="6.33837">
        <ele>2128</ele>
        <time>2023-02-05T14:55:43.330Z</time>
      </trkpt>
      <trkpt lat="45.16168" lon="6.33856">
        <ele>2125</ele>
        <time>2023-02-05T14:55:49.361Z</time>
      </trkpt>
      <trkpt lat="45.16165" lon="6.33871">
        <ele>2121</ele>
        <time>2023-02-05T14:55:56.273Z</time>
      </trkpt>
      <trkpt lat="45.16166" lon="6.33885">
        <ele>2119</ele>
        <time>2023-02-05T14:56:00.299Z</time>
      </trkpt>
      <trkpt lat="45.16172" lon="6.339">
        <ele>2118</ele>
        <time>2023-02-05T14:56:03.236Z</time>
      </trkpt>
      <trkpt lat="45.16185" lon="6.33894">
        <ele>2117</ele>
        <time>2023-02-05T14:56:07.281Z</time>
      </trkpt>
      <trkpt lat="45.16193" lon="6.33871">
        <ele>2115</ele>
        <time>2023-02-05T14:56:11.343Z</time>
      </trkpt>
      <trkpt lat="45.16204" lon="6.33851">
        <ele>2114</ele>
        <time>2023-02-05T14:56:14.295Z</time>
      </trkpt>
      <trkpt lat="45.16222" lon="6.33828">
        <ele>2111</ele>
        <time>2023-02-05T14:56:19.290Z</time>
      </trkpt>
      <trkpt lat="45.1624" lon="6.33831">
        <ele>2108</ele>
        <time>2023-02-05T14:56:26.278Z</time>
      </trkpt>
      <trkpt lat="45.16251" lon="6.33836">
        <ele>2107</ele>
        <time>2023-02-05T14:56:30.295Z</time>
      </trkpt>
      <trkpt lat="45.16261" lon="6.33835">
        <ele>2104</ele>
        <time>2023-02-05T14:56:36.294Z</time>
      </trkpt>
      <trkpt lat="45.16269" lon="6.33824">
        <ele>2102</ele>
        <time>2023-02-05T14:56:41.286Z</time>
      </trkpt>
      <trkpt lat="45.16277" lon="6.33814">
        <ele>2101</ele>
        <time>2023-02-05T14:56:43.319Z</time>
      </trkpt>
      <trkpt lat="45.16288" lon="6.33812">
        <ele>2100</ele>
        <time>2023-02-05T14:56:45.298Z</time>
      </trkpt>
      <trkpt lat="45.16304" lon="6.33803">
        <ele>2099</ele>
        <time>2023-02-05T14:56:48.289Z</time>
      </trkpt>
      <trkpt lat="45.16324" lon="6.33787">
        <ele>2096</ele>
        <time>2023-02-05T14:56:52.289Z</time>
      </trkpt>
      <trkpt lat="45.16346" lon="6.33768">
        <ele>2094</ele>
        <time>2023-02-05T14:56:56.294Z</time>
      </trkpt>
      <trkpt lat="45.16377" lon="6.33744">
        <ele>2091</ele>
        <time>2023-02-05T14:57:00.304Z</time>
      </trkpt>
      <trkpt lat="45.16409" lon="6.33711">
        <ele>2089</ele>
        <time>2023-02-05T14:57:04.290Z</time>
      </trkpt>
      <trkpt lat="45.1644" lon="6.33686">
        <ele>2084</ele>
        <time>2023-02-05T14:57:11.273Z</time>
      </trkpt>
      <trkpt lat="45.16456" lon="6.3368">
        <ele>2080</ele>
        <time>2023-02-05T14:57:18.278Z</time>
      </trkpt>
      <trkpt lat="45.16465" lon="6.33681">
        <ele>2073</ele>
        <time>2023-02-05T14:57:29.310Z</time>
      </trkpt>
      <trkpt lat="45.16468" lon="6.3368">
        <ele>2068</ele>
        <time>2023-02-05T14:57:45.286Z</time>
      </trkpt>
      <trkpt lat="45.16468" lon="6.3368">
        <ele>2068</ele>
        <time>2023-02-05T14:58:05.292Z</time>
      </trkpt>
      <trkpt lat="45.16489" lon="6.33698">
        <ele>2066</ele>
        <time>2023-02-05T14:58:06.316Z</time>
      </trkpt>
      <trkpt lat="45.16497" lon="6.3371">
        <ele>2066</ele>
        <time>2023-02-05T14:58:10.295Z</time>
      </trkpt>
      <trkpt lat="45.16505" lon="6.33721">
        <ele>2066</ele>
        <time>2023-02-05T14:58:14.330Z</time>
      </trkpt>
      <trkpt lat="45.16513" lon="6.3373">
        <ele>2066</ele>
        <time>2023-02-05T14:58:18.252Z</time>
      </trkpt>
      <trkpt lat="45.16523" lon="6.33739">
        <ele>2066</ele>
        <time>2023-02-05T14:58:22.342Z</time>
      </trkpt>
      <trkpt lat="45.16533" lon="6.33743">
        <ele>2066</ele>
        <time>2023-02-05T14:58:25.355Z</time>
      </trkpt>
      <trkpt lat="45.16545" lon="6.33747">
        <ele>2065</ele>
        <time>2023-02-05T14:58:28.330Z</time>
      </trkpt>
      <trkpt lat="45.16559" lon="6.33754">
        <ele>2065</ele>
        <time>2023-02-05T14:58:31.319Z</time>
      </trkpt>
      <trkpt lat="45.16575" lon="6.33763">
        <ele>2065</ele>
        <time>2023-02-05T14:58:35.323Z</time>
      </trkpt>
      <trkpt lat="45.16593" lon="6.33778">
        <ele>2064</ele>
        <time>2023-02-05T14:58:39.331Z</time>
      </trkpt>
      <trkpt lat="45.16617" lon="6.33785">
        <ele>2064</ele>
        <time>2023-02-05T14:58:43.339Z</time>
      </trkpt>
      <trkpt lat="45.1664" lon="6.33796">
        <ele>2063</ele>
        <time>2023-02-05T14:58:48.312Z</time>
      </trkpt>
      <trkpt lat="45.16659" lon="6.33816">
        <ele>2061</ele>
        <time>2023-02-05T14:58:53.326Z</time>
      </trkpt>
      <trkpt lat="45.16679" lon="6.3383">
        <ele>2060</ele>
        <time>2023-02-05T14:58:57.347Z</time>
      </trkpt>
      <trkpt lat="45.16701" lon="6.33833">
        <ele>2059</ele>
        <time>2023-02-05T14:59:01.340Z</time>
      </trkpt>
      <trkpt lat="45.16729" lon="6.33832">
        <ele>2057</ele>
        <time>2023-02-05T14:59:06.333Z</time>
      </trkpt>
      <trkpt lat="45.16754" lon="6.33833">
        <ele>2055</ele>
        <time>2023-02-05T14:59:11.327Z</time>
      </trkpt>
      <trkpt lat="45.16772" lon="6.33836">
        <ele>2052</ele>
        <time>2023-02-05T14:59:17.340Z</time>
      </trkpt>
      <trkpt lat="45.16787" lon="6.33837">
        <ele>2050</ele>
        <time>2023-02-05T14:59:21.349Z</time>
      </trkpt>
      <trkpt lat="45.16806" lon="6.33832">
        <ele>2048</ele>
        <time>2023-02-05T14:59:24.336Z</time>
      </trkpt>
      <trkpt lat="45.16829" lon="6.33828">
        <ele>2046</ele>
        <time>2023-02-05T14:59:27.325Z</time>
      </trkpt>
      <trkpt lat="45.16857" lon="6.33826">
        <ele>2044</ele>
        <time>2023-02-05T14:59:31.337Z</time>
      </trkpt>
      <trkpt lat="45.16888" lon="6.33828">
        <ele>2040</ele>
        <time>2023-02-05T14:59:36.273Z</time>
      </trkpt>
      <trkpt lat="45.16921" lon="6.33824">
        <ele>2037</ele>
        <time>2023-02-05T14:59:41.344Z</time>
      </trkpt>
      <trkpt lat="45.16953" lon="6.33821">
        <ele>2033</ele>
        <time>2023-02-05T14:59:46.340Z</time>
      </trkpt>
      <trkpt lat="45.16986" lon="6.33827">
        <ele>2030</ele>
        <time>2023-02-05T14:59:51.320Z</time>
      </trkpt>
      <trkpt lat="45.17016" lon="6.33829">
        <ele>2025</ele>
        <time>2023-02-05T14:59:57.283Z</time>
      </trkpt>
      <trkpt lat="45.17033" lon="6.33823">
        <ele>2021</ele>
        <time>2023-02-05T15:00:04.332Z</time>
      </trkpt>
      <trkpt lat="45.17042" lon="6.33818">
        <ele>2019</ele>
        <time>2023-02-05T15:00:09.302Z</time>
      </trkpt>
      <trkpt lat="45.17052" lon="6.33814">
        <ele>2017</ele>
        <time>2023-02-05T15:00:13.313Z</time>
      </trkpt>
      <trkpt lat="45.17062" lon="6.33809">
        <ele>2015</ele>
        <time>2023-02-05T15:00:18.331Z</time>
      </trkpt>
      <trkpt lat="45.17072" lon="6.33802">
        <ele>2014</ele>
        <time>2023-02-05T15:00:23.359Z</time>
      </trkpt>
      <trkpt lat="45.1708" lon="6.33796">
        <ele>2011</ele>
        <time>2023-02-05T15:00:35.340Z</time>
      </trkpt>
      <trkpt lat="45.17089" lon="6.3379">
        <ele>2011</ele>
        <time>2023-02-05T15:00:47.263Z</time>
      </trkpt>
      <trkpt lat="45.17099" lon="6.33786">
        <ele>2011</ele>
        <time>2023-02-05T15:00:55.290Z</time>
      </trkpt>
      <trkpt lat="45.17108" lon="6.33785">
        <ele>2011</ele>
        <time>2023-02-05T15:00:59.279Z</time>
      </trkpt>
      <trkpt lat="45.17119" lon="6.33785">
        <ele>2011</ele>
        <time>2023-02-05T15:01:03.299Z</time>
      </trkpt>
      <trkpt lat="45.17128" lon="6.33781">
        <ele>2011</ele>
        <time>2023-02-05T15:01:07.293Z</time>
      </trkpt>
      <trkpt lat="45.17137" lon="6.33774">
        <ele>2011</ele>
        <time>2023-02-05T15:01:11.286Z</time>
      </trkpt>
      <trkpt lat="45.17146" lon="6.33768">
        <ele>2011</ele>
        <time>2023-02-05T15:01:15.274Z</time>
      </trkpt>
      <trkpt lat="45.17154" lon="6.3376">
        <ele>2011</ele>
        <time>2023-02-05T15:01:19.289Z</time>
      </trkpt>
      <trkpt lat="45.17161" lon="6.33753">
        <ele>2011</ele>
        <time>2023-02-05T15:01:22.318Z</time>
      </trkpt>
      <trkpt lat="45.17171" lon="6.33747">
        <ele>2010</ele>
        <time>2023-02-05T15:01:25.287Z</time>
      </trkpt>
      <trkpt lat="45.17183" lon="6.33742">
        <ele>2010</ele>
        <time>2023-02-05T15:01:28.302Z</time>
      </trkpt>
      <trkpt lat="45.17202" lon="6.33741">
        <ele>2010</ele>
        <time>2023-02-05T15:01:32.285Z</time>
      </trkpt>
      <trkpt lat="45.17222" lon="6.33743">
        <ele>2009</ele>
        <time>2023-02-05T15:01:35.294Z</time>
      </trkpt>
      <trkpt lat="45.17246" lon="6.33739">
        <ele>2008</ele>
        <time>2023-02-05T15:01:39.262Z</time>
      </trkpt>
      <trkpt lat="45.1727" lon="6.33729">
        <ele>2007</ele>
        <time>2023-02-05T15:01:45.269Z</time>
      </trkpt>
      <trkpt lat="45.17285" lon="6.33726">
        <ele>2006</ele>
        <time>2023-02-05T15:01:51.294Z</time>
      </trkpt>
      <trkpt lat="45.17294" lon="6.33723">
        <ele>2005</ele>
        <time>2023-02-05T15:01:58.304Z</time>
      </trkpt>
      <trkpt lat="45.17304" lon="6.33721">
        <ele>2004</ele>
        <time>2023-02-05T15:02:04.290Z</time>
      </trkpt>
      <trkpt lat="45.17312" lon="6.33713">
        <ele>2003</ele>
        <time>2023-02-05T15:02:11.336Z</time>
      </trkpt>
      <trkpt lat="45.17319" lon="6.33703">
        <ele>2002</ele>
        <time>2023-02-05T15:02:18.298Z</time>
      </trkpt>
      <trkpt lat="45.17326" lon="6.33691">
        <ele>2003</ele>
        <time>2023-02-05T15:02:24.345Z</time>
      </trkpt>
      <trkpt lat="45.17332" lon="6.3368">
        <ele>2003</ele>
        <time>2023-02-05T15:02:29.257Z</time>
      </trkpt>
      <trkpt lat="45.17338" lon="6.33671">
        <ele>2003</ele>
        <time>2023-02-05T15:02:36.304Z</time>
      </trkpt>
      <trkpt lat="45.17339" lon="6.33671">
        <ele>2004</ele>
        <time>2023-02-05T15:02:49.341Z</time>
      </trkpt>
      <trkpt lat="45.17339" lon="6.33671">
        <ele>2004</ele>
        <time>2023-02-05T15:04:50.249Z</time>
      </trkpt>
      <trkpt lat="45.1736" lon="6.33656">
        <ele>2004</ele>
        <time>2023-02-05T15:04:51.329Z</time>
      </trkpt>
      <trkpt lat="45.17369" lon="6.33647">
        <ele>2004</ele>
        <time>2023-02-05T15:04:53.332Z</time>
      </trkpt>
      <trkpt lat="45.17379" lon="6.3363">
        <ele>2004</ele>
        <time>2023-02-05T15:04:55.287Z</time>
      </trkpt>
      <trkpt lat="45.17393" lon="6.33603">
        <ele>2004</ele>
        <time>2023-02-05T15:04:58.329Z</time>
      </trkpt>
      <trkpt lat="45.17413" lon="6.3356">
        <ele>2003</ele>
        <time>2023-02-05T15:05:03.349Z</time>
      </trkpt>
      <trkpt lat="45.17433" lon="6.33528">
        <ele>2002</ele>
        <time>2023-02-05T15:05:09.335Z</time>
      </trkpt>
      <trkpt lat="45.17452" lon="6.33507">
        <ele>2000</ele>
        <time>2023-02-05T15:05:14.295Z</time>
      </trkpt>
      <trkpt lat="45.17466" lon="6.33482">
        <ele>1999</ele>
        <time>2023-02-05T15:05:19.337Z</time>
      </trkpt>
      <trkpt lat="45.17479" lon="6.33459">
        <ele>1997</ele>
        <time>2023-02-05T15:05:24.351Z</time>
      </trkpt>
      <trkpt lat="45.17497" lon="6.33447">
        <ele>1996</ele>
        <time>2023-02-05T15:05:28.333Z</time>
      </trkpt>
      <trkpt lat="45.17511" lon="6.33422">
        <ele>1994</ele>
        <time>2023-02-05T15:05:33.313Z</time>
      </trkpt>
      <trkpt lat="45.17533" lon="6.33407">
        <ele>1992</ele>
        <time>2023-02-05T15:05:38.338Z</time>
      </trkpt>
      <trkpt lat="45.17555" lon="6.3339">
        <ele>1990</ele>
        <time>2023-02-05T15:05:42.344Z</time>
      </trkpt>
      <trkpt lat="45.17576" lon="6.33372">
        <ele>1988</ele>
        <time>2023-02-05T15:05:47.354Z</time>
      </trkpt>
      <trkpt lat="45.17597" lon="6.33355">
        <ele>1985</ele>
        <time>2023-02-05T15:05:52.307Z</time>
      </trkpt>
      <trkpt lat="45.17617" lon="6.33333">
        <ele>1983</ele>
        <time>2023-02-05T15:05:56.291Z</time>
      </trkpt>
      <trkpt lat="45.17635" lon="6.33307">
        <ele>1981</ele>
        <time>2023-02-05T15:06:00.333Z</time>
      </trkpt>
      <trkpt lat="45.17654" lon="6.33281">
        <ele>1978</ele>
        <time>2023-02-05T15:06:04.297Z</time>
      </trkpt>
      <trkpt lat="45.17674" lon="6.33255">
        <ele>1975</ele>
        <time>2023-02-05T15:06:09.331Z</time>
      </trkpt>
      <trkpt lat="45.17689" lon="6.3324">
        <ele>1971</ele>
        <time>2023-02-05T15:06:16.348Z</time>
      </trkpt>
      <trkpt lat="45.17698" lon="6.33225">
        <ele>1969</ele>
        <time>2023-02-05T15:06:19.322Z</time>
      </trkpt>
      <trkpt lat="45.17707" lon="6.33205">
        <ele>1967</ele>
        <time>2023-02-05T15:06:22.307Z</time>
      </trkpt>
      <trkpt lat="45.17714" lon="6.3318">
        <ele>1965</ele>
        <time>2023-02-05T15:06:26.318Z</time>
      </trkpt>
      <trkpt lat="45.17728" lon="6.33161">
        <ele>1962</ele>
        <time>2023-02-05T15:06:32.314Z</time>
      </trkpt>
      <trkpt lat="45.17736" lon="6.33143">
        <ele>1960</ele>
        <time>2023-02-05T15:06:36.312Z</time>
      </trkpt>
      <trkpt lat="45.17737" lon="6.33143">
        <ele>1955</ele>
        <time>2023-02-05T15:06:50.320Z</time>
      </trkpt>
      <trkpt lat="45.17737" lon="6.33143">
        <ele>1955</ele>
        <time>2023-02-05T15:07:29.299Z</time>
      </trkpt>
      <trkpt lat="45.17758" lon="6.33126">
        <ele>1950</ele>
        <time>2023-02-05T15:07:30.289Z</time>
      </trkpt>
      <trkpt lat="45.17768" lon="6.33118">
        <ele>1950</ele>
        <time>2023-02-05T15:07:32.282Z</time>
      </trkpt>
      <trkpt lat="45.1778" lon="6.3311">
        <ele>1950</ele>
        <time>2023-02-05T15:07:38.272Z</time>
      </trkpt>
      <trkpt lat="45.17796" lon="6.33108">
        <ele>1950</ele>
        <time>2023-02-05T15:07:41.287Z</time>
      </trkpt>
      <trkpt lat="45.17805" lon="6.33104">
        <ele>1948</ele>
        <time>2023-02-05T15:07:50.261Z</time>
      </trkpt>
      <trkpt lat="45.17803" lon="6.33091">
        <ele>1945</ele>
        <time>2023-02-05T15:08:03.320Z</time>
      </trkpt>
      <trkpt lat="45.17811" lon="6.3308">
        <ele>1943</ele>
        <time>2023-02-05T15:08:10.302Z</time>
      </trkpt>
      <trkpt lat="45.17822" lon="6.33073">
        <ele>1939</ele>
        <time>2023-02-05T15:08:24.276Z</time>
      </trkpt>
      <trkpt lat="45.17833" lon="6.33068">
        <ele>1938</ele>
        <time>2023-02-05T15:08:27.316Z</time>
      </trkpt>
      <trkpt lat="45.17841" lon="6.33059">
        <ele>1937</ele>
        <time>2023-02-05T15:08:30.329Z</time>
      </trkpt>
      <trkpt lat="45.17849" lon="6.3305">
        <ele>1937</ele>
        <time>2023-02-05T15:08:32.320Z</time>
      </trkpt>
      <trkpt lat="45.1786" lon="6.33035">
        <ele>1935</ele>
        <time>2023-02-05T15:08:35.297Z</time>
      </trkpt>
      <trkpt lat="45.17875" lon="6.33015">
        <ele>1933</ele>
        <time>2023-02-05T15:08:39.295Z</time>
      </trkpt>
      <trkpt lat="45.17897" lon="6.33011">
        <ele>1930</ele>
        <time>2023-02-05T15:08:44.297Z</time>
      </trkpt>
      <trkpt lat="45.17925" lon="6.33003">
        <ele>1928</ele>
        <time>2023-02-05T15:08:48.294Z</time>
      </trkpt>
      <trkpt lat="45.17948" lon="6.32989">
        <ele>1925</ele>
        <time>2023-02-05T15:08:52.263Z</time>
      </trkpt>
      <trkpt lat="45.17973" lon="6.3296">
        <ele>1921</ele>
        <time>2023-02-05T15:08:57.291Z</time>
      </trkpt>
      <trkpt lat="45.18005" lon="6.32951">
        <ele>1918</ele>
        <time>2023-02-05T15:09:02.330Z</time>
      </trkpt>
      <trkpt lat="45.18034" lon="6.32943">
        <ele>1913</ele>
        <time>2023-02-05T15:09:07.304Z</time>
      </trkpt>
      <trkpt lat="45.18061" lon="6.3294">
        <ele>1909</ele>
        <time>2023-02-05T15:09:12.311Z</time>
      </trkpt>
      <trkpt lat="45.18082" lon="6.32948">
        <ele>1905</ele>
        <time>2023-02-05T15:09:18.334Z</time>
      </trkpt>
      <trkpt lat="45.18089" lon="6.32952">
        <ele>1896</ele>
        <time>2023-02-05T15:09:36.252Z</time>
      </trkpt>
      <trkpt lat="45.18089" lon="6.32952">
        <ele>1896</ele>
        <time>2023-02-05T15:10:14.312Z</time>
      </trkpt>
      <trkpt lat="45.18084" lon="6.3292">
        <ele>1889</ele>
        <time>2023-02-05T15:10:15.317Z</time>
      </trkpt>
      <trkpt lat="45.18088" lon="6.32908">
        <ele>1888</ele>
        <time>2023-02-05T15:10:18.361Z</time>
      </trkpt>
      <trkpt lat="45.18098" lon="6.32898">
        <ele>1888</ele>
        <time>2023-02-05T15:10:21.332Z</time>
      </trkpt>
      <trkpt lat="45.18112" lon="6.32894">
        <ele>1887</ele>
        <time>2023-02-05T15:10:23.317Z</time>
      </trkpt>
      <trkpt lat="45.18124" lon="6.32896">
        <ele>1886</ele>
        <time>2023-02-05T15:10:25.310Z</time>
      </trkpt>
      <trkpt lat="45.18146" lon="6.32907">
        <ele>1882</ele>
        <time>2023-02-05T15:10:32.336Z</time>
      </trkpt>
      <trkpt lat="45.18162" lon="6.32891">
        <ele>1879</ele>
        <time>2023-02-05T15:10:37.342Z</time>
      </trkpt>
      <trkpt lat="45.18178" lon="6.3289">
        <ele>1877</ele>
        <time>2023-02-05T15:10:40.276Z</time>
      </trkpt>
      <trkpt lat="45.18189" lon="6.32884">
        <ele>1870</ele>
        <time>2023-02-05T15:10:50.322Z</time>
      </trkpt>
      <trkpt lat="45.18198" lon="6.32883">
        <ele>1858</ele>
        <time>2023-02-05T15:11:07.332Z</time>
      </trkpt>
      <trkpt lat="45.18207" lon="6.32885">
        <ele>1856</ele>
        <time>2023-02-05T15:11:11.332Z</time>
      </trkpt>
      <trkpt lat="45.18218" lon="6.3288">
        <ele>1855</ele>
        <time>2023-02-05T15:11:14.291Z</time>
      </trkpt>
      <trkpt lat="45.18229" lon="6.32877">
        <ele>1854</ele>
        <time>2023-02-05T15:11:16.289Z</time>
      </trkpt>
      <trkpt lat="45.18243" lon="6.32883">
        <ele>1852</ele>
        <time>2023-02-05T15:11:20.319Z</time>
      </trkpt>
      <trkpt lat="45.18262" lon="6.32878">
        <ele>1851</ele>
        <time>2023-02-05T15:11:24.339Z</time>
      </trkpt>
      <trkpt lat="45.18281" lon="6.32869">
        <ele>1849</ele>
        <time>2023-02-05T15:11:28.296Z</time>
      </trkpt>
      <trkpt lat="45.18305" lon="6.32868">
        <ele>1847</ele>
        <time>2023-02-05T15:11:33.335Z</time>
      </trkpt>
      <trkpt lat="45.18319" lon="6.32847">
        <ele>1844</ele>
        <time>2023-02-05T15:11:38.330Z</time>
      </trkpt>
      <trkpt lat="45.18339" lon="6.32834">
        <ele>1842</ele>
        <time>2023-02-05T15:11:42.309Z</time>
      </trkpt>
      <trkpt lat="45.1836" lon="6.32821">
        <ele>1839</ele>
        <time>2023-02-05T15:11:47.337Z</time>
      </trkpt>
      <trkpt lat="45.1837" lon="6.32785">
        <ele>1836</ele>
        <time>2023-02-05T15:11:52.354Z</time>
      </trkpt>
      <trkpt lat="45.1838" lon="6.32747">
        <ele>1832</ele>
        <time>2023-02-05T15:11:56.296Z</time>
      </trkpt>
      <trkpt lat="45.18402" lon="6.3272">
        <ele>1828</ele>
        <time>2023-02-05T15:12:01.346Z</time>
      </trkpt>
      <trkpt lat="45.18402" lon="6.32721">
        <ele>1818</ele>
        <time>2023-02-05T15:12:14.344Z</time>
      </trkpt>
      <trkpt lat="45.18402" lon="6.32721">
        <ele>1818</ele>
        <time>2023-02-05T15:12:40.351Z</time>
      </trkpt>
      <trkpt lat="45.18423" lon="6.32704">
        <ele>1808</ele>
        <time>2023-02-05T15:12:41.291Z</time>
      </trkpt>
      <trkpt lat="45.18433" lon="6.32695">
        <ele>1807</ele>
        <time>2023-02-05T15:12:43.337Z</time>
      </trkpt>
      <trkpt lat="45.18442" lon="6.32681">
        <ele>1807</ele>
        <time>2023-02-05T15:12:45.330Z</time>
      </trkpt>
      <trkpt lat="45.18456" lon="6.32663">
        <ele>1807</ele>
        <time>2023-02-05T15:12:48.349Z</time>
      </trkpt>
      <trkpt lat="45.18474" lon="6.32638">
        <ele>1806</ele>
        <time>2023-02-05T15:12:53.343Z</time>
      </trkpt>
      <trkpt lat="45.18495" lon="6.32619">
        <ele>1805</ele>
        <time>2023-02-05T15:12:59.363Z</time>
      </trkpt>
      <trkpt lat="45.18508" lon="6.32599">
        <ele>1804</ele>
        <time>2023-02-05T15:13:03.351Z</time>
      </trkpt>
      <trkpt lat="45.18519" lon="6.32579">
        <ele>1803</ele>
        <time>2023-02-05T15:13:06.369Z</time>
      </trkpt>
      <trkpt lat="45.18526" lon="6.32551">
        <ele>1802</ele>
        <time>2023-02-05T15:13:09.324Z</time>
      </trkpt>
      <trkpt lat="45.18535" lon="6.32513">
        <ele>1800</ele>
        <time>2023-02-05T15:13:14.323Z</time>
      </trkpt>
      <trkpt lat="45.18543" lon="6.32478">
        <ele>1797</ele>
        <time>2023-02-05T15:13:19.343Z</time>
      </trkpt>
      <trkpt lat="45.1855" lon="6.32445">
        <ele>1795</ele>
        <time>2023-02-05T15:13:23.346Z</time>
      </trkpt>
      <trkpt lat="45.18562" lon="6.32407">
        <ele>1793</ele>
        <time>2023-02-05T15:13:28.352Z</time>
      </trkpt>
      <trkpt lat="45.18574" lon="6.32377">
        <ele>1789</ele>
        <time>2023-02-05T15:13:34.351Z</time>
      </trkpt>
      <trkpt lat="45.1859" lon="6.32354">
        <ele>1786</ele>
        <time>2023-02-05T15:13:39.343Z</time>
      </trkpt>
      <trkpt lat="45.18607" lon="6.3234">
        <ele>1783</ele>
        <time>2023-02-05T15:13:44.377Z</time>
      </trkpt>
      <trkpt lat="45.18622" lon="6.3233">
        <ele>1780</ele>
        <time>2023-02-05T15:13:49.353Z</time>
      </trkpt>
      <trkpt lat="45.18628" lon="6.32314">
        <ele>1777</ele>
        <time>2023-02-05T15:13:54.363Z</time>
      </trkpt>
      <trkpt lat="45.18633" lon="6.32299">
        <ele>1775</ele>
        <time>2023-02-05T15:13:58.315Z</time>
      </trkpt>
      <trkpt lat="45.18638" lon="6.32282">
        <ele>1774</ele>
        <time>2023-02-05T15:14:01.328Z</time>
      </trkpt>
      <trkpt lat="45.18643" lon="6.32263">
        <ele>1771</ele>
        <time>2023-02-05T15:14:06.328Z</time>
      </trkpt>
      <trkpt lat="45.18647" lon="6.32246">
        <ele>1770</ele>
        <time>2023-02-05T15:14:10.357Z</time>
      </trkpt>
      <trkpt lat="45.18652" lon="6.3223">
        <ele>1768</ele>
        <time>2023-02-05T15:14:13.359Z</time>
      </trkpt>
      <trkpt lat="45.18656" lon="6.3221">
        <ele>1767</ele>
        <time>2023-02-05T15:14:16.327Z</time>
      </trkpt>
      <trkpt lat="45.18658" lon="6.32186">
        <ele>1766</ele>
        <time>2023-02-05T15:14:19.317Z</time>
      </trkpt>
      <trkpt lat="45.18667" lon="6.32159">
        <ele>1764</ele>
        <time>2023-02-05T15:14:26.359Z</time>
      </trkpt>
      <trkpt lat="45.18667" lon="6.32159">
        <ele>1761</ele>
        <time>2023-02-05T15:14:37.348Z</time>
      </trkpt>
      <trkpt lat="45.18667" lon="6.32159">
        <ele>1761</ele>
        <time>2023-02-05T15:14:45.352Z</time>
      </trkpt>
      <trkpt lat="45.18645" lon="6.3215">
        <ele>1759</ele>
        <time>2023-02-05T15:14:46.306Z</time>
      </trkpt>
      <trkpt lat="45.18636" lon="6.3215">
        <ele>1758</ele>
        <time>2023-02-05T15:14:48.365Z</time>
      </trkpt>
      <trkpt lat="45.18627" lon="6.32154">
        <ele>1756</ele>
        <time>2023-02-05T15:14:58.308Z</time>
      </trkpt>
      <trkpt lat="45.18628" lon="6.32137">
        <ele>1754</ele>
        <time>2023-02-05T15:15:03.363Z</time>
      </trkpt>
      <trkpt lat="45.18635" lon="6.32131">
        <ele>1751</ele>
        <time>2023-02-05T15:15:15.301Z</time>
      </trkpt>
      <trkpt lat="45.18645" lon="6.3212">
        <ele>1749</ele>
        <time>2023-02-05T15:15:23.397Z</time>
      </trkpt>
      <trkpt lat="45.18651" lon="6.32111">
        <ele>1747</ele>
        <time>2023-02-05T15:15:32.355Z</time>
      </trkpt>
      <trkpt lat="45.18645" lon="6.32101">
        <ele>1745</ele>
        <time>2023-02-05T15:15:39.329Z</time>
      </trkpt>
      <trkpt lat="45.18635" lon="6.32098">
        <ele>1742</ele>
        <time>2023-02-05T15:15:49.359Z</time>
      </trkpt>
      <trkpt lat="45.18625" lon="6.32093">
        <ele>1738</ele>
        <time>2023-02-05T15:16:00.318Z</time>
      </trkpt>
      <trkpt lat="45.18624" lon="6.32079">
        <ele>1732</ele>
        <time>2023-02-05T15:16:16.343Z</time>
      </trkpt>
      <trkpt lat="45.18626" lon="6.32065">
        <ele>1731</ele>
        <time>2023-02-05T15:16:20.301Z</time>
      </trkpt>
      <trkpt lat="45.18626" lon="6.3205">
        <ele>1730</ele>
        <time>2023-02-05T15:16:23.385Z</time>
      </trkpt>
      <trkpt lat="45.18627" lon="6.32037">
        <ele>1729</ele>
        <time>2023-02-05T15:16:26.332Z</time>
      </trkpt>
      <trkpt lat="45.18621" lon="6.32025">
        <ele>1725</ele>
        <time>2023-02-05T15:16:38.349Z</time>
      </trkpt>
      <trkpt lat="45.18612" lon="6.3202">
        <ele>1723</ele>
        <time>2023-02-05T15:16:42.348Z</time>
      </trkpt>
      <trkpt lat="45.18605" lon="6.32017">
        <ele>1717</ele>
        <time>2023-02-05T15:16:59.333Z</time>
      </trkpt>
      <trkpt lat="45.18605" lon="6.32017">
        <ele>1717</ele>
        <time>2023-02-05T15:17:23.330Z</time>
      </trkpt>
      <trkpt lat="45.18583" lon="6.32016">
        <ele>1709</ele>
        <time>2023-02-05T15:17:24.344Z</time>
      </trkpt>
      <trkpt lat="45.18578" lon="6.32018">
        <ele>1705</ele>
        <time>2023-02-05T15:17:41.336Z</time>
      </trkpt>
      <trkpt lat="45.18578" lon="6.32018">
        <ele>1705</ele>
        <time>2023-02-05T15:17:51.379Z</time>
      </trkpt>
      <trkpt lat="45.18566" lon="6.3199">
        <ele>1702</ele>
        <time>2023-02-05T15:17:52.374Z</time>
      </trkpt>
      <trkpt lat="45.18566" lon="6.31988">
        <ele>1700</ele>
        <time>2023-02-05T15:18:05.340Z</time>
      </trkpt>
      <trkpt lat="45.18566" lon="6.31988">
        <ele>1700</ele>
        <time>2023-02-05T15:18:21.354Z</time>
      </trkpt>
      <trkpt lat="45.18545" lon="6.31972">
        <ele>1696</ele>
        <time>2023-02-05T15:18:22.373Z</time>
      </trkpt>
      <trkpt lat="45.18534" lon="6.31964">
        <ele>1691</ele>
        <time>2023-02-05T15:18:39.314Z</time>
      </trkpt>
      <trkpt lat="45.18526" lon="6.31959">
        <ele>1685</ele>
        <time>2023-02-05T15:18:53.329Z</time>
      </trkpt>
      <trkpt lat="45.18525" lon="6.31958">
        <ele>1684</ele>
        <time>2023-02-05T15:18:54.358Z</time>
      </trkpt>
      <trkpt lat="45.18525" lon="6.31958">
        <ele>1684</ele>
        <time>2023-02-05T15:19:14.348Z</time>
      </trkpt>
      <trkpt lat="45.18509" lon="6.31935">
        <ele>1676</ele>
        <time>2023-02-05T15:19:15.344Z</time>
      </trkpt>
      <trkpt lat="45.18508" lon="6.31932">
        <ele>1674</ele>
        <time>2023-02-05T15:19:27.337Z</time>
      </trkpt>
      <trkpt lat="45.18508" lon="6.31932">
        <ele>1674</ele>
        <time>2023-02-05T15:19:50.317Z</time>
      </trkpt>
      <trkpt lat="45.18509" lon="6.319">
        <ele>1671</ele>
        <time>2023-02-05T15:19:51.324Z</time>
      </trkpt>
      <trkpt lat="45.18516" lon="6.31891">
        <ele>1671</ele>
        <time>2023-02-05T15:19:55.366Z</time>
      </trkpt>
      <trkpt lat="45.18517" lon="6.31885">
        <ele>1666</ele>
        <time>2023-02-05T15:20:11.336Z</time>
      </trkpt>
      <trkpt lat="45.18517" lon="6.31885">
        <ele>1666</ele>
        <time>2023-02-05T15:21:03.363Z</time>
      </trkpt>
      <trkpt lat="45.18533" lon="6.31856">
        <ele>1646</ele>
        <time>2023-02-05T15:21:04.357Z</time>
      </trkpt>
      <trkpt lat="45.18529" lon="6.3185">
        <ele>1643</ele>
        <time>2023-02-05T15:21:23.352Z</time>
      </trkpt>
      <trkpt lat="45.18529" lon="6.3185">
        <ele>1643</ele>
        <time>2023-02-05T15:22:02.375Z</time>
      </trkpt>
      <trkpt lat="45.18551" lon="6.31838">
        <ele>1640</ele>
        <time>2023-02-05T15:22:03.293Z</time>
      </trkpt>
      <trkpt lat="45.1855" lon="6.31839">
        <ele>1638</ele>
        <time>2023-02-05T15:22:17.339Z</time>
      </trkpt>
      <trkpt lat="45.1855" lon="6.31839">
        <ele>1638</ele>
        <time>2023-02-05T15:24:44.960Z</time>
      </trkpt>
    </trkseg>
  </trk>
</gpx>